<?xml version="1.0" encoding="UTF-8" standalone="no" ?>
<gpx xmlns="http://www.topografix.com/GPX/1/1" xmlns:xsi="http://www.w3.org/2001/XMLSchema-instance" xsi:schemaLocation="http://www.topografix.com/GPX/1/1 http://www.topografix.com/GPX/1/1/gpx.xsd" version="1.1" creator="VisuGPX - https://www.visugpx.com">
  <metadata>
    <name>Rando en passant par la Dole</name>
    <desc><![CDATA[Rando en passant par la dole]]></desc>
  </metadata>
  <trk>
    <name><![CDATA[ACTIVE LOG072445]]></name>
    <trkseg>
      <trkpt lat="46.43907" lon="6.09173">
        <ele>1264.059</ele>
        <time>2013-10-19T05:24:43Z</time>
      </trkpt>
      <trkpt lat="46.43907" lon="6.09173">
        <ele>1264.059</ele>
        <time>2013-10-19T05:24:45Z</time>
      </trkpt>
      <trkpt lat="46.43907" lon="6.09172">
        <ele>1264.215</ele>
        <time>2013-10-19T05:24:46Z</time>
      </trkpt>
      <trkpt lat="46.43901" lon="6.0917">
        <ele>1265.535</ele>
        <time>2013-10-19T05:24:55Z</time>
      </trkpt>
      <trkpt lat="46.43893" lon="6.09165">
        <ele>1267.217</ele>
        <time>2013-10-19T05:25:05Z</time>
      </trkpt>
      <trkpt lat="46.43884" lon="6.09162">
        <ele>1270.526</ele>
        <time>2013-10-19T05:25:18Z</time>
      </trkpt>
      <trkpt lat="46.43872" lon="6.09161">
        <ele>1274.074</ele>
        <time>2013-10-19T05:25:36Z</time>
      </trkpt>
      <trkpt lat="46.43862" lon="6.09165">
        <ele>1277.322</ele>
        <time>2013-10-19T05:25:53Z</time>
      </trkpt>
      <trkpt lat="46.43854" lon="6.09163">
        <ele>1280.602</ele>
        <time>2013-10-19T05:26:07Z</time>
      </trkpt>
      <trkpt lat="46.43849" lon="6.0916">
        <ele>1282.388</ele>
        <time>2013-10-19T05:26:21Z</time>
      </trkpt>
      <trkpt lat="46.43843" lon="6.09154">
        <ele>1284.367</ele>
        <time>2013-10-19T05:26:40Z</time>
      </trkpt>
      <trkpt lat="46.43835" lon="6.09144">
        <ele>1287.392</ele>
        <time>2013-10-19T05:26:55Z</time>
      </trkpt>
      <trkpt lat="46.43825" lon="6.09134">
        <ele>1289.067</ele>
        <time>2013-10-19T05:27:11Z</time>
      </trkpt>
      <trkpt lat="46.43815" lon="6.09126">
        <ele>1292.002</ele>
        <time>2013-10-19T05:27:29Z</time>
      </trkpt>
      <trkpt lat="46.43817" lon="6.09126">
        <ele>1291.989</ele>
        <time>2013-10-19T05:27:40Z</time>
      </trkpt>
      <trkpt lat="46.43813" lon="6.09124">
        <ele>1292.526</ele>
        <time>2013-10-19T05:27:44Z</time>
      </trkpt>
      <trkpt lat="46.43801" lon="6.09112">
        <ele>1293.471</ele>
        <time>2013-10-19T05:28:01Z</time>
      </trkpt>
      <trkpt lat="46.43798" lon="6.09109">
        <ele>1293.067</ele>
        <time>2013-10-19T05:28:06Z</time>
      </trkpt>
      <trkpt lat="46.43791" lon="6.09105">
        <ele>1292.988</ele>
        <time>2013-10-19T05:28:18Z</time>
      </trkpt>
      <trkpt lat="46.43789" lon="6.09102">
        <ele>1293.112</ele>
        <time>2013-10-19T05:28:21Z</time>
      </trkpt>
      <trkpt lat="46.43782" lon="6.0909">
        <ele>1292.89</ele>
        <time>2013-10-19T05:28:32Z</time>
      </trkpt>
      <trkpt lat="46.43778" lon="6.09097">
        <ele>1293.68</ele>
        <time>2013-10-19T05:28:44Z</time>
      </trkpt>
      <trkpt lat="46.43777" lon="6.09094">
        <ele>1293.979</ele>
        <time>2013-10-19T05:28:46Z</time>
      </trkpt>
      <trkpt lat="46.43768" lon="6.09086">
        <ele>1294.153</ele>
        <time>2013-10-19T05:28:55Z</time>
      </trkpt>
      <trkpt lat="46.43762" lon="6.09068">
        <ele>1294.119</ele>
        <time>2013-10-19T05:29:08Z</time>
      </trkpt>
      <trkpt lat="46.43755" lon="6.09058">
        <ele>1294.301</ele>
        <time>2013-10-19T05:29:19Z</time>
      </trkpt>
      <trkpt lat="46.43753" lon="6.09055">
        <ele>1294.843</ele>
        <time>2013-10-19T05:29:23Z</time>
      </trkpt>
      <trkpt lat="46.43749" lon="6.09046">
        <ele>1294.245</ele>
        <time>2013-10-19T05:29:29Z</time>
      </trkpt>
      <trkpt lat="46.43746" lon="6.09048">
        <ele>1294.967</ele>
        <time>2013-10-19T05:29:34Z</time>
      </trkpt>
      <trkpt lat="46.4374" lon="6.09059">
        <ele>1295.313</ele>
        <time>2013-10-19T05:29:50Z</time>
      </trkpt>
      <trkpt lat="46.43742" lon="6.09045">
        <ele>1294.88</ele>
        <time>2013-10-19T05:30:02Z</time>
      </trkpt>
      <trkpt lat="46.43741" lon="6.09042">
        <ele>1295.128</ele>
        <time>2013-10-19T05:30:06Z</time>
      </trkpt>
      <trkpt lat="46.43736" lon="6.09034">
        <ele>1296.655</ele>
        <time>2013-10-19T05:30:17Z</time>
      </trkpt>
      <trkpt lat="46.43734" lon="6.09032">
        <ele>1297.44</ele>
        <time>2013-10-19T05:30:30Z</time>
      </trkpt>
      <trkpt lat="46.43731" lon="6.09033">
        <ele>1296.219</ele>
        <time>2013-10-19T05:30:39Z</time>
      </trkpt>
      <trkpt lat="46.43731" lon="6.09031">
        <ele>1299.274</ele>
        <time>2013-10-19T05:31:51Z</time>
      </trkpt>
      <trkpt lat="46.43728" lon="6.09034">
        <ele>1302.643</ele>
        <time>2013-10-19T05:32:07Z</time>
      </trkpt>
      <trkpt lat="46.43724" lon="6.09033">
        <ele>1301.488</ele>
        <time>2013-10-19T05:32:12Z</time>
      </trkpt>
      <trkpt lat="46.43718" lon="6.09033">
        <ele>1303.754</ele>
        <time>2013-10-19T05:32:20Z</time>
      </trkpt>
      <trkpt lat="46.43717" lon="6.0903">
        <ele>1304.219</ele>
        <time>2013-10-19T05:32:35Z</time>
      </trkpt>
      <trkpt lat="46.43706" lon="6.0903">
        <ele>1305.213</ele>
        <time>2013-10-19T05:32:50Z</time>
      </trkpt>
      <trkpt lat="46.43698" lon="6.09028">
        <ele>1308.373</ele>
        <time>2013-10-19T05:33:03Z</time>
      </trkpt>
      <trkpt lat="46.43686" lon="6.09025">
        <ele>1312.33</ele>
        <time>2013-10-19T05:33:23Z</time>
      </trkpt>
      <trkpt lat="46.43678" lon="6.09022">
        <ele>1315.906</ele>
        <time>2013-10-19T05:33:36Z</time>
      </trkpt>
      <trkpt lat="46.4368" lon="6.09013">
        <ele>1316.8</ele>
        <time>2013-10-19T05:33:42Z</time>
      </trkpt>
      <trkpt lat="46.43682" lon="6.09016">
        <ele>1317.464</ele>
        <time>2013-10-19T05:34:00Z</time>
      </trkpt>
      <trkpt lat="46.43684" lon="6.09018">
        <ele>1318.55</ele>
        <time>2013-10-19T05:34:22Z</time>
      </trkpt>
      <trkpt lat="46.43671" lon="6.09004">
        <ele>1319.341</ele>
        <time>2013-10-19T05:34:48Z</time>
      </trkpt>
      <trkpt lat="46.43668" lon="6.09002">
        <ele>1321.675</ele>
        <time>2013-10-19T05:34:51Z</time>
      </trkpt>
      <trkpt lat="46.43662" lon="6.08997">
        <ele>1323.355</ele>
        <time>2013-10-19T05:34:58Z</time>
      </trkpt>
      <trkpt lat="46.43654" lon="6.08992">
        <ele>1325.454</ele>
        <time>2013-10-19T05:35:10Z</time>
      </trkpt>
      <trkpt lat="46.43638" lon="6.08981">
        <ele>1325.958</ele>
        <time>2013-10-19T05:35:29Z</time>
      </trkpt>
      <trkpt lat="46.4363" lon="6.08978">
        <ele>1326.895</ele>
        <time>2013-10-19T05:35:38Z</time>
      </trkpt>
      <trkpt lat="46.43624" lon="6.08979">
        <ele>1327.045</ele>
        <time>2013-10-19T05:35:46Z</time>
      </trkpt>
      <trkpt lat="46.43619" lon="6.0898">
        <ele>1329.909</ele>
        <time>2013-10-19T05:35:56Z</time>
      </trkpt>
      <trkpt lat="46.43616" lon="6.08979">
        <ele>1331.015</ele>
        <time>2013-10-19T05:36:19Z</time>
      </trkpt>
      <trkpt lat="46.43616" lon="6.08978">
        <ele>1330.48</ele>
        <time>2013-10-19T05:36:40Z</time>
      </trkpt>
      <trkpt lat="46.43616" lon="6.08977">
        <ele>1331.075</ele>
        <time>2013-10-19T05:36:58Z</time>
      </trkpt>
      <trkpt lat="46.43614" lon="6.08981">
        <ele>1332.247</ele>
        <time>2013-10-19T05:37:07Z</time>
      </trkpt>
      <trkpt lat="46.43617" lon="6.08976">
        <ele>1332.039</ele>
        <time>2013-10-19T05:37:31Z</time>
      </trkpt>
      <trkpt lat="46.43612" lon="6.08978">
        <ele>1332.482</ele>
        <time>2013-10-19T05:38:02Z</time>
      </trkpt>
      <trkpt lat="46.43605" lon="6.08982">
        <ele>1334.173</ele>
        <time>2013-10-19T05:38:19Z</time>
      </trkpt>
      <trkpt lat="46.43599" lon="6.08987">
        <ele>1337.508</ele>
        <time>2013-10-19T05:38:31Z</time>
      </trkpt>
      <trkpt lat="46.43586" lon="6.08988">
        <ele>1338.187</ele>
        <time>2013-10-19T05:38:50Z</time>
      </trkpt>
      <trkpt lat="46.43579" lon="6.08982">
        <ele>1340.22</ele>
        <time>2013-10-19T05:39:05Z</time>
      </trkpt>
      <trkpt lat="46.43571" lon="6.08972">
        <ele>1340.809</ele>
        <time>2013-10-19T05:39:22Z</time>
      </trkpt>
      <trkpt lat="46.4357" lon="6.08972">
        <ele>1340.63</ele>
        <time>2013-10-19T05:39:23Z</time>
      </trkpt>
      <trkpt lat="46.43556" lon="6.0898">
        <ele>1342.414</ele>
        <time>2013-10-19T05:39:43Z</time>
      </trkpt>
      <trkpt lat="46.43555" lon="6.08997">
        <ele>1345.501</ele>
        <time>2013-10-19T05:40:03Z</time>
      </trkpt>
      <trkpt lat="46.43558" lon="6.09011">
        <ele>1348.647</ele>
        <time>2013-10-19T05:40:22Z</time>
      </trkpt>
      <trkpt lat="46.4356" lon="6.09024">
        <ele>1351.674</ele>
        <time>2013-10-19T05:40:42Z</time>
      </trkpt>
      <trkpt lat="46.43556" lon="6.09034">
        <ele>1354.584</ele>
        <time>2013-10-19T05:40:59Z</time>
      </trkpt>
      <trkpt lat="46.43557" lon="6.09039">
        <ele>1356.484</ele>
        <time>2013-10-19T05:41:18Z</time>
      </trkpt>
      <trkpt lat="46.4355" lon="6.09046">
        <ele>1357.199</ele>
        <time>2013-10-19T05:41:46Z</time>
      </trkpt>
      <trkpt lat="46.43545" lon="6.09057">
        <ele>1359.671</ele>
        <time>2013-10-19T05:42:01Z</time>
      </trkpt>
      <trkpt lat="46.43539" lon="6.09067">
        <ele>1362.52</ele>
        <time>2013-10-19T05:42:16Z</time>
      </trkpt>
      <trkpt lat="46.43534" lon="6.09071">
        <ele>1365.424</ele>
        <time>2013-10-19T05:42:31Z</time>
      </trkpt>
      <trkpt lat="46.43527" lon="6.09074">
        <ele>1368.078</ele>
        <time>2013-10-19T05:42:53Z</time>
      </trkpt>
      <trkpt lat="46.43517" lon="6.09083">
        <ele>1369.864</ele>
        <time>2013-10-19T05:43:08Z</time>
      </trkpt>
      <trkpt lat="46.43508" lon="6.09097">
        <ele>1371.523</ele>
        <time>2013-10-19T05:43:25Z</time>
      </trkpt>
      <trkpt lat="46.43507" lon="6.09099">
        <ele>1371.582</ele>
        <time>2013-10-19T05:43:27Z</time>
      </trkpt>
      <trkpt lat="46.43504" lon="6.09103">
        <ele>1372.21</ele>
        <time>2013-10-19T05:43:32Z</time>
      </trkpt>
      <trkpt lat="46.43502" lon="6.09113">
        <ele>1373.762</ele>
        <time>2013-10-19T05:43:50Z</time>
      </trkpt>
      <trkpt lat="46.43494" lon="6.09125">
        <ele>1376.575</ele>
        <time>2013-10-19T05:44:07Z</time>
      </trkpt>
      <trkpt lat="46.43491" lon="6.09132">
        <ele>1379.167</ele>
        <time>2013-10-19T05:44:21Z</time>
      </trkpt>
      <trkpt lat="46.4349" lon="6.09132">
        <ele>1379.916</ele>
        <time>2013-10-19T05:44:34Z</time>
      </trkpt>
      <trkpt lat="46.43491" lon="6.09131">
        <ele>1380.288</ele>
        <time>2013-10-19T05:45:08Z</time>
      </trkpt>
      <trkpt lat="46.43489" lon="6.0914">
        <ele>1382.202</ele>
        <time>2013-10-19T05:45:31Z</time>
      </trkpt>
      <trkpt lat="46.43483" lon="6.0916">
        <ele>1385.27</ele>
        <time>2013-10-19T05:45:50Z</time>
      </trkpt>
      <trkpt lat="46.43482" lon="6.09172">
        <ele>1386.542</ele>
        <time>2013-10-19T05:46:02Z</time>
      </trkpt>
      <trkpt lat="46.43483" lon="6.09177">
        <ele>1387.378</ele>
        <time>2013-10-19T05:46:15Z</time>
      </trkpt>
      <trkpt lat="46.43481" lon="6.09189">
        <ele>1389.616</ele>
        <time>2013-10-19T05:47:34Z</time>
      </trkpt>
      <trkpt lat="46.43479" lon="6.09196">
        <ele>1390.067</ele>
        <time>2013-10-19T05:47:41Z</time>
      </trkpt>
      <trkpt lat="46.43481" lon="6.09212">
        <ele>1391.982</ele>
        <time>2013-10-19T05:47:55Z</time>
      </trkpt>
      <trkpt lat="46.43482" lon="6.09215">
        <ele>1392.83</ele>
        <time>2013-10-19T05:48:13Z</time>
      </trkpt>
      <trkpt lat="46.43483" lon="6.09226">
        <ele>1395.846</ele>
        <time>2013-10-19T05:48:32Z</time>
      </trkpt>
      <trkpt lat="46.43484" lon="6.09241">
        <ele>1397.373</ele>
        <time>2013-10-19T05:48:44Z</time>
      </trkpt>
      <trkpt lat="46.4348" lon="6.09262">
        <ele>1399.618</ele>
        <time>2013-10-19T05:49:03Z</time>
      </trkpt>
      <trkpt lat="46.43482" lon="6.0928">
        <ele>1401.471</ele>
        <time>2013-10-19T05:49:19Z</time>
      </trkpt>
      <trkpt lat="46.43472" lon="6.09289">
        <ele>1403.635</ele>
        <time>2013-10-19T05:49:37Z</time>
      </trkpt>
      <trkpt lat="46.43465" lon="6.09286">
        <ele>1405.871</ele>
        <time>2013-10-19T05:49:55Z</time>
      </trkpt>
      <trkpt lat="46.43461" lon="6.09283">
        <ele>1407</ele>
        <time>2013-10-19T05:50:08Z</time>
      </trkpt>
      <trkpt lat="46.43461" lon="6.09286">
        <ele>1407.701</ele>
        <time>2013-10-19T05:50:42Z</time>
      </trkpt>
      <trkpt lat="46.43454" lon="6.09297">
        <ele>1409.764</ele>
        <time>2013-10-19T05:50:54Z</time>
      </trkpt>
      <trkpt lat="46.43439" lon="6.09321">
        <ele>1411.453</ele>
        <time>2013-10-19T05:51:18Z</time>
      </trkpt>
      <trkpt lat="46.43434" lon="6.09343">
        <ele>1414.297</ele>
        <time>2013-10-19T05:51:37Z</time>
      </trkpt>
      <trkpt lat="46.43427" lon="6.09368">
        <ele>1416.93</ele>
        <time>2013-10-19T05:51:58Z</time>
      </trkpt>
      <trkpt lat="46.43424" lon="6.0938">
        <ele>1417.884</ele>
        <time>2013-10-19T05:52:09Z</time>
      </trkpt>
      <trkpt lat="46.43419" lon="6.09398">
        <ele>1419.742</ele>
        <time>2013-10-19T05:52:27Z</time>
      </trkpt>
      <trkpt lat="46.43407" lon="6.09418">
        <ele>1420.871</ele>
        <time>2013-10-19T05:52:48Z</time>
      </trkpt>
      <trkpt lat="46.434" lon="6.09425">
        <ele>1422.44</ele>
        <time>2013-10-19T05:52:59Z</time>
      </trkpt>
      <trkpt lat="46.43399" lon="6.09428">
        <ele>1420.36</ele>
        <time>2013-10-19T05:53:01Z</time>
      </trkpt>
      <trkpt lat="46.43389" lon="6.09449">
        <ele>1423.438</ele>
        <time>2013-10-19T05:53:18Z</time>
      </trkpt>
      <trkpt lat="46.43378" lon="6.09454">
        <ele>1425.495</ele>
        <time>2013-10-19T05:53:37Z</time>
      </trkpt>
      <trkpt lat="46.43375" lon="6.09462">
        <ele>1428.144</ele>
        <time>2013-10-19T05:53:50Z</time>
      </trkpt>
      <trkpt lat="46.43378" lon="6.0948">
        <ele>1430.013</ele>
        <time>2013-10-19T05:54:12Z</time>
      </trkpt>
      <trkpt lat="46.43381" lon="6.09496">
        <ele>1427.455</ele>
        <time>2013-10-19T05:54:28Z</time>
      </trkpt>
      <trkpt lat="46.43375" lon="6.09519">
        <ele>1428.178</ele>
        <time>2013-10-19T05:54:48Z</time>
      </trkpt>
      <trkpt lat="46.43371" lon="6.09536">
        <ele>1428.283</ele>
        <time>2013-10-19T05:55:03Z</time>
      </trkpt>
      <trkpt lat="46.43368" lon="6.0955">
        <ele>1430.448</ele>
        <time>2013-10-19T05:55:18Z</time>
      </trkpt>
      <trkpt lat="46.43365" lon="6.09557">
        <ele>1431.956</ele>
        <time>2013-10-19T05:55:28Z</time>
      </trkpt>
      <trkpt lat="46.43356" lon="6.09577">
        <ele>1432.813</ele>
        <time>2013-10-19T05:55:47Z</time>
      </trkpt>
      <trkpt lat="46.43353" lon="6.09586">
        <ele>1435.974</ele>
        <time>2013-10-19T05:55:58Z</time>
      </trkpt>
      <trkpt lat="46.43352" lon="6.09587">
        <ele>1437.098</ele>
        <time>2013-10-19T05:56:00Z</time>
      </trkpt>
      <trkpt lat="46.43349" lon="6.09594">
        <ele>1436.174</ele>
        <time>2013-10-19T05:56:17Z</time>
      </trkpt>
      <trkpt lat="46.43348" lon="6.09596">
        <ele>1437.193</ele>
        <time>2013-10-19T05:56:19Z</time>
      </trkpt>
      <trkpt lat="46.43344" lon="6.09597">
        <ele>1437.502</ele>
        <time>2013-10-19T05:56:38Z</time>
      </trkpt>
      <trkpt lat="46.43344" lon="6.09597">
        <ele>1438.568</ele>
        <time>2013-10-19T05:57:23Z</time>
      </trkpt>
      <trkpt lat="46.43336" lon="6.09603">
        <ele>1440.429</ele>
        <time>2013-10-19T05:57:47Z</time>
      </trkpt>
      <trkpt lat="46.43324" lon="6.09609">
        <ele>1443.539</ele>
        <time>2013-10-19T05:58:05Z</time>
      </trkpt>
      <trkpt lat="46.43317" lon="6.09609">
        <ele>1444.817</ele>
        <time>2013-10-19T05:58:18Z</time>
      </trkpt>
      <trkpt lat="46.43315" lon="6.0961">
        <ele>1445.763</ele>
        <time>2013-10-19T05:58:20Z</time>
      </trkpt>
      <trkpt lat="46.43306" lon="6.09616">
        <ele>1448.311</ele>
        <time>2013-10-19T05:58:38Z</time>
      </trkpt>
      <trkpt lat="46.43298" lon="6.09621">
        <ele>1450.726</ele>
        <time>2013-10-19T05:58:53Z</time>
      </trkpt>
      <trkpt lat="46.43296" lon="6.09619">
        <ele>1451.966</ele>
        <time>2013-10-19T05:59:05Z</time>
      </trkpt>
      <trkpt lat="46.43296" lon="6.09618">
        <ele>1453.129</ele>
        <time>2013-10-19T05:59:33Z</time>
      </trkpt>
      <trkpt lat="46.43295" lon="6.09616">
        <ele>1452.971</ele>
        <time>2013-10-19T05:59:55Z</time>
      </trkpt>
      <trkpt lat="46.43287" lon="6.09626">
        <ele>1452.462</ele>
        <time>2013-10-19T06:00:08Z</time>
      </trkpt>
      <trkpt lat="46.43276" lon="6.09637">
        <ele>1455.141</ele>
        <time>2013-10-19T06:00:26Z</time>
      </trkpt>
      <trkpt lat="46.43272" lon="6.09638">
        <ele>1456.194</ele>
        <time>2013-10-19T06:00:32Z</time>
      </trkpt>
      <trkpt lat="46.43265" lon="6.09644">
        <ele>1458.969</ele>
        <time>2013-10-19T06:00:46Z</time>
      </trkpt>
      <trkpt lat="46.43261" lon="6.09649">
        <ele>1462.012</ele>
        <time>2013-10-19T06:00:58Z</time>
      </trkpt>
      <trkpt lat="46.43256" lon="6.09651">
        <ele>1463.165</ele>
        <time>2013-10-19T06:01:21Z</time>
      </trkpt>
      <trkpt lat="46.43254" lon="6.09652">
        <ele>1464.647</ele>
        <time>2013-10-19T06:01:39Z</time>
      </trkpt>
      <trkpt lat="46.4325" lon="6.0966">
        <ele>1467.127</ele>
        <time>2013-10-19T06:02:08Z</time>
      </trkpt>
      <trkpt lat="46.43237" lon="6.09674">
        <ele>1469.174</ele>
        <time>2013-10-19T06:02:29Z</time>
      </trkpt>
      <trkpt lat="46.43229" lon="6.09684">
        <ele>1472.659</ele>
        <time>2013-10-19T06:02:45Z</time>
      </trkpt>
      <trkpt lat="46.43228" lon="6.09685">
        <ele>1472.836</ele>
        <time>2013-10-19T06:03:09Z</time>
      </trkpt>
      <trkpt lat="46.4322" lon="6.09695">
        <ele>1475.505</ele>
        <time>2013-10-19T06:03:33Z</time>
      </trkpt>
      <trkpt lat="46.43215" lon="6.09702">
        <ele>1476.968</ele>
        <time>2013-10-19T06:03:45Z</time>
      </trkpt>
      <trkpt lat="46.43206" lon="6.09714">
        <ele>1479.303</ele>
        <time>2013-10-19T06:04:03Z</time>
      </trkpt>
      <trkpt lat="46.43198" lon="6.09724">
        <ele>1481.201</ele>
        <time>2013-10-19T06:04:21Z</time>
      </trkpt>
      <trkpt lat="46.43193" lon="6.09731">
        <ele>1483.15</ele>
        <time>2013-10-19T06:04:38Z</time>
      </trkpt>
      <trkpt lat="46.43187" lon="6.09737">
        <ele>1484.723</ele>
        <time>2013-10-19T06:04:59Z</time>
      </trkpt>
      <trkpt lat="46.43186" lon="6.0974">
        <ele>1484.372</ele>
        <time>2013-10-19T06:05:27Z</time>
      </trkpt>
      <trkpt lat="46.43186" lon="6.0974">
        <ele>1486.52</ele>
        <time>2013-10-19T06:07:35Z</time>
      </trkpt>
      <trkpt lat="46.43186" lon="6.09747">
        <ele>1489.138</ele>
        <time>2013-10-19T06:07:47Z</time>
      </trkpt>
      <trkpt lat="46.43185" lon="6.09752">
        <ele>1490.28</ele>
        <time>2013-10-19T06:08:11Z</time>
      </trkpt>
      <trkpt lat="46.43179" lon="6.09767">
        <ele>1491.851</ele>
        <time>2013-10-19T06:08:28Z</time>
      </trkpt>
      <trkpt lat="46.43174" lon="6.09782">
        <ele>1493.768</ele>
        <time>2013-10-19T06:08:50Z</time>
      </trkpt>
      <trkpt lat="46.43169" lon="6.09799">
        <ele>1496.994</ele>
        <time>2013-10-19T06:09:07Z</time>
      </trkpt>
      <trkpt lat="46.43168" lon="6.0981">
        <ele>1499.146</ele>
        <time>2013-10-19T06:09:24Z</time>
      </trkpt>
      <trkpt lat="46.43166" lon="6.09812">
        <ele>1500.096</ele>
        <time>2013-10-19T06:09:47Z</time>
      </trkpt>
      <trkpt lat="46.43164" lon="6.09825">
        <ele>1503.157</ele>
        <time>2013-10-19T06:10:01Z</time>
      </trkpt>
      <trkpt lat="46.43161" lon="6.09826">
        <ele>1503.274</ele>
        <time>2013-10-19T06:10:15Z</time>
      </trkpt>
      <trkpt lat="46.43161" lon="6.09826">
        <ele>1503.916</ele>
        <time>2013-10-19T06:10:34Z</time>
      </trkpt>
      <trkpt lat="46.43161" lon="6.09828">
        <ele>1503.754</ele>
        <time>2013-10-19T06:10:59Z</time>
      </trkpt>
      <trkpt lat="46.43159" lon="6.09834">
        <ele>1506.258</ele>
        <time>2013-10-19T06:11:30Z</time>
      </trkpt>
      <trkpt lat="46.4316" lon="6.09839">
        <ele>1507.011</ele>
        <time>2013-10-19T06:12:01Z</time>
      </trkpt>
      <trkpt lat="46.43155" lon="6.09851">
        <ele>1508.38</ele>
        <time>2013-10-19T06:12:16Z</time>
      </trkpt>
      <trkpt lat="46.43151" lon="6.09859">
        <ele>1509.856</ele>
        <time>2013-10-19T06:12:32Z</time>
      </trkpt>
      <trkpt lat="46.43148" lon="6.09863">
        <ele>1508.005</ele>
        <time>2013-10-19T06:12:36Z</time>
      </trkpt>
      <trkpt lat="46.43147" lon="6.09863">
        <ele>1509.365</ele>
        <time>2013-10-19T06:12:37Z</time>
      </trkpt>
      <trkpt lat="46.43145" lon="6.09865">
        <ele>1510.105</ele>
        <time>2013-10-19T06:12:39Z</time>
      </trkpt>
      <trkpt lat="46.43136" lon="6.0987">
        <ele>1509.093</ele>
        <time>2013-10-19T06:12:50Z</time>
      </trkpt>
      <trkpt lat="46.43126" lon="6.09871">
        <ele>1511.829</ele>
        <time>2013-10-19T06:13:01Z</time>
      </trkpt>
      <trkpt lat="46.43114" lon="6.09873">
        <ele>1508.422</ele>
        <time>2013-10-19T06:13:12Z</time>
      </trkpt>
      <trkpt lat="46.43111" lon="6.09873">
        <ele>1510.648</ele>
        <time>2013-10-19T06:13:15Z</time>
      </trkpt>
      <trkpt lat="46.43106" lon="6.09872">
        <ele>1510.103</ele>
        <time>2013-10-19T06:13:22Z</time>
      </trkpt>
      <trkpt lat="46.43104" lon="6.09872">
        <ele>1513.328</ele>
        <time>2013-10-19T06:13:25Z</time>
      </trkpt>
      <trkpt lat="46.43104" lon="6.09871">
        <ele>1513.57</ele>
        <time>2013-10-19T06:13:26Z</time>
      </trkpt>
      <trkpt lat="46.43098" lon="6.09865">
        <ele>1512.198</ele>
        <time>2013-10-19T06:13:41Z</time>
      </trkpt>
      <trkpt lat="46.43086" lon="6.09866">
        <ele>1510.267</ele>
        <time>2013-10-19T06:13:55Z</time>
      </trkpt>
      <trkpt lat="46.4308" lon="6.09868">
        <ele>1512.08</ele>
        <time>2013-10-19T06:14:02Z</time>
      </trkpt>
      <trkpt lat="46.43075" lon="6.09867">
        <ele>1512.388</ele>
        <time>2013-10-19T06:14:09Z</time>
      </trkpt>
      <trkpt lat="46.43073" lon="6.09867">
        <ele>1510.754</ele>
        <time>2013-10-19T06:14:11Z</time>
      </trkpt>
      <trkpt lat="46.43062" lon="6.09869">
        <ele>1511.472</ele>
        <time>2013-10-19T06:14:22Z</time>
      </trkpt>
      <trkpt lat="46.43052" lon="6.09869">
        <ele>1510.572</ele>
        <time>2013-10-19T06:14:34Z</time>
      </trkpt>
      <trkpt lat="46.43037" lon="6.09872">
        <ele>1509.958</ele>
        <time>2013-10-19T06:14:50Z</time>
      </trkpt>
      <trkpt lat="46.43027" lon="6.09873">
        <ele>1511.487</ele>
        <time>2013-10-19T06:15:05Z</time>
      </trkpt>
      <trkpt lat="46.43016" lon="6.09873">
        <ele>1513.927</ele>
        <time>2013-10-19T06:15:20Z</time>
      </trkpt>
      <trkpt lat="46.43019" lon="6.09857">
        <ele>1514.457</ele>
        <time>2013-10-19T06:15:35Z</time>
      </trkpt>
      <trkpt lat="46.43018" lon="6.09848">
        <ele>1516.184</ele>
        <time>2013-10-19T06:15:56Z</time>
      </trkpt>
      <trkpt lat="46.43015" lon="6.09841">
        <ele>1516.269</ele>
        <time>2013-10-19T06:16:11Z</time>
      </trkpt>
      <trkpt lat="46.4301" lon="6.0984">
        <ele>1516.626</ele>
        <time>2013-10-19T06:16:26Z</time>
      </trkpt>
      <trkpt lat="46.43002" lon="6.09838">
        <ele>1519.311</ele>
        <time>2013-10-19T06:16:54Z</time>
      </trkpt>
      <trkpt lat="46.42997" lon="6.09834">
        <ele>1520.552</ele>
        <time>2013-10-19T06:17:11Z</time>
      </trkpt>
      <trkpt lat="46.42997" lon="6.09821">
        <ele>1521.109</ele>
        <time>2013-10-19T06:17:39Z</time>
      </trkpt>
      <trkpt lat="46.43007" lon="6.0981">
        <ele>1518.132</ele>
        <time>2013-10-19T06:17:56Z</time>
      </trkpt>
      <trkpt lat="46.43009" lon="6.09794">
        <ele>1516.505</ele>
        <time>2013-10-19T06:18:13Z</time>
      </trkpt>
      <trkpt lat="46.43007" lon="6.09783">
        <ele>1516.426</ele>
        <time>2013-10-19T06:18:22Z</time>
      </trkpt>
      <trkpt lat="46.43001" lon="6.09777">
        <ele>1517.828</ele>
        <time>2013-10-19T06:18:40Z</time>
      </trkpt>
      <trkpt lat="46.43001" lon="6.09777">
        <ele>1516.163</ele>
        <time>2013-10-19T06:18:51Z</time>
      </trkpt>
      <trkpt lat="46.43002" lon="6.0978">
        <ele>1517.184</ele>
        <time>2013-10-19T06:18:57Z</time>
      </trkpt>
      <trkpt lat="46.43004" lon="6.09783">
        <ele>1515.649</ele>
        <time>2013-10-19T06:18:59Z</time>
      </trkpt>
      <trkpt lat="46.43004" lon="6.09784">
        <ele>1514.188</ele>
        <time>2013-10-19T06:19:00Z</time>
      </trkpt>
      <trkpt lat="46.43006" lon="6.09789">
        <ele>1510.504</ele>
        <time>2013-10-19T06:19:05Z</time>
      </trkpt>
      <trkpt lat="46.43006" lon="6.0979">
        <ele>1514.053</ele>
        <time>2013-10-19T06:19:06Z</time>
      </trkpt>
      <trkpt lat="46.43006" lon="6.0979">
        <ele>1518.804</ele>
        <time>2013-10-19T06:19:07Z</time>
      </trkpt>
      <trkpt lat="46.43006" lon="6.0979">
        <ele>1517.58</ele>
        <time>2013-10-19T06:19:08Z</time>
      </trkpt>
      <trkpt lat="46.43007" lon="6.09785">
        <ele>1516.411</ele>
        <time>2013-10-19T06:19:14Z</time>
      </trkpt>
      <trkpt lat="46.43005" lon="6.09782">
        <ele>1517.037</ele>
        <time>2013-10-19T06:20:10Z</time>
      </trkpt>
      <trkpt lat="46.43006" lon="6.09782">
        <ele>1513.351</ele>
        <time>2013-10-19T06:20:27Z</time>
      </trkpt>
      <trkpt lat="46.43006" lon="6.09782">
        <ele>1522.05</ele>
        <time>2013-10-19T06:20:28Z</time>
      </trkpt>
      <trkpt lat="46.43006" lon="6.09782">
        <ele>1518.013</ele>
        <time>2013-10-19T06:20:29Z</time>
      </trkpt>
      <trkpt lat="46.43006" lon="6.0978">
        <ele>1517.325</ele>
        <time>2013-10-19T06:20:31Z</time>
      </trkpt>
      <trkpt lat="46.43008" lon="6.09779">
        <ele>1517.472</ele>
        <time>2013-10-19T06:20:41Z</time>
      </trkpt>
      <trkpt lat="46.4301" lon="6.09782">
        <ele>1517.288</ele>
        <time>2013-10-19T06:20:57Z</time>
      </trkpt>
      <trkpt lat="46.4302" lon="6.098">
        <ele>1514.698</ele>
        <time>2013-10-19T06:21:16Z</time>
      </trkpt>
      <trkpt lat="46.43022" lon="6.09806">
        <ele>1514.955</ele>
        <time>2013-10-19T06:21:20Z</time>
      </trkpt>
      <trkpt lat="46.43018" lon="6.09815">
        <ele>1515.796</ele>
        <time>2013-10-19T06:21:28Z</time>
      </trkpt>
      <trkpt lat="46.43011" lon="6.09837">
        <ele>1516.924</ele>
        <time>2013-10-19T06:21:44Z</time>
      </trkpt>
      <trkpt lat="46.43009" lon="6.09849">
        <ele>1518.23</ele>
        <time>2013-10-19T06:21:52Z</time>
      </trkpt>
      <trkpt lat="46.43009" lon="6.09852">
        <ele>1519.013</ele>
        <time>2013-10-19T06:21:54Z</time>
      </trkpt>
      <trkpt lat="46.43008" lon="6.09868">
        <ele>1520.353</ele>
        <time>2013-10-19T06:22:10Z</time>
      </trkpt>
      <trkpt lat="46.43005" lon="6.09872">
        <ele>1523.253</ele>
        <time>2013-10-19T06:22:22Z</time>
      </trkpt>
      <trkpt lat="46.43007" lon="6.09881">
        <ele>1522.472</ele>
        <time>2013-10-19T06:22:37Z</time>
      </trkpt>
      <trkpt lat="46.43011" lon="6.09894">
        <ele>1523.073</ele>
        <time>2013-10-19T06:22:53Z</time>
      </trkpt>
      <trkpt lat="46.43014" lon="6.09898">
        <ele>1521.351</ele>
        <time>2013-10-19T06:22:59Z</time>
      </trkpt>
      <trkpt lat="46.43019" lon="6.09902">
        <ele>1523.749</ele>
        <time>2013-10-19T06:23:06Z</time>
      </trkpt>
      <trkpt lat="46.4302" lon="6.09904">
        <ele>1521.171</ele>
        <time>2013-10-19T06:23:13Z</time>
      </trkpt>
      <trkpt lat="46.43021" lon="6.09904">
        <ele>1524.207</ele>
        <time>2013-10-19T06:23:19Z</time>
      </trkpt>
      <trkpt lat="46.43029" lon="6.09909">
        <ele>1524.666</ele>
        <time>2013-10-19T06:23:28Z</time>
      </trkpt>
      <trkpt lat="46.43033" lon="6.09916">
        <ele>1526.657</ele>
        <time>2013-10-19T06:23:38Z</time>
      </trkpt>
      <trkpt lat="46.43035" lon="6.09918">
        <ele>1527.42</ele>
        <time>2013-10-19T06:23:44Z</time>
      </trkpt>
      <trkpt lat="46.43036" lon="6.09919">
        <ele>1526.263</ele>
        <time>2013-10-19T06:23:59Z</time>
      </trkpt>
      <trkpt lat="46.43044" lon="6.09931">
        <ele>1527.283</ele>
        <time>2013-10-19T06:24:17Z</time>
      </trkpt>
      <trkpt lat="46.43044" lon="6.09936">
        <ele>1528.591</ele>
        <time>2013-10-19T06:24:32Z</time>
      </trkpt>
      <trkpt lat="46.43044" lon="6.09936">
        <ele>1528.697</ele>
        <time>2013-10-19T06:24:39Z</time>
      </trkpt>
      <trkpt lat="46.43047" lon="6.09944">
        <ele>1528.998</ele>
        <time>2013-10-19T06:24:50Z</time>
      </trkpt>
      <trkpt lat="46.43054" lon="6.09959">
        <ele>1532.023</ele>
        <time>2013-10-19T06:25:07Z</time>
      </trkpt>
      <trkpt lat="46.43054" lon="6.0996">
        <ele>1532.273</ele>
        <time>2013-10-19T06:25:08Z</time>
      </trkpt>
      <trkpt lat="46.43057" lon="6.09967">
        <ele>1531.072</ele>
        <time>2013-10-19T06:25:32Z</time>
      </trkpt>
      <trkpt lat="46.43064" lon="6.09977">
        <ele>1532.95</ele>
        <time>2013-10-19T06:25:44Z</time>
      </trkpt>
      <trkpt lat="46.43071" lon="6.09994">
        <ele>1534.456</ele>
        <time>2013-10-19T06:26:02Z</time>
      </trkpt>
      <trkpt lat="46.43076" lon="6.10001">
        <ele>1536.409</ele>
        <time>2013-10-19T06:26:14Z</time>
      </trkpt>
      <trkpt lat="46.43076" lon="6.10007">
        <ele>1538.2</ele>
        <time>2013-10-19T06:26:31Z</time>
      </trkpt>
      <trkpt lat="46.43078" lon="6.1001">
        <ele>1537.589</ele>
        <time>2013-10-19T06:26:43Z</time>
      </trkpt>
      <trkpt lat="46.43081" lon="6.10011">
        <ele>1538.637</ele>
        <time>2013-10-19T06:26:46Z</time>
      </trkpt>
      <trkpt lat="46.43082" lon="6.10017">
        <ele>1540.011</ele>
        <time>2013-10-19T06:27:02Z</time>
      </trkpt>
      <trkpt lat="46.4308" lon="6.10024">
        <ele>1541.07</ele>
        <time>2013-10-19T06:27:20Z</time>
      </trkpt>
      <trkpt lat="46.43076" lon="6.10028">
        <ele>1542.939</ele>
        <time>2013-10-19T06:27:30Z</time>
      </trkpt>
      <trkpt lat="46.43075" lon="6.10031">
        <ele>1544.758</ele>
        <time>2013-10-19T06:27:55Z</time>
      </trkpt>
      <trkpt lat="46.43075" lon="6.10031">
        <ele>1544.917</ele>
        <time>2013-10-19T06:27:56Z</time>
      </trkpt>
      <trkpt lat="46.43074" lon="6.10031">
        <ele>1542.609</ele>
        <time>2013-10-19T06:28:14Z</time>
      </trkpt>
      <trkpt lat="46.43075" lon="6.10031">
        <ele>1542.662</ele>
        <time>2013-10-19T06:29:01Z</time>
      </trkpt>
      <trkpt lat="46.43075" lon="6.10032">
        <ele>1542.177</ele>
        <time>2013-10-19T06:29:43Z</time>
      </trkpt>
      <trkpt lat="46.43075" lon="6.10032">
        <ele>1541.133</ele>
        <time>2013-10-19T06:30:08Z</time>
      </trkpt>
      <trkpt lat="46.43075" lon="6.10032">
        <ele>1542.861</ele>
        <time>2013-10-19T06:30:11Z</time>
      </trkpt>
      <trkpt lat="46.43071" lon="6.10037">
        <ele>1543.854</ele>
        <time>2013-10-19T06:30:25Z</time>
      </trkpt>
      <trkpt lat="46.43069" lon="6.10039">
        <ele>1544.175</ele>
        <time>2013-10-19T06:30:42Z</time>
      </trkpt>
      <trkpt lat="46.43068" lon="6.10039">
        <ele>1544.699</ele>
        <time>2013-10-19T06:31:08Z</time>
      </trkpt>
      <trkpt lat="46.43069" lon="6.10042">
        <ele>1545.939</ele>
        <time>2013-10-19T06:31:14Z</time>
      </trkpt>
      <trkpt lat="46.43066" lon="6.10047">
        <ele>1548.499</ele>
        <time>2013-10-19T06:31:33Z</time>
      </trkpt>
      <trkpt lat="46.43062" lon="6.10048">
        <ele>1550.26</ele>
        <time>2013-10-19T06:31:42Z</time>
      </trkpt>
      <trkpt lat="46.43059" lon="6.10051">
        <ele>1548.427</ele>
        <time>2013-10-19T06:31:49Z</time>
      </trkpt>
      <trkpt lat="46.43057" lon="6.1005">
        <ele>1551.516</ele>
        <time>2013-10-19T06:31:53Z</time>
      </trkpt>
      <trkpt lat="46.43056" lon="6.10053">
        <ele>1554.453</ele>
        <time>2013-10-19T06:31:58Z</time>
      </trkpt>
      <trkpt lat="46.4306" lon="6.10061">
        <ele>1555.27</ele>
        <time>2013-10-19T06:32:10Z</time>
      </trkpt>
      <trkpt lat="46.43059" lon="6.10062">
        <ele>1555.682</ele>
        <time>2013-10-19T06:33:04Z</time>
      </trkpt>
      <trkpt lat="46.43059" lon="6.10066">
        <ele>1557.037</ele>
        <time>2013-10-19T06:33:19Z</time>
      </trkpt>
      <trkpt lat="46.43059" lon="6.10066">
        <ele>1557.305</ele>
        <time>2013-10-19T06:33:29Z</time>
      </trkpt>
      <trkpt lat="46.43059" lon="6.10074">
        <ele>1560.238</ele>
        <time>2013-10-19T06:33:46Z</time>
      </trkpt>
      <trkpt lat="46.43057" lon="6.10078">
        <ele>1560.548</ele>
        <time>2013-10-19T06:34:05Z</time>
      </trkpt>
      <trkpt lat="46.43057" lon="6.10082">
        <ele>1563.574</ele>
        <time>2013-10-19T06:34:20Z</time>
      </trkpt>
      <trkpt lat="46.43058" lon="6.10088">
        <ele>1561.991</ele>
        <time>2013-10-19T06:34:36Z</time>
      </trkpt>
      <trkpt lat="46.43057" lon="6.10089">
        <ele>1564.788</ele>
        <time>2013-10-19T06:34:41Z</time>
      </trkpt>
      <trkpt lat="46.43057" lon="6.10091">
        <ele>1566.032</ele>
        <time>2013-10-19T06:34:58Z</time>
      </trkpt>
      <trkpt lat="46.43056" lon="6.10092">
        <ele>1567.714</ele>
        <time>2013-10-19T06:35:15Z</time>
      </trkpt>
      <trkpt lat="46.43054" lon="6.10098">
        <ele>1568.269</ele>
        <time>2013-10-19T06:35:29Z</time>
      </trkpt>
      <trkpt lat="46.43052" lon="6.10105">
        <ele>1568.584</ele>
        <time>2013-10-19T06:35:42Z</time>
      </trkpt>
      <trkpt lat="46.4305" lon="6.10108">
        <ele>1571.74</ele>
        <time>2013-10-19T06:35:52Z</time>
      </trkpt>
      <trkpt lat="46.43051" lon="6.10108">
        <ele>1573.075</ele>
        <time>2013-10-19T06:35:55Z</time>
      </trkpt>
      <trkpt lat="46.43049" lon="6.10113">
        <ele>1574.6</ele>
        <time>2013-10-19T06:36:12Z</time>
      </trkpt>
      <trkpt lat="46.43048" lon="6.10114">
        <ele>1575.518</ele>
        <time>2013-10-19T06:36:38Z</time>
      </trkpt>
      <trkpt lat="46.43045" lon="6.10114">
        <ele>1573.349</ele>
        <time>2013-10-19T06:36:44Z</time>
      </trkpt>
      <trkpt lat="46.43046" lon="6.10114">
        <ele>1576.389</ele>
        <time>2013-10-19T06:36:48Z</time>
      </trkpt>
      <trkpt lat="46.43044" lon="6.10117">
        <ele>1576.634</ele>
        <time>2013-10-19T06:37:09Z</time>
      </trkpt>
      <trkpt lat="46.43039" lon="6.10132">
        <ele>1579.291</ele>
        <time>2013-10-19T06:37:29Z</time>
      </trkpt>
      <trkpt lat="46.43035" lon="6.10137">
        <ele>1579.589</ele>
        <time>2013-10-19T06:37:41Z</time>
      </trkpt>
      <trkpt lat="46.43034" lon="6.10139">
        <ele>1580.967</ele>
        <time>2013-10-19T06:37:44Z</time>
      </trkpt>
      <trkpt lat="46.43031" lon="6.10142">
        <ele>1581.401</ele>
        <time>2013-10-19T06:38:06Z</time>
      </trkpt>
      <trkpt lat="46.43031" lon="6.10142">
        <ele>1580.783</ele>
        <time>2013-10-19T06:38:45Z</time>
      </trkpt>
      <trkpt lat="46.43025" lon="6.10144">
        <ele>1583.23</ele>
        <time>2013-10-19T06:39:01Z</time>
      </trkpt>
      <trkpt lat="46.43025" lon="6.10145">
        <ele>1582.862</ele>
        <time>2013-10-19T06:39:14Z</time>
      </trkpt>
      <trkpt lat="46.43021" lon="6.10147">
        <ele>1585.095</ele>
        <time>2013-10-19T06:39:28Z</time>
      </trkpt>
      <trkpt lat="46.4302" lon="6.10151">
        <ele>1587.168</ele>
        <time>2013-10-19T06:39:43Z</time>
      </trkpt>
      <trkpt lat="46.43017" lon="6.10153">
        <ele>1588.279</ele>
        <time>2013-10-19T06:39:59Z</time>
      </trkpt>
      <trkpt lat="46.43021" lon="6.10151">
        <ele>1588.547</ele>
        <time>2013-10-19T06:40:18Z</time>
      </trkpt>
      <trkpt lat="46.4302" lon="6.10153">
        <ele>1590.956</ele>
        <time>2013-10-19T06:40:33Z</time>
      </trkpt>
      <trkpt lat="46.43016" lon="6.10154">
        <ele>1592.679</ele>
        <time>2013-10-19T06:40:52Z</time>
      </trkpt>
      <trkpt lat="46.43012" lon="6.10152">
        <ele>1593.617</ele>
        <time>2013-10-19T06:41:07Z</time>
      </trkpt>
      <trkpt lat="46.43008" lon="6.10148">
        <ele>1595.163</ele>
        <time>2013-10-19T06:41:25Z</time>
      </trkpt>
      <trkpt lat="46.43007" lon="6.10148">
        <ele>1596.365</ele>
        <time>2013-10-19T06:41:54Z</time>
      </trkpt>
      <trkpt lat="46.43005" lon="6.1015">
        <ele>1597.172</ele>
        <time>2013-10-19T06:41:59Z</time>
      </trkpt>
      <trkpt lat="46.43003" lon="6.10152">
        <ele>1597.403</ele>
        <time>2013-10-19T06:42:21Z</time>
      </trkpt>
      <trkpt lat="46.43" lon="6.10154">
        <ele>1598.497</ele>
        <time>2013-10-19T06:42:48Z</time>
      </trkpt>
      <trkpt lat="46.42997" lon="6.10163">
        <ele>1600.123</ele>
        <time>2013-10-19T06:43:04Z</time>
      </trkpt>
      <trkpt lat="46.43" lon="6.10163">
        <ele>1601.572</ele>
        <time>2013-10-19T06:43:25Z</time>
      </trkpt>
      <trkpt lat="46.42998" lon="6.10166">
        <ele>1602.375</ele>
        <time>2013-10-19T06:43:48Z</time>
      </trkpt>
      <trkpt lat="46.42992" lon="6.10173">
        <ele>1605.582</ele>
        <time>2013-10-19T06:44:10Z</time>
      </trkpt>
      <trkpt lat="46.42988" lon="6.10178">
        <ele>1608.566</ele>
        <time>2013-10-19T06:44:20Z</time>
      </trkpt>
      <trkpt lat="46.4299" lon="6.10181">
        <ele>1608.058</ele>
        <time>2013-10-19T06:44:41Z</time>
      </trkpt>
      <trkpt lat="46.42987" lon="6.10185">
        <ele>1608.566</ele>
        <time>2013-10-19T06:44:56Z</time>
      </trkpt>
      <trkpt lat="46.42987" lon="6.10186">
        <ele>1608.686</ele>
        <time>2013-10-19T06:44:57Z</time>
      </trkpt>
      <trkpt lat="46.42984" lon="6.10194">
        <ele>1610.031</ele>
        <time>2013-10-19T06:45:12Z</time>
      </trkpt>
      <trkpt lat="46.42984" lon="6.10197">
        <ele>1611.185</ele>
        <time>2013-10-19T06:45:18Z</time>
      </trkpt>
      <trkpt lat="46.42981" lon="6.10199">
        <ele>1614.476</ele>
        <time>2013-10-19T06:45:27Z</time>
      </trkpt>
      <trkpt lat="46.42981" lon="6.10199">
        <ele>1612.318</ele>
        <time>2013-10-19T06:45:31Z</time>
      </trkpt>
      <trkpt lat="46.42979" lon="6.102">
        <ele>1614.485</ele>
        <time>2013-10-19T06:45:48Z</time>
      </trkpt>
      <trkpt lat="46.42979" lon="6.10205">
        <ele>1616.002</ele>
        <time>2013-10-19T06:46:09Z</time>
      </trkpt>
      <trkpt lat="46.42981" lon="6.10217">
        <ele>1619.919</ele>
        <time>2013-10-19T06:46:27Z</time>
      </trkpt>
      <trkpt lat="46.42982" lon="6.10218">
        <ele>1619.059</ele>
        <time>2013-10-19T06:46:32Z</time>
      </trkpt>
      <trkpt lat="46.42982" lon="6.10218">
        <ele>1618.114</ele>
        <time>2013-10-19T06:47:19Z</time>
      </trkpt>
      <trkpt lat="46.42982" lon="6.10218">
        <ele>1617.912</ele>
        <time>2013-10-19T06:47:20Z</time>
      </trkpt>
      <trkpt lat="46.42975" lon="6.10218">
        <ele>1618.78</ele>
        <time>2013-10-19T06:47:31Z</time>
      </trkpt>
      <trkpt lat="46.42972" lon="6.10217">
        <ele>1622.022</ele>
        <time>2013-10-19T06:47:37Z</time>
      </trkpt>
      <trkpt lat="46.42969" lon="6.10215">
        <ele>1618.941</ele>
        <time>2013-10-19T06:47:42Z</time>
      </trkpt>
      <trkpt lat="46.42968" lon="6.10217">
        <ele>1621.962</ele>
        <time>2013-10-19T06:47:45Z</time>
      </trkpt>
      <trkpt lat="46.42968" lon="6.10216">
        <ele>1620.283</ele>
        <time>2013-10-19T06:47:49Z</time>
      </trkpt>
      <trkpt lat="46.42956" lon="6.10213">
        <ele>1623.628</ele>
        <time>2013-10-19T06:48:05Z</time>
      </trkpt>
      <trkpt lat="46.42956" lon="6.10214">
        <ele>1624.582</ele>
        <time>2013-10-19T06:48:07Z</time>
      </trkpt>
      <trkpt lat="46.4295" lon="6.10218">
        <ele>1624.347</ele>
        <time>2013-10-19T06:48:24Z</time>
      </trkpt>
      <trkpt lat="46.42942" lon="6.10215">
        <ele>1624.57</ele>
        <time>2013-10-19T06:48:51Z</time>
      </trkpt>
      <trkpt lat="46.4294" lon="6.10215">
        <ele>1625.352</ele>
        <time>2013-10-19T06:48:53Z</time>
      </trkpt>
      <trkpt lat="46.42934" lon="6.10212">
        <ele>1627.35</ele>
        <time>2013-10-19T06:49:00Z</time>
      </trkpt>
      <trkpt lat="46.42927" lon="6.1021">
        <ele>1629.091</ele>
        <time>2013-10-19T06:49:11Z</time>
      </trkpt>
      <trkpt lat="46.42924" lon="6.10207">
        <ele>1627.257</ele>
        <time>2013-10-19T06:49:16Z</time>
      </trkpt>
      <trkpt lat="46.42921" lon="6.10207">
        <ele>1630.459</ele>
        <time>2013-10-19T06:49:21Z</time>
      </trkpt>
      <trkpt lat="46.4292" lon="6.10207">
        <ele>1631.164</ele>
        <time>2013-10-19T06:49:23Z</time>
      </trkpt>
      <trkpt lat="46.42911" lon="6.10205">
        <ele>1631.374</ele>
        <time>2013-10-19T06:49:44Z</time>
      </trkpt>
      <trkpt lat="46.42909" lon="6.10207">
        <ele>1634.865</ele>
        <time>2013-10-19T06:49:47Z</time>
      </trkpt>
      <trkpt lat="46.42906" lon="6.10209">
        <ele>1633.398</ele>
        <time>2013-10-19T06:50:26Z</time>
      </trkpt>
      <trkpt lat="46.429" lon="6.1021">
        <ele>1634.686</ele>
        <time>2013-10-19T06:50:35Z</time>
      </trkpt>
      <trkpt lat="46.42895" lon="6.10209">
        <ele>1636.185</ele>
        <time>2013-10-19T06:51:20Z</time>
      </trkpt>
      <trkpt lat="46.42893" lon="6.10207">
        <ele>1635.601</ele>
        <time>2013-10-19T06:51:25Z</time>
      </trkpt>
      <trkpt lat="46.4289" lon="6.10205">
        <ele>1634.972</ele>
        <time>2013-10-19T06:51:30Z</time>
      </trkpt>
      <trkpt lat="46.42887" lon="6.10204">
        <ele>1635.976</ele>
        <time>2013-10-19T06:51:34Z</time>
      </trkpt>
      <trkpt lat="46.42874" lon="6.10203">
        <ele>1638.154</ele>
        <time>2013-10-19T06:51:53Z</time>
      </trkpt>
      <trkpt lat="46.42871" lon="6.10203">
        <ele>1639.69</ele>
        <time>2013-10-19T06:52:16Z</time>
      </trkpt>
      <trkpt lat="46.42863" lon="6.10202">
        <ele>1639.498</ele>
        <time>2013-10-19T06:52:32Z</time>
      </trkpt>
      <trkpt lat="46.42857" lon="6.10201">
        <ele>1642.592</ele>
        <time>2013-10-19T06:52:42Z</time>
      </trkpt>
      <trkpt lat="46.42856" lon="6.10201">
        <ele>1642.732</ele>
        <time>2013-10-19T06:52:43Z</time>
      </trkpt>
      <trkpt lat="46.42852" lon="6.102">
        <ele>1641.667</ele>
        <time>2013-10-19T06:52:49Z</time>
      </trkpt>
      <trkpt lat="46.42844" lon="6.10199">
        <ele>1643.17</ele>
        <time>2013-10-19T06:53:20Z</time>
      </trkpt>
      <trkpt lat="46.42841" lon="6.10198">
        <ele>1645.147</ele>
        <time>2013-10-19T06:53:24Z</time>
      </trkpt>
      <trkpt lat="46.42833" lon="6.10197">
        <ele>1650.782</ele>
        <time>2013-10-19T06:53:37Z</time>
      </trkpt>
      <trkpt lat="46.42833" lon="6.10198">
        <ele>1647.485</ele>
        <time>2013-10-19T06:53:38Z</time>
      </trkpt>
      <trkpt lat="46.42827" lon="6.10198">
        <ele>1648.954</ele>
        <time>2013-10-19T06:53:50Z</time>
      </trkpt>
      <trkpt lat="46.42825" lon="6.10196">
        <ele>1647.076</ele>
        <time>2013-10-19T06:53:59Z</time>
      </trkpt>
      <trkpt lat="46.42814" lon="6.10195">
        <ele>1650.599</ele>
        <time>2013-10-19T06:54:13Z</time>
      </trkpt>
      <trkpt lat="46.42804" lon="6.10192">
        <ele>1650.704</ele>
        <time>2013-10-19T06:54:26Z</time>
      </trkpt>
      <trkpt lat="46.42802" lon="6.10191">
        <ele>1650.222</ele>
        <time>2013-10-19T06:54:27Z</time>
      </trkpt>
      <trkpt lat="46.42792" lon="6.10188">
        <ele>1647.013</ele>
        <time>2013-10-19T06:54:40Z</time>
      </trkpt>
      <trkpt lat="46.42791" lon="6.10188">
        <ele>1650.185</ele>
        <time>2013-10-19T06:54:42Z</time>
      </trkpt>
      <trkpt lat="46.4279" lon="6.10188">
        <ele>1649.119</ele>
        <time>2013-10-19T06:54:43Z</time>
      </trkpt>
      <trkpt lat="46.42789" lon="6.10187">
        <ele>1650.577</ele>
        <time>2013-10-19T06:54:47Z</time>
      </trkpt>
      <trkpt lat="46.42787" lon="6.10187">
        <ele>1652.063</ele>
        <time>2013-10-19T06:54:51Z</time>
      </trkpt>
      <trkpt lat="46.42772" lon="6.10181">
        <ele>1649.974</ele>
        <time>2013-10-19T06:55:09Z</time>
      </trkpt>
      <trkpt lat="46.4276" lon="6.10172">
        <ele>1646.703</ele>
        <time>2013-10-19T06:55:23Z</time>
      </trkpt>
      <trkpt lat="46.42758" lon="6.1017">
        <ele>1649.804</ele>
        <time>2013-10-19T06:55:26Z</time>
      </trkpt>
      <trkpt lat="46.42753" lon="6.10166">
        <ele>1648.64</ele>
        <time>2013-10-19T06:55:33Z</time>
      </trkpt>
      <trkpt lat="46.42745" lon="6.10167">
        <ele>1649.351</ele>
        <time>2013-10-19T06:55:42Z</time>
      </trkpt>
      <trkpt lat="46.42737" lon="6.10174">
        <ele>1648.936</ele>
        <time>2013-10-19T06:56:05Z</time>
      </trkpt>
      <trkpt lat="46.42733" lon="6.10171">
        <ele>1647.447</ele>
        <time>2013-10-19T06:56:11Z</time>
      </trkpt>
      <trkpt lat="46.42727" lon="6.10168">
        <ele>1650.77</ele>
        <time>2013-10-19T06:56:19Z</time>
      </trkpt>
      <trkpt lat="46.42724" lon="6.10166">
        <ele>1649.268</ele>
        <time>2013-10-19T06:56:23Z</time>
      </trkpt>
      <trkpt lat="46.42723" lon="6.10167">
        <ele>1650.396</ele>
        <time>2013-10-19T06:56:25Z</time>
      </trkpt>
      <trkpt lat="46.42706" lon="6.10158">
        <ele>1652.956</ele>
        <time>2013-10-19T06:56:45Z</time>
      </trkpt>
      <trkpt lat="46.42696" lon="6.1015">
        <ele>1649.774</ele>
        <time>2013-10-19T06:57:00Z</time>
      </trkpt>
      <trkpt lat="46.42689" lon="6.10145">
        <ele>1650.037</ele>
        <time>2013-10-19T06:57:10Z</time>
      </trkpt>
      <trkpt lat="46.42686" lon="6.10141">
        <ele>1653.393</ele>
        <time>2013-10-19T06:57:15Z</time>
      </trkpt>
      <trkpt lat="46.42675" lon="6.10125">
        <ele>1653.505</ele>
        <time>2013-10-19T06:57:35Z</time>
      </trkpt>
      <trkpt lat="46.42673" lon="6.10124">
        <ele>1649.276</ele>
        <time>2013-10-19T06:57:39Z</time>
      </trkpt>
      <trkpt lat="46.42673" lon="6.10124">
        <ele>1652.594</ele>
        <time>2013-10-19T06:57:40Z</time>
      </trkpt>
      <trkpt lat="46.42673" lon="6.10124">
        <ele>1653.465</ele>
        <time>2013-10-19T06:57:42Z</time>
      </trkpt>
      <trkpt lat="46.42673" lon="6.10124">
        <ele>1648.902</ele>
        <time>2013-10-19T06:57:45Z</time>
      </trkpt>
      <trkpt lat="46.42673" lon="6.10124">
        <ele>1649.218</ele>
        <time>2013-10-19T06:57:46Z</time>
      </trkpt>
      <trkpt lat="46.42673" lon="6.10123">
        <ele>1653.213</ele>
        <time>2013-10-19T06:57:52Z</time>
      </trkpt>
      <trkpt lat="46.42672" lon="6.10123">
        <ele>1653.854</ele>
        <time>2013-10-19T06:57:54Z</time>
      </trkpt>
      <trkpt lat="46.42671" lon="6.10123">
        <ele>1656.067</ele>
        <time>2013-10-19T06:58:03Z</time>
      </trkpt>
      <trkpt lat="46.42671" lon="6.10123">
        <ele>1651.253</ele>
        <time>2013-10-19T06:58:11Z</time>
      </trkpt>
      <trkpt lat="46.42668" lon="6.10121">
        <ele>1651.682</ele>
        <time>2013-10-19T06:58:16Z</time>
      </trkpt>
      <trkpt lat="46.42663" lon="6.10108">
        <ele>1653.265</ele>
        <time>2013-10-19T06:58:29Z</time>
      </trkpt>
      <trkpt lat="46.42655" lon="6.10089">
        <ele>1654.042</ele>
        <time>2013-10-19T06:58:47Z</time>
      </trkpt>
      <trkpt lat="46.42644" lon="6.10078">
        <ele>1654.211</ele>
        <time>2013-10-19T06:59:05Z</time>
      </trkpt>
      <trkpt lat="46.42635" lon="6.10073">
        <ele>1657.304</ele>
        <time>2013-10-19T06:59:25Z</time>
      </trkpt>
      <trkpt lat="46.42625" lon="6.10067">
        <ele>1658.469</ele>
        <time>2013-10-19T06:59:41Z</time>
      </trkpt>
      <trkpt lat="46.42616" lon="6.10062">
        <ele>1657.873</ele>
        <time>2013-10-19T07:00:04Z</time>
      </trkpt>
      <trkpt lat="46.42611" lon="6.1006">
        <ele>1659.591</ele>
        <time>2013-10-19T07:00:08Z</time>
      </trkpt>
      <trkpt lat="46.42608" lon="6.10058">
        <ele>1658.655</ele>
        <time>2013-10-19T07:00:11Z</time>
      </trkpt>
      <trkpt lat="46.42597" lon="6.10045">
        <ele>1659.392</ele>
        <time>2013-10-19T07:00:28Z</time>
      </trkpt>
      <trkpt lat="46.42584" lon="6.10037">
        <ele>1662.94</ele>
        <time>2013-10-19T07:00:42Z</time>
      </trkpt>
      <trkpt lat="46.42578" lon="6.10031">
        <ele>1664.376</ele>
        <time>2013-10-19T07:00:51Z</time>
      </trkpt>
      <trkpt lat="46.42572" lon="6.10027">
        <ele>1668.137</ele>
        <time>2013-10-19T07:00:58Z</time>
      </trkpt>
      <trkpt lat="46.4257" lon="6.10026">
        <ele>1663.662</ele>
        <time>2013-10-19T07:01:00Z</time>
      </trkpt>
      <trkpt lat="46.42554" lon="6.10022">
        <ele>1661.148</ele>
        <time>2013-10-19T07:01:18Z</time>
      </trkpt>
      <trkpt lat="46.42549" lon="6.10018">
        <ele>1661.731</ele>
        <time>2013-10-19T07:01:26Z</time>
      </trkpt>
      <trkpt lat="46.42548" lon="6.10018">
        <ele>1662.193</ele>
        <time>2013-10-19T07:01:49Z</time>
      </trkpt>
      <trkpt lat="46.42541" lon="6.10015">
        <ele>1662.166</ele>
        <time>2013-10-19T07:01:58Z</time>
      </trkpt>
      <trkpt lat="46.42533" lon="6.10014">
        <ele>1658.434</ele>
        <time>2013-10-19T07:02:09Z</time>
      </trkpt>
      <trkpt lat="46.42532" lon="6.10014">
        <ele>1659.449</ele>
        <time>2013-10-19T07:02:10Z</time>
      </trkpt>
      <trkpt lat="46.42529" lon="6.1001">
        <ele>1660.743</ele>
        <time>2013-10-19T07:02:15Z</time>
      </trkpt>
      <trkpt lat="46.4253" lon="6.1001">
        <ele>1663.485</ele>
        <time>2013-10-19T07:02:17Z</time>
      </trkpt>
      <trkpt lat="46.42531" lon="6.10011">
        <ele>1661.351</ele>
        <time>2013-10-19T07:02:27Z</time>
      </trkpt>
      <trkpt lat="46.42531" lon="6.10013">
        <ele>1659.989</ele>
        <time>2013-10-19T07:02:37Z</time>
      </trkpt>
      <trkpt lat="46.42532" lon="6.10012">
        <ele>1660.853</ele>
        <time>2013-10-19T07:03:18Z</time>
      </trkpt>
      <trkpt lat="46.42532" lon="6.10012">
        <ele>1660.497</ele>
        <time>2013-10-19T07:06:33Z</time>
      </trkpt>
      <trkpt lat="46.42532" lon="6.10012">
        <ele>1660.469</ele>
        <time>2013-10-19T07:06:42Z</time>
      </trkpt>
      <trkpt lat="46.42532" lon="6.10012">
        <ele>1659.269</ele>
        <time>2013-10-19T07:06:48Z</time>
      </trkpt>
      <trkpt lat="46.42532" lon="6.10012">
        <ele>1660.735</ele>
        <time>2013-10-19T07:06:53Z</time>
      </trkpt>
      <trkpt lat="46.42533" lon="6.10011">
        <ele>1661.816</ele>
        <time>2013-10-19T07:07:26Z</time>
      </trkpt>
      <trkpt lat="46.42533" lon="6.10011">
        <ele>1660.497</ele>
        <time>2013-10-19T07:07:29Z</time>
      </trkpt>
      <trkpt lat="46.42533" lon="6.1001">
        <ele>1660.054</ele>
        <time>2013-10-19T07:07:35Z</time>
      </trkpt>
      <trkpt lat="46.42533" lon="6.10007">
        <ele>1659.964</ele>
        <time>2013-10-19T07:07:55Z</time>
      </trkpt>
      <trkpt lat="46.42533" lon="6.10007">
        <ele>1661.735</ele>
        <time>2013-10-19T07:08:00Z</time>
      </trkpt>
      <trkpt lat="46.42534" lon="6.10007">
        <ele>1661.301</ele>
        <time>2013-10-19T07:08:39Z</time>
      </trkpt>
      <trkpt lat="46.42537" lon="6.10004">
        <ele>1661.207</ele>
        <time>2013-10-19T07:10:04Z</time>
      </trkpt>
      <trkpt lat="46.42537" lon="6.10004">
        <ele>1662.571</ele>
        <time>2013-10-19T07:10:53Z</time>
      </trkpt>
      <trkpt lat="46.42537" lon="6.10004">
        <ele>1663.093</ele>
        <time>2013-10-19T07:11:04Z</time>
      </trkpt>
      <trkpt lat="46.42537" lon="6.10006">
        <ele>1662.195</ele>
        <time>2013-10-19T07:11:40Z</time>
      </trkpt>
      <trkpt lat="46.42537" lon="6.10006">
        <ele>1660.7</ele>
        <time>2013-10-19T07:11:43Z</time>
      </trkpt>
      <trkpt lat="46.42536" lon="6.10007">
        <ele>1662.002</ele>
        <time>2013-10-19T07:12:28Z</time>
      </trkpt>
      <trkpt lat="46.42536" lon="6.10007">
        <ele>1662.538</ele>
        <time>2013-10-19T07:12:38Z</time>
      </trkpt>
      <trkpt lat="46.42532" lon="6.10017">
        <ele>1663.107</ele>
        <time>2013-10-19T07:13:09Z</time>
      </trkpt>
      <trkpt lat="46.42528" lon="6.10019">
        <ele>1660.07</ele>
        <time>2013-10-19T07:13:27Z</time>
      </trkpt>
      <trkpt lat="46.42527" lon="6.1002">
        <ele>1660.221</ele>
        <time>2013-10-19T07:13:59Z</time>
      </trkpt>
      <trkpt lat="46.42527" lon="6.1002">
        <ele>1661.063</ele>
        <time>2013-10-19T07:14:26Z</time>
      </trkpt>
      <trkpt lat="46.42527" lon="6.1002">
        <ele>1660.269</ele>
        <time>2013-10-19T07:14:59Z</time>
      </trkpt>
      <trkpt lat="46.42528" lon="6.1002">
        <ele>1660.528</ele>
        <time>2013-10-19T07:15:23Z</time>
      </trkpt>
      <trkpt lat="46.42528" lon="6.10019">
        <ele>1664.367</ele>
        <time>2013-10-19T07:19:03Z</time>
      </trkpt>
      <trkpt lat="46.42528" lon="6.10019">
        <ele>1660.332</ele>
        <time>2013-10-19T07:19:04Z</time>
      </trkpt>
      <trkpt lat="46.42528" lon="6.10019">
        <ele>1661.224</ele>
        <time>2013-10-19T07:19:09Z</time>
      </trkpt>
      <trkpt lat="46.42528" lon="6.10018">
        <ele>1661.887</ele>
        <time>2013-10-19T07:19:33Z</time>
      </trkpt>
      <trkpt lat="46.42527" lon="6.10014">
        <ele>1662.348</ele>
        <time>2013-10-19T07:20:02Z</time>
      </trkpt>
      <trkpt lat="46.42527" lon="6.10014">
        <ele>1661.432</ele>
        <time>2013-10-19T07:21:32Z</time>
      </trkpt>
      <trkpt lat="46.42527" lon="6.10014">
        <ele>1661.024</ele>
        <time>2013-10-19T07:22:32Z</time>
      </trkpt>
      <trkpt lat="46.42527" lon="6.10014">
        <ele>1661.6</ele>
        <time>2013-10-19T07:22:38Z</time>
      </trkpt>
      <trkpt lat="46.42527" lon="6.10014">
        <ele>1663.166</ele>
        <time>2013-10-19T07:24:11Z</time>
      </trkpt>
      <trkpt lat="46.42527" lon="6.10014">
        <ele>1658.736</ele>
        <time>2013-10-19T07:26:27Z</time>
      </trkpt>
      <trkpt lat="46.42527" lon="6.10014">
        <ele>1658.888</ele>
        <time>2013-10-19T07:26:28Z</time>
      </trkpt>
      <trkpt lat="46.42527" lon="6.10014">
        <ele>1664.689</ele>
        <time>2013-10-19T07:26:29Z</time>
      </trkpt>
      <trkpt lat="46.42527" lon="6.10014">
        <ele>1661.353</ele>
        <time>2013-10-19T07:26:30Z</time>
      </trkpt>
      <trkpt lat="46.42527" lon="6.10014">
        <ele>1663.18</ele>
        <time>2013-10-19T07:26:36Z</time>
      </trkpt>
      <trkpt lat="46.42527" lon="6.10014">
        <ele>1660.099</ele>
        <time>2013-10-19T07:26:38Z</time>
      </trkpt>
      <trkpt lat="46.42527" lon="6.10014">
        <ele>1663.176</ele>
        <time>2013-10-19T07:26:44Z</time>
      </trkpt>
      <trkpt lat="46.42527" lon="6.10014">
        <ele>1663.437</ele>
        <time>2013-10-19T07:26:45Z</time>
      </trkpt>
      <trkpt lat="46.42533" lon="6.10011">
        <ele>1663.328</ele>
        <time>2013-10-19T07:31:53Z</time>
      </trkpt>
      <trkpt lat="46.42532" lon="6.10011">
        <ele>1663.264</ele>
        <time>2013-10-19T07:33:36Z</time>
      </trkpt>
      <trkpt lat="46.4253" lon="6.10011">
        <ele>1664.269</ele>
        <time>2013-10-19T07:33:43Z</time>
      </trkpt>
      <trkpt lat="46.42528" lon="6.10011">
        <ele>1660.837</ele>
        <time>2013-10-19T07:33:58Z</time>
      </trkpt>
      <trkpt lat="46.42528" lon="6.10011">
        <ele>1665.994</ele>
        <time>2013-10-19T07:33:59Z</time>
      </trkpt>
      <trkpt lat="46.42528" lon="6.10011">
        <ele>1663.634</ele>
        <time>2013-10-19T07:34:00Z</time>
      </trkpt>
      <trkpt lat="46.42529" lon="6.10012">
        <ele>1667.074</ele>
        <time>2013-10-19T07:34:15Z</time>
      </trkpt>
      <trkpt lat="46.42528" lon="6.10011">
        <ele>1663.363</ele>
        <time>2013-10-19T07:34:16Z</time>
      </trkpt>
      <trkpt lat="46.42529" lon="6.10012">
        <ele>1662.623</ele>
        <time>2013-10-19T07:34:18Z</time>
      </trkpt>
      <trkpt lat="46.42528" lon="6.1001">
        <ele>1665.826</ele>
        <time>2013-10-19T07:34:28Z</time>
      </trkpt>
      <trkpt lat="46.42534" lon="6.10009">
        <ele>1665.31</ele>
        <time>2013-10-19T07:34:39Z</time>
      </trkpt>
      <trkpt lat="46.42538" lon="6.10007">
        <ele>1666.367</ele>
        <time>2013-10-19T07:34:42Z</time>
      </trkpt>
      <trkpt lat="46.42543" lon="6.10008">
        <ele>1665.842</ele>
        <time>2013-10-19T07:34:48Z</time>
      </trkpt>
      <trkpt lat="46.42552" lon="6.10013">
        <ele>1665.75</ele>
        <time>2013-10-19T07:34:56Z</time>
      </trkpt>
      <trkpt lat="46.42566" lon="6.10016">
        <ele>1669.642</ele>
        <time>2013-10-19T07:35:09Z</time>
      </trkpt>
      <trkpt lat="46.42567" lon="6.10016">
        <ele>1669.828</ele>
        <time>2013-10-19T07:35:10Z</time>
      </trkpt>
      <trkpt lat="46.42573" lon="6.10018">
        <ele>1667.883</ele>
        <time>2013-10-19T07:35:15Z</time>
      </trkpt>
      <trkpt lat="46.42574" lon="6.10019">
        <ele>1667.907</ele>
        <time>2013-10-19T07:35:16Z</time>
      </trkpt>
      <trkpt lat="46.4258" lon="6.10038">
        <ele>1665.668</ele>
        <time>2013-10-19T07:35:36Z</time>
      </trkpt>
      <trkpt lat="46.42582" lon="6.10045">
        <ele>1665.343</ele>
        <time>2013-10-19T07:35:50Z</time>
      </trkpt>
      <trkpt lat="46.42583" lon="6.10049">
        <ele>1665.969</ele>
        <time>2013-10-19T07:36:15Z</time>
      </trkpt>
      <trkpt lat="46.42588" lon="6.10052">
        <ele>1665.239</ele>
        <time>2013-10-19T07:36:35Z</time>
      </trkpt>
      <trkpt lat="46.42587" lon="6.10053">
        <ele>1665.812</ele>
        <time>2013-10-19T07:36:53Z</time>
      </trkpt>
      <trkpt lat="46.42587" lon="6.10053">
        <ele>1668.091</ele>
        <time>2013-10-19T07:37:27Z</time>
      </trkpt>
      <trkpt lat="46.42587" lon="6.10053">
        <ele>1665.436</ele>
        <time>2013-10-19T07:37:30Z</time>
      </trkpt>
      <trkpt lat="46.42596" lon="6.10054">
        <ele>1664.406</ele>
        <time>2013-10-19T07:37:54Z</time>
      </trkpt>
      <trkpt lat="46.42606" lon="6.10065">
        <ele>1662.648</ele>
        <time>2013-10-19T07:38:09Z</time>
      </trkpt>
      <trkpt lat="46.42614" lon="6.10067">
        <ele>1663.161</ele>
        <time>2013-10-19T07:38:30Z</time>
      </trkpt>
      <trkpt lat="46.42617" lon="6.10071">
        <ele>1663.533</ele>
        <time>2013-10-19T07:38:51Z</time>
      </trkpt>
      <trkpt lat="46.42622" lon="6.10072">
        <ele>1662.209</ele>
        <time>2013-10-19T07:39:08Z</time>
      </trkpt>
      <trkpt lat="46.42633" lon="6.10072">
        <ele>1660.321</ele>
        <time>2013-10-19T07:39:26Z</time>
      </trkpt>
      <trkpt lat="46.4264" lon="6.10075">
        <ele>1660.134</ele>
        <time>2013-10-19T07:39:47Z</time>
      </trkpt>
      <trkpt lat="46.42651" lon="6.10079">
        <ele>1660.057</ele>
        <time>2013-10-19T07:40:19Z</time>
      </trkpt>
      <trkpt lat="46.42662" lon="6.10084">
        <ele>1659.87</ele>
        <time>2013-10-19T07:40:38Z</time>
      </trkpt>
      <trkpt lat="46.42665" lon="6.10087">
        <ele>1657.768</ele>
        <time>2013-10-19T07:40:42Z</time>
      </trkpt>
      <trkpt lat="46.42666" lon="6.10092">
        <ele>1661.228</ele>
        <time>2013-10-19T07:40:51Z</time>
      </trkpt>
      <trkpt lat="46.42667" lon="6.10093">
        <ele>1659.096</ele>
        <time>2013-10-19T07:40:56Z</time>
      </trkpt>
      <trkpt lat="46.42677" lon="6.10099">
        <ele>1658.093</ele>
        <time>2013-10-19T07:41:12Z</time>
      </trkpt>
      <trkpt lat="46.42684" lon="6.10102">
        <ele>1656.879</ele>
        <time>2013-10-19T07:41:22Z</time>
      </trkpt>
      <trkpt lat="46.42692" lon="6.10107">
        <ele>1657.259</ele>
        <time>2013-10-19T07:41:34Z</time>
      </trkpt>
      <trkpt lat="46.42698" lon="6.10111">
        <ele>1656.782</ele>
        <time>2013-10-19T07:41:59Z</time>
      </trkpt>
      <trkpt lat="46.42699" lon="6.1011">
        <ele>1656.205</ele>
        <time>2013-10-19T07:42:07Z</time>
      </trkpt>
      <trkpt lat="46.427" lon="6.1011">
        <ele>1657.68</ele>
        <time>2013-10-19T07:42:18Z</time>
      </trkpt>
      <trkpt lat="46.427" lon="6.1011">
        <ele>1654.94</ele>
        <time>2013-10-19T07:42:45Z</time>
      </trkpt>
      <trkpt lat="46.42698" lon="6.10096">
        <ele>1655.432</ele>
        <time>2013-10-19T07:43:07Z</time>
      </trkpt>
      <trkpt lat="46.42699" lon="6.10093">
        <ele>1654.799</ele>
        <time>2013-10-19T07:43:26Z</time>
      </trkpt>
      <trkpt lat="46.42699" lon="6.10095">
        <ele>1655.101</ele>
        <time>2013-10-19T07:44:16Z</time>
      </trkpt>
      <trkpt lat="46.427" lon="6.10108">
        <ele>1656.579</ele>
        <time>2013-10-19T07:44:30Z</time>
      </trkpt>
      <trkpt lat="46.427" lon="6.10108">
        <ele>1656.728</ele>
        <time>2013-10-19T07:44:55Z</time>
      </trkpt>
      <trkpt lat="46.42707" lon="6.10116">
        <ele>1655.698</ele>
        <time>2013-10-19T07:45:19Z</time>
      </trkpt>
      <trkpt lat="46.4271" lon="6.10119">
        <ele>1657.197</ele>
        <time>2013-10-19T07:45:25Z</time>
      </trkpt>
      <trkpt lat="46.4272" lon="6.10124">
        <ele>1654.586</ele>
        <time>2013-10-19T07:45:40Z</time>
      </trkpt>
      <trkpt lat="46.42727" lon="6.10127">
        <ele>1654.367</ele>
        <time>2013-10-19T07:45:59Z</time>
      </trkpt>
      <trkpt lat="46.42737" lon="6.10135">
        <ele>1654.275</ele>
        <time>2013-10-19T07:46:12Z</time>
      </trkpt>
      <trkpt lat="46.42749" lon="6.10155">
        <ele>1653.627</ele>
        <time>2013-10-19T07:46:31Z</time>
      </trkpt>
      <trkpt lat="46.42766" lon="6.1017">
        <ele>1655.013</ele>
        <time>2013-10-19T07:46:52Z</time>
      </trkpt>
      <trkpt lat="46.42787" lon="6.1018">
        <ele>1656.184</ele>
        <time>2013-10-19T07:47:17Z</time>
      </trkpt>
      <trkpt lat="46.42801" lon="6.10185">
        <ele>1654.859</ele>
        <time>2013-10-19T07:47:37Z</time>
      </trkpt>
      <trkpt lat="46.42823" lon="6.1019">
        <ele>1653.056</ele>
        <time>2013-10-19T07:48:02Z</time>
      </trkpt>
      <trkpt lat="46.42836" lon="6.1019">
        <ele>1649.76</ele>
        <time>2013-10-19T07:48:19Z</time>
      </trkpt>
      <trkpt lat="46.4285" lon="6.10192">
        <ele>1647.333</ele>
        <time>2013-10-19T07:48:36Z</time>
      </trkpt>
      <trkpt lat="46.42864" lon="6.10194">
        <ele>1644.08</ele>
        <time>2013-10-19T07:48:54Z</time>
      </trkpt>
      <trkpt lat="46.42868" lon="6.10196">
        <ele>1644.507</ele>
        <time>2013-10-19T07:49:09Z</time>
      </trkpt>
      <trkpt lat="46.4288" lon="6.10199">
        <ele>1642.106</ele>
        <time>2013-10-19T07:49:32Z</time>
      </trkpt>
      <trkpt lat="46.42897" lon="6.10204">
        <ele>1638.999</ele>
        <time>2013-10-19T07:49:53Z</time>
      </trkpt>
      <trkpt lat="46.42902" lon="6.10206">
        <ele>1638.188</ele>
        <time>2013-10-19T07:49:59Z</time>
      </trkpt>
      <trkpt lat="46.42908" lon="6.10207">
        <ele>1636.288</ele>
        <time>2013-10-19T07:50:06Z</time>
      </trkpt>
      <trkpt lat="46.42929" lon="6.10206">
        <ele>1633.859</ele>
        <time>2013-10-19T07:50:33Z</time>
      </trkpt>
      <trkpt lat="46.42947" lon="6.10212">
        <ele>1630.829</ele>
        <time>2013-10-19T07:50:57Z</time>
      </trkpt>
      <trkpt lat="46.42964" lon="6.10209">
        <ele>1628.597</ele>
        <time>2013-10-19T07:51:22Z</time>
      </trkpt>
      <trkpt lat="46.42973" lon="6.10213">
        <ele>1625.496</ele>
        <time>2013-10-19T07:51:34Z</time>
      </trkpt>
      <trkpt lat="46.42991" lon="6.10218">
        <ele>1624.1</ele>
        <time>2013-10-19T07:51:56Z</time>
      </trkpt>
      <trkpt lat="46.43008" lon="6.10224">
        <ele>1620.54</ele>
        <time>2013-10-19T07:52:16Z</time>
      </trkpt>
      <trkpt lat="46.43023" lon="6.10232">
        <ele>1617.405</ele>
        <time>2013-10-19T07:52:36Z</time>
      </trkpt>
      <trkpt lat="46.43038" lon="6.10236">
        <ele>1614.367</ele>
        <time>2013-10-19T07:52:53Z</time>
      </trkpt>
      <trkpt lat="46.43051" lon="6.10243">
        <ele>1611.309</ele>
        <time>2013-10-19T07:53:13Z</time>
      </trkpt>
      <trkpt lat="46.43061" lon="6.10245">
        <ele>1608.239</ele>
        <time>2013-10-19T07:53:28Z</time>
      </trkpt>
      <trkpt lat="46.43075" lon="6.10252">
        <ele>1606.331</ele>
        <time>2013-10-19T07:53:48Z</time>
      </trkpt>
      <trkpt lat="46.43079" lon="6.10253">
        <ele>1603.429</ele>
        <time>2013-10-19T07:53:57Z</time>
      </trkpt>
      <trkpt lat="46.43082" lon="6.10254">
        <ele>1602.453</ele>
        <time>2013-10-19T07:54:26Z</time>
      </trkpt>
      <trkpt lat="46.43082" lon="6.10255">
        <ele>1601.581</ele>
        <time>2013-10-19T07:54:36Z</time>
      </trkpt>
      <trkpt lat="46.43083" lon="6.10251">
        <ele>1600.222</ele>
        <time>2013-10-19T07:54:48Z</time>
      </trkpt>
      <trkpt lat="46.43084" lon="6.10251">
        <ele>1603.378</ele>
        <time>2013-10-19T07:55:26Z</time>
      </trkpt>
      <trkpt lat="46.43084" lon="6.10251">
        <ele>1602.236</ele>
        <time>2013-10-19T07:55:27Z</time>
      </trkpt>
      <trkpt lat="46.43089" lon="6.10254">
        <ele>1598.885</ele>
        <time>2013-10-19T07:55:49Z</time>
      </trkpt>
      <trkpt lat="46.43093" lon="6.10256">
        <ele>1597.637</ele>
        <time>2013-10-19T07:56:11Z</time>
      </trkpt>
      <trkpt lat="46.43098" lon="6.10258">
        <ele>1595.599</ele>
        <time>2013-10-19T07:56:30Z</time>
      </trkpt>
      <trkpt lat="46.43106" lon="6.10264">
        <ele>1592.687</ele>
        <time>2013-10-19T07:56:49Z</time>
      </trkpt>
      <trkpt lat="46.43117" lon="6.10272">
        <ele>1589.63</ele>
        <time>2013-10-19T07:57:11Z</time>
      </trkpt>
      <trkpt lat="46.43124" lon="6.10279">
        <ele>1587.92</ele>
        <time>2013-10-19T07:57:23Z</time>
      </trkpt>
      <trkpt lat="46.43128" lon="6.10282">
        <ele>1584.677</ele>
        <time>2013-10-19T07:57:36Z</time>
      </trkpt>
      <trkpt lat="46.43128" lon="6.10282">
        <ele>1583.687</ele>
        <time>2013-10-19T07:57:38Z</time>
      </trkpt>
      <trkpt lat="46.43128" lon="6.10283">
        <ele>1585.38</ele>
        <time>2013-10-19T07:57:46Z</time>
      </trkpt>
      <trkpt lat="46.43132" lon="6.10284">
        <ele>1582.266</ele>
        <time>2013-10-19T07:57:56Z</time>
      </trkpt>
      <trkpt lat="46.43137" lon="6.10287">
        <ele>1580.094</ele>
        <time>2013-10-19T07:58:11Z</time>
      </trkpt>
      <trkpt lat="46.43142" lon="6.10287">
        <ele>1578.343</ele>
        <time>2013-10-19T07:58:26Z</time>
      </trkpt>
      <trkpt lat="46.43151" lon="6.10292">
        <ele>1577.402</ele>
        <time>2013-10-19T07:58:43Z</time>
      </trkpt>
      <trkpt lat="46.43158" lon="6.10295">
        <ele>1574.119</ele>
        <time>2013-10-19T07:58:57Z</time>
      </trkpt>
      <trkpt lat="46.4317" lon="6.10298">
        <ele>1571.904</ele>
        <time>2013-10-19T07:59:13Z</time>
      </trkpt>
      <trkpt lat="46.43182" lon="6.10314">
        <ele>1570.193</ele>
        <time>2013-10-19T07:59:35Z</time>
      </trkpt>
      <trkpt lat="46.43195" lon="6.10317">
        <ele>1568.667</ele>
        <time>2013-10-19T07:59:53Z</time>
      </trkpt>
      <trkpt lat="46.43211" lon="6.10331">
        <ele>1569.309</ele>
        <time>2013-10-19T08:00:16Z</time>
      </trkpt>
      <trkpt lat="46.43214" lon="6.10333">
        <ele>1566.472</ele>
        <time>2013-10-19T08:00:20Z</time>
      </trkpt>
      <trkpt lat="46.43225" lon="6.10338">
        <ele>1563.891</ele>
        <time>2013-10-19T08:00:37Z</time>
      </trkpt>
      <trkpt lat="46.43238" lon="6.10339">
        <ele>1562.596</ele>
        <time>2013-10-19T08:00:55Z</time>
      </trkpt>
      <trkpt lat="46.43237" lon="6.10333">
        <ele>1561.141</ele>
        <time>2013-10-19T08:01:12Z</time>
      </trkpt>
      <trkpt lat="46.4324" lon="6.10326">
        <ele>1559.158</ele>
        <time>2013-10-19T08:01:23Z</time>
      </trkpt>
      <trkpt lat="46.4324" lon="6.10324">
        <ele>1558.061</ele>
        <time>2013-10-19T08:01:25Z</time>
      </trkpt>
      <trkpt lat="46.4325" lon="6.10331">
        <ele>1557.243</ele>
        <time>2013-10-19T08:01:42Z</time>
      </trkpt>
      <trkpt lat="46.43255" lon="6.10342">
        <ele>1557.938</ele>
        <time>2013-10-19T08:01:55Z</time>
      </trkpt>
      <trkpt lat="46.43256" lon="6.10349">
        <ele>1559.067</ele>
        <time>2013-10-19T08:02:16Z</time>
      </trkpt>
      <trkpt lat="46.43255" lon="6.10353">
        <ele>1557.583</ele>
        <time>2013-10-19T08:03:03Z</time>
      </trkpt>
      <trkpt lat="46.43255" lon="6.10355">
        <ele>1558.249</ele>
        <time>2013-10-19T08:03:37Z</time>
      </trkpt>
      <trkpt lat="46.4326" lon="6.10362">
        <ele>1558.906</ele>
        <time>2013-10-19T08:03:47Z</time>
      </trkpt>
      <trkpt lat="46.43262" lon="6.10364">
        <ele>1559.133</ele>
        <time>2013-10-19T08:03:49Z</time>
      </trkpt>
      <trkpt lat="46.43268" lon="6.10381">
        <ele>1560.896</ele>
        <time>2013-10-19T08:04:05Z</time>
      </trkpt>
      <trkpt lat="46.43267" lon="6.10384">
        <ele>1561.834</ele>
        <time>2013-10-19T08:04:07Z</time>
      </trkpt>
      <trkpt lat="46.43268" lon="6.10387">
        <ele>1563.171</ele>
        <time>2013-10-19T08:04:09Z</time>
      </trkpt>
      <trkpt lat="46.43268" lon="6.10399">
        <ele>1560.54</ele>
        <time>2013-10-19T08:04:23Z</time>
      </trkpt>
      <trkpt lat="46.43267" lon="6.104">
        <ele>1561.38</ele>
        <time>2013-10-19T08:04:27Z</time>
      </trkpt>
      <trkpt lat="46.43267" lon="6.10399">
        <ele>1559.196</ele>
        <time>2013-10-19T08:04:31Z</time>
      </trkpt>
      <trkpt lat="46.43268" lon="6.104">
        <ele>1563.853</ele>
        <time>2013-10-19T08:04:33Z</time>
      </trkpt>
      <trkpt lat="46.43269" lon="6.10404">
        <ele>1560.555</ele>
        <time>2013-10-19T08:04:38Z</time>
      </trkpt>
      <trkpt lat="46.43268" lon="6.10406">
        <ele>1559.334</ele>
        <time>2013-10-19T08:04:41Z</time>
      </trkpt>
      <trkpt lat="46.43268" lon="6.10411">
        <ele>1557.75</ele>
        <time>2013-10-19T08:04:46Z</time>
      </trkpt>
      <trkpt lat="46.43268" lon="6.10416">
        <ele>1556.273</ele>
        <time>2013-10-19T08:04:51Z</time>
      </trkpt>
      <trkpt lat="46.43268" lon="6.10432">
        <ele>1553.061</ele>
        <time>2013-10-19T08:05:05Z</time>
      </trkpt>
      <trkpt lat="46.43268" lon="6.10435">
        <ele>1550.946</ele>
        <time>2013-10-19T08:05:15Z</time>
      </trkpt>
      <trkpt lat="46.43267" lon="6.10435">
        <ele>1547.822</ele>
        <time>2013-10-19T08:05:35Z</time>
      </trkpt>
      <trkpt lat="46.43267" lon="6.10435">
        <ele>1549.464</ele>
        <time>2013-10-19T08:05:41Z</time>
      </trkpt>
      <trkpt lat="46.43265" lon="6.1043">
        <ele>1550.796</ele>
        <time>2013-10-19T08:06:35Z</time>
      </trkpt>
      <trkpt lat="46.43268" lon="6.10439">
        <ele>1550.128</ele>
        <time>2013-10-19T08:06:53Z</time>
      </trkpt>
      <trkpt lat="46.43269" lon="6.10439">
        <ele>1547.432</ele>
        <time>2013-10-19T08:06:57Z</time>
      </trkpt>
      <trkpt lat="46.43271" lon="6.10439">
        <ele>1547.999</ele>
        <time>2013-10-19T08:07:06Z</time>
      </trkpt>
      <trkpt lat="46.43273" lon="6.10444">
        <ele>1548.091</ele>
        <time>2013-10-19T08:07:36Z</time>
      </trkpt>
      <trkpt lat="46.43272" lon="6.10445">
        <ele>1548.204</ele>
        <time>2013-10-19T08:07:41Z</time>
      </trkpt>
      <trkpt lat="46.43271" lon="6.10447">
        <ele>1542.503</ele>
        <time>2013-10-19T08:07:43Z</time>
      </trkpt>
      <trkpt lat="46.43271" lon="6.10448">
        <ele>1548.472</ele>
        <time>2013-10-19T08:07:44Z</time>
      </trkpt>
      <trkpt lat="46.43272" lon="6.1045">
        <ele>1549.673</ele>
        <time>2013-10-19T08:07:46Z</time>
      </trkpt>
      <trkpt lat="46.43269" lon="6.10454">
        <ele>1549.156</ele>
        <time>2013-10-19T08:07:47Z</time>
      </trkpt>
      <trkpt lat="46.43269" lon="6.10468">
        <ele>1548.853</ele>
        <time>2013-10-19T08:08:01Z</time>
      </trkpt>
      <trkpt lat="46.43268" lon="6.10483">
        <ele>1545.841</ele>
        <time>2013-10-19T08:08:16Z</time>
      </trkpt>
      <trkpt lat="46.43266" lon="6.10499">
        <ele>1542.765</ele>
        <time>2013-10-19T08:08:31Z</time>
      </trkpt>
      <trkpt lat="46.43267" lon="6.10506">
        <ele>1539.705</ele>
        <time>2013-10-19T08:08:40Z</time>
      </trkpt>
      <trkpt lat="46.43268" lon="6.10508">
        <ele>1540.196</ele>
        <time>2013-10-19T08:09:06Z</time>
      </trkpt>
      <trkpt lat="46.43268" lon="6.10519">
        <ele>1538.305</ele>
        <time>2013-10-19T08:09:26Z</time>
      </trkpt>
      <trkpt lat="46.4327" lon="6.10524">
        <ele>1537.215</ele>
        <time>2013-10-19T08:09:48Z</time>
      </trkpt>
      <trkpt lat="46.4327" lon="6.10529">
        <ele>1534.151</ele>
        <time>2013-10-19T08:10:12Z</time>
      </trkpt>
      <trkpt lat="46.43269" lon="6.10535">
        <ele>1532.991</ele>
        <time>2013-10-19T08:10:27Z</time>
      </trkpt>
      <trkpt lat="46.43264" lon="6.10541">
        <ele>1529.562</ele>
        <time>2013-10-19T08:10:42Z</time>
      </trkpt>
      <trkpt lat="46.43262" lon="6.10548">
        <ele>1526.874</ele>
        <time>2013-10-19T08:10:55Z</time>
      </trkpt>
      <trkpt lat="46.43259" lon="6.10548">
        <ele>1524.956</ele>
        <time>2013-10-19T08:11:17Z</time>
      </trkpt>
      <trkpt lat="46.43256" lon="6.10557">
        <ele>1521.756</ele>
        <time>2013-10-19T08:11:30Z</time>
      </trkpt>
      <trkpt lat="46.43254" lon="6.10565">
        <ele>1518.713</ele>
        <time>2013-10-19T08:11:40Z</time>
      </trkpt>
      <trkpt lat="46.43252" lon="6.10573">
        <ele>1515.634</ele>
        <time>2013-10-19T08:11:57Z</time>
      </trkpt>
      <trkpt lat="46.4325" lon="6.10581">
        <ele>1512.383</ele>
        <time>2013-10-19T08:12:06Z</time>
      </trkpt>
      <trkpt lat="46.43245" lon="6.10594">
        <ele>1509.29</ele>
        <time>2013-10-19T08:12:21Z</time>
      </trkpt>
      <trkpt lat="46.43243" lon="6.10607">
        <ele>1507.731</ele>
        <time>2013-10-19T08:12:44Z</time>
      </trkpt>
      <trkpt lat="46.43236" lon="6.10628">
        <ele>1504.636</ele>
        <time>2013-10-19T08:13:06Z</time>
      </trkpt>
      <trkpt lat="46.43231" lon="6.10645">
        <ele>1501.227</ele>
        <time>2013-10-19T08:13:25Z</time>
      </trkpt>
      <trkpt lat="46.43228" lon="6.1066">
        <ele>1498.205</ele>
        <time>2013-10-19T08:13:39Z</time>
      </trkpt>
      <trkpt lat="46.43224" lon="6.10678">
        <ele>1495.044</ele>
        <time>2013-10-19T08:13:56Z</time>
      </trkpt>
      <trkpt lat="46.4322" lon="6.10692">
        <ele>1491.959</ele>
        <time>2013-10-19T08:14:08Z</time>
      </trkpt>
      <trkpt lat="46.43216" lon="6.10707">
        <ele>1489.217</ele>
        <time>2013-10-19T08:14:28Z</time>
      </trkpt>
      <trkpt lat="46.43212" lon="6.10722">
        <ele>1488.474</ele>
        <time>2013-10-19T08:14:41Z</time>
      </trkpt>
      <trkpt lat="46.43205" lon="6.10751">
        <ele>1486.433</ele>
        <time>2013-10-19T08:15:02Z</time>
      </trkpt>
      <trkpt lat="46.43203" lon="6.10768">
        <ele>1485.328</ele>
        <time>2013-10-19T08:15:17Z</time>
      </trkpt>
      <trkpt lat="46.43198" lon="6.10791">
        <ele>1485.03</ele>
        <time>2013-10-19T08:15:39Z</time>
      </trkpt>
      <trkpt lat="46.43194" lon="6.10814">
        <ele>1483.021</ele>
        <time>2013-10-19T08:16:00Z</time>
      </trkpt>
      <trkpt lat="46.43195" lon="6.10815">
        <ele>1482.821</ele>
        <time>2013-10-19T08:16:44Z</time>
      </trkpt>
      <trkpt lat="46.43191" lon="6.10832">
        <ele>1480.869</ele>
        <time>2013-10-19T08:16:59Z</time>
      </trkpt>
      <trkpt lat="46.43186" lon="6.10848">
        <ele>1477.855</ele>
        <time>2013-10-19T08:17:18Z</time>
      </trkpt>
      <trkpt lat="46.43182" lon="6.10878">
        <ele>1476.133</ele>
        <time>2013-10-19T08:17:42Z</time>
      </trkpt>
      <trkpt lat="46.43181" lon="6.10902">
        <ele>1473.118</ele>
        <time>2013-10-19T08:17:59Z</time>
      </trkpt>
      <trkpt lat="46.43177" lon="6.10927">
        <ele>1471.254</ele>
        <time>2013-10-19T08:18:20Z</time>
      </trkpt>
      <trkpt lat="46.43174" lon="6.10932">
        <ele>1470.735</ele>
        <time>2013-10-19T08:18:38Z</time>
      </trkpt>
      <trkpt lat="46.43169" lon="6.1094">
        <ele>1470.014</ele>
        <time>2013-10-19T08:18:59Z</time>
      </trkpt>
      <trkpt lat="46.43156" lon="6.10957">
        <ele>1468.591</ele>
        <time>2013-10-19T08:19:17Z</time>
      </trkpt>
      <trkpt lat="46.43155" lon="6.10958">
        <ele>1468.517</ele>
        <time>2013-10-19T08:19:18Z</time>
      </trkpt>
      <trkpt lat="46.43141" lon="6.10968">
        <ele>1468.892</ele>
        <time>2013-10-19T08:19:37Z</time>
      </trkpt>
      <trkpt lat="46.43131" lon="6.10977">
        <ele>1470.303</ele>
        <time>2013-10-19T08:19:53Z</time>
      </trkpt>
      <trkpt lat="46.43126" lon="6.10984">
        <ele>1470.783</ele>
        <time>2013-10-19T08:20:05Z</time>
      </trkpt>
      <trkpt lat="46.43114" lon="6.10989">
        <ele>1468.332</ele>
        <time>2013-10-19T08:20:23Z</time>
      </trkpt>
      <trkpt lat="46.43107" lon="6.10991">
        <ele>1466.685</ele>
        <time>2013-10-19T08:20:35Z</time>
      </trkpt>
      <trkpt lat="46.4309" lon="6.11">
        <ele>1464.461</ele>
        <time>2013-10-19T08:21:01Z</time>
      </trkpt>
      <trkpt lat="46.4308" lon="6.11007">
        <ele>1462.726</ele>
        <time>2013-10-19T08:21:41Z</time>
      </trkpt>
      <trkpt lat="46.43066" lon="6.11019">
        <ele>1461.428</ele>
        <time>2013-10-19T08:21:56Z</time>
      </trkpt>
      <trkpt lat="46.43057" lon="6.11029">
        <ele>1460.423</ele>
        <time>2013-10-19T08:22:06Z</time>
      </trkpt>
      <trkpt lat="46.43042" lon="6.11051">
        <ele>1458.185</ele>
        <time>2013-10-19T08:22:30Z</time>
      </trkpt>
      <trkpt lat="46.43042" lon="6.11056">
        <ele>1457.884</ele>
        <time>2013-10-19T08:22:55Z</time>
      </trkpt>
      <trkpt lat="46.43041" lon="6.11056">
        <ele>1458.306</ele>
        <time>2013-10-19T08:23:25Z</time>
      </trkpt>
      <trkpt lat="46.43037" lon="6.11063">
        <ele>1457.496</ele>
        <time>2013-10-19T08:23:39Z</time>
      </trkpt>
      <trkpt lat="46.43044" lon="6.11074">
        <ele>1457.732</ele>
        <time>2013-10-19T08:23:50Z</time>
      </trkpt>
      <trkpt lat="46.43053" lon="6.11094">
        <ele>1458.915</ele>
        <time>2013-10-19T08:24:08Z</time>
      </trkpt>
      <trkpt lat="46.43065" lon="6.11107">
        <ele>1461.65</ele>
        <time>2013-10-19T08:24:28Z</time>
      </trkpt>
      <trkpt lat="46.43074" lon="6.1112">
        <ele>1463.531</ele>
        <time>2013-10-19T08:24:44Z</time>
      </trkpt>
      <trkpt lat="46.43087" lon="6.11141">
        <ele>1466.125</ele>
        <time>2013-10-19T08:25:06Z</time>
      </trkpt>
      <trkpt lat="46.43089" lon="6.11146">
        <ele>1465.906</ele>
        <time>2013-10-19T08:25:20Z</time>
      </trkpt>
      <trkpt lat="46.43093" lon="6.1115">
        <ele>1466.903</ele>
        <time>2013-10-19T08:25:38Z</time>
      </trkpt>
      <trkpt lat="46.43093" lon="6.1115">
        <ele>1468.354</ele>
        <time>2013-10-19T08:25:40Z</time>
      </trkpt>
      <trkpt lat="46.43092" lon="6.11151">
        <ele>1465.009</ele>
        <time>2013-10-19T08:25:50Z</time>
      </trkpt>
      <trkpt lat="46.43092" lon="6.11151">
        <ele>1465.455</ele>
        <time>2013-10-19T08:25:51Z</time>
      </trkpt>
      <trkpt lat="46.43093" lon="6.11151">
        <ele>1465.748</ele>
        <time>2013-10-19T08:26:16Z</time>
      </trkpt>
      <trkpt lat="46.43093" lon="6.1115">
        <ele>1468.808</ele>
        <time>2013-10-19T08:26:21Z</time>
      </trkpt>
      <trkpt lat="46.43093" lon="6.1115">
        <ele>1466.302</ele>
        <time>2013-10-19T08:26:33Z</time>
      </trkpt>
      <trkpt lat="46.43098" lon="6.11165">
        <ele>1465.37</ele>
        <time>2013-10-19T08:26:49Z</time>
      </trkpt>
      <trkpt lat="46.43101" lon="6.11171">
        <ele>1464.988</ele>
        <time>2013-10-19T08:26:54Z</time>
      </trkpt>
      <trkpt lat="46.43112" lon="6.11194">
        <ele>1463.966</ele>
        <time>2013-10-19T08:27:15Z</time>
      </trkpt>
      <trkpt lat="46.4312" lon="6.11211">
        <ele>1462.054</ele>
        <time>2013-10-19T08:27:38Z</time>
      </trkpt>
      <trkpt lat="46.43118" lon="6.11216">
        <ele>1461.492</ele>
        <time>2013-10-19T08:28:23Z</time>
      </trkpt>
      <trkpt lat="46.43112" lon="6.11229">
        <ele>1458.462</ele>
        <time>2013-10-19T08:28:42Z</time>
      </trkpt>
      <trkpt lat="46.43113" lon="6.11243">
        <ele>1455.419</ele>
        <time>2013-10-19T08:28:59Z</time>
      </trkpt>
      <trkpt lat="46.43114" lon="6.11255">
        <ele>1452.385</ele>
        <time>2013-10-19T08:29:12Z</time>
      </trkpt>
      <trkpt lat="46.43117" lon="6.11271">
        <ele>1449.15</ele>
        <time>2013-10-19T08:29:29Z</time>
      </trkpt>
      <trkpt lat="46.43121" lon="6.11288">
        <ele>1446.137</ele>
        <time>2013-10-19T08:29:46Z</time>
      </trkpt>
      <trkpt lat="46.43124" lon="6.11301">
        <ele>1444.052</ele>
        <time>2013-10-19T08:30:13Z</time>
      </trkpt>
      <trkpt lat="46.43122" lon="6.11319">
        <ele>1440.925</ele>
        <time>2013-10-19T08:30:30Z</time>
      </trkpt>
      <trkpt lat="46.4312" lon="6.1135">
        <ele>1440.935</ele>
        <time>2013-10-19T08:30:54Z</time>
      </trkpt>
      <trkpt lat="46.43132" lon="6.11373">
        <ele>1439.602</ele>
        <time>2013-10-19T08:31:18Z</time>
      </trkpt>
      <trkpt lat="46.43134" lon="6.1138">
        <ele>1438.354</ele>
        <time>2013-10-19T08:31:44Z</time>
      </trkpt>
      <trkpt lat="46.43138" lon="6.11385">
        <ele>1437.048</ele>
        <time>2013-10-19T08:32:10Z</time>
      </trkpt>
      <trkpt lat="46.4314" lon="6.11389">
        <ele>1436.194</ele>
        <time>2013-10-19T08:32:19Z</time>
      </trkpt>
      <trkpt lat="46.43149" lon="6.11398">
        <ele>1434.6</ele>
        <time>2013-10-19T08:32:39Z</time>
      </trkpt>
      <trkpt lat="46.43149" lon="6.11398">
        <ele>1434.337</ele>
        <time>2013-10-19T08:32:40Z</time>
      </trkpt>
      <trkpt lat="46.43149" lon="6.11394">
        <ele>1434.808</ele>
        <time>2013-10-19T08:32:53Z</time>
      </trkpt>
      <trkpt lat="46.4315" lon="6.114">
        <ele>1433.018</ele>
        <time>2013-10-19T08:33:19Z</time>
      </trkpt>
      <trkpt lat="46.43158" lon="6.11398">
        <ele>1430.239</ele>
        <time>2013-10-19T08:33:36Z</time>
      </trkpt>
      <trkpt lat="46.4317" lon="6.11399">
        <ele>1427.535</ele>
        <time>2013-10-19T08:33:54Z</time>
      </trkpt>
      <trkpt lat="46.43176" lon="6.11391">
        <ele>1427.92</ele>
        <time>2013-10-19T08:34:11Z</time>
      </trkpt>
      <trkpt lat="46.43178" lon="6.11381">
        <ele>1429.248</ele>
        <time>2013-10-19T08:34:31Z</time>
      </trkpt>
      <trkpt lat="46.43181" lon="6.11386">
        <ele>1428.056</ele>
        <time>2013-10-19T08:34:54Z</time>
      </trkpt>
      <trkpt lat="46.43189" lon="6.11392">
        <ele>1424.968</ele>
        <time>2013-10-19T08:35:08Z</time>
      </trkpt>
      <trkpt lat="46.43196" lon="6.11401">
        <ele>1421.813</ele>
        <time>2013-10-19T08:35:23Z</time>
      </trkpt>
      <trkpt lat="46.43202" lon="6.1141">
        <ele>1418.626</ele>
        <time>2013-10-19T08:35:34Z</time>
      </trkpt>
      <trkpt lat="46.4321" lon="6.11414">
        <ele>1415.591</ele>
        <time>2013-10-19T08:35:47Z</time>
      </trkpt>
      <trkpt lat="46.43211" lon="6.11416">
        <ele>1415.158</ele>
        <time>2013-10-19T08:35:49Z</time>
      </trkpt>
      <trkpt lat="46.43212" lon="6.11425">
        <ele>1412.542</ele>
        <time>2013-10-19T08:36:08Z</time>
      </trkpt>
      <trkpt lat="46.43211" lon="6.11428">
        <ele>1411.807</ele>
        <time>2013-10-19T08:36:12Z</time>
      </trkpt>
      <trkpt lat="46.43212" lon="6.11435">
        <ele>1410.025</ele>
        <time>2013-10-19T08:36:25Z</time>
      </trkpt>
      <trkpt lat="46.43222" lon="6.1144">
        <ele>1407.431</ele>
        <time>2013-10-19T08:36:41Z</time>
      </trkpt>
      <trkpt lat="46.43226" lon="6.11444">
        <ele>1406.19</ele>
        <time>2013-10-19T08:36:50Z</time>
      </trkpt>
      <trkpt lat="46.43231" lon="6.11453">
        <ele>1405.647</ele>
        <time>2013-10-19T08:37:06Z</time>
      </trkpt>
      <trkpt lat="46.43233" lon="6.11472">
        <ele>1407.004</ele>
        <time>2013-10-19T08:37:23Z</time>
      </trkpt>
      <trkpt lat="46.43237" lon="6.11481">
        <ele>1406.538</ele>
        <time>2013-10-19T08:37:51Z</time>
      </trkpt>
      <trkpt lat="46.43241" lon="6.11487">
        <ele>1406.561</ele>
        <time>2013-10-19T08:38:07Z</time>
      </trkpt>
      <trkpt lat="46.43242" lon="6.11486">
        <ele>1406.497</ele>
        <time>2013-10-19T08:39:48Z</time>
      </trkpt>
      <trkpt lat="46.43257" lon="6.11502">
        <ele>1405.401</ele>
        <time>2013-10-19T08:40:08Z</time>
      </trkpt>
      <trkpt lat="46.4327" lon="6.1151">
        <ele>1406.825</ele>
        <time>2013-10-19T08:40:25Z</time>
      </trkpt>
      <trkpt lat="46.43269" lon="6.1151">
        <ele>1407.307</ele>
        <time>2013-10-19T08:41:00Z</time>
      </trkpt>
      <trkpt lat="46.43276" lon="6.11516">
        <ele>1408.697</ele>
        <time>2013-10-19T08:41:22Z</time>
      </trkpt>
      <trkpt lat="46.43288" lon="6.11533">
        <ele>1409.67</ele>
        <time>2013-10-19T08:41:39Z</time>
      </trkpt>
      <trkpt lat="46.43298" lon="6.11554">
        <ele>1410.333</ele>
        <time>2013-10-19T08:41:58Z</time>
      </trkpt>
      <trkpt lat="46.43304" lon="6.11583">
        <ele>1407.848</ele>
        <time>2013-10-19T08:42:20Z</time>
      </trkpt>
      <trkpt lat="46.43303" lon="6.116">
        <ele>1406.401</ele>
        <time>2013-10-19T08:42:33Z</time>
      </trkpt>
      <trkpt lat="46.43299" lon="6.11637">
        <ele>1404.812</ele>
        <time>2013-10-19T08:42:56Z</time>
      </trkpt>
      <trkpt lat="46.43299" lon="6.11638">
        <ele>1404.904</ele>
        <time>2013-10-19T08:43:14Z</time>
      </trkpt>
      <trkpt lat="46.433" lon="6.11627">
        <ele>1404.85</ele>
        <time>2013-10-19T08:43:23Z</time>
      </trkpt>
      <trkpt lat="46.43304" lon="6.11592">
        <ele>1407.756</ele>
        <time>2013-10-19T08:43:49Z</time>
      </trkpt>
      <trkpt lat="46.433" lon="6.11566">
        <ele>1409.362</ele>
        <time>2013-10-19T08:44:06Z</time>
      </trkpt>
      <trkpt lat="46.43296" lon="6.11557">
        <ele>1409.526</ele>
        <time>2013-10-19T08:44:12Z</time>
      </trkpt>
      <trkpt lat="46.43286" lon="6.11537">
        <ele>1410.562</ele>
        <time>2013-10-19T08:44:28Z</time>
      </trkpt>
      <trkpt lat="46.43283" lon="6.11528">
        <ele>1410.648</ele>
        <time>2013-10-19T08:44:40Z</time>
      </trkpt>
      <trkpt lat="46.43275" lon="6.11509">
        <ele>1407.719</ele>
        <time>2013-10-19T08:44:59Z</time>
      </trkpt>
      <trkpt lat="46.43269" lon="6.11495">
        <ele>1405.915</ele>
        <time>2013-10-19T08:45:19Z</time>
      </trkpt>
      <trkpt lat="46.43256" lon="6.11475">
        <ele>1404.272</ele>
        <time>2013-10-19T08:45:42Z</time>
      </trkpt>
      <trkpt lat="46.4325" lon="6.11452">
        <ele>1402.051</ele>
        <time>2013-10-19T08:46:05Z</time>
      </trkpt>
      <trkpt lat="46.43251" lon="6.11434">
        <ele>1399.745</ele>
        <time>2013-10-19T08:46:27Z</time>
      </trkpt>
      <trkpt lat="46.43249" lon="6.11426">
        <ele>1398.705</ele>
        <time>2013-10-19T08:46:44Z</time>
      </trkpt>
      <trkpt lat="46.4325" lon="6.11412">
        <ele>1395.957</ele>
        <time>2013-10-19T08:47:05Z</time>
      </trkpt>
      <trkpt lat="46.43254" lon="6.11406">
        <ele>1393.119</ele>
        <time>2013-10-19T08:47:24Z</time>
      </trkpt>
      <trkpt lat="46.43253" lon="6.11394">
        <ele>1390.756</ele>
        <time>2013-10-19T08:47:47Z</time>
      </trkpt>
      <trkpt lat="46.43257" lon="6.11376">
        <ele>1388.625</ele>
        <time>2013-10-19T08:48:12Z</time>
      </trkpt>
      <trkpt lat="46.43262" lon="6.11356">
        <ele>1386.435</ele>
        <time>2013-10-19T08:48:33Z</time>
      </trkpt>
      <trkpt lat="46.43272" lon="6.11375">
        <ele>1385.53</ele>
        <time>2013-10-19T08:48:49Z</time>
      </trkpt>
      <trkpt lat="46.43277" lon="6.11367">
        <ele>1384.048</ele>
        <time>2013-10-19T08:49:10Z</time>
      </trkpt>
      <trkpt lat="46.43283" lon="6.11374">
        <ele>1382</ele>
        <time>2013-10-19T08:49:27Z</time>
      </trkpt>
      <trkpt lat="46.43288" lon="6.11382">
        <ele>1378.886</ele>
        <time>2013-10-19T08:49:42Z</time>
      </trkpt>
      <trkpt lat="46.4329" lon="6.11383">
        <ele>1377.853</ele>
        <time>2013-10-19T08:50:04Z</time>
      </trkpt>
      <trkpt lat="46.4329" lon="6.11384">
        <ele>1377.886</ele>
        <time>2013-10-19T08:50:39Z</time>
      </trkpt>
      <trkpt lat="46.433" lon="6.11391">
        <ele>1376.081</ele>
        <time>2013-10-19T08:51:16Z</time>
      </trkpt>
      <trkpt lat="46.43313" lon="6.11403">
        <ele>1372.858</ele>
        <time>2013-10-19T08:51:37Z</time>
      </trkpt>
      <trkpt lat="46.43318" lon="6.11409">
        <ele>1372.166</ele>
        <time>2013-10-19T08:51:45Z</time>
      </trkpt>
      <trkpt lat="46.43322" lon="6.11411">
        <ele>1371.135</ele>
        <time>2013-10-19T08:51:50Z</time>
      </trkpt>
      <trkpt lat="46.43332" lon="6.1141">
        <ele>1369.62</ele>
        <time>2013-10-19T08:52:05Z</time>
      </trkpt>
      <trkpt lat="46.43346" lon="6.1141">
        <ele>1366.821</ele>
        <time>2013-10-19T08:52:25Z</time>
      </trkpt>
      <trkpt lat="46.43351" lon="6.11407">
        <ele>1368.359</ele>
        <time>2013-10-19T08:52:46Z</time>
      </trkpt>
      <trkpt lat="46.43358" lon="6.11405">
        <ele>1365.334</ele>
        <time>2013-10-19T08:53:06Z</time>
      </trkpt>
      <trkpt lat="46.43367" lon="6.11409">
        <ele>1362.107</ele>
        <time>2013-10-19T08:53:23Z</time>
      </trkpt>
      <trkpt lat="46.43373" lon="6.11411">
        <ele>1359.087</ele>
        <time>2013-10-19T08:53:36Z</time>
      </trkpt>
      <trkpt lat="46.4338" lon="6.11407">
        <ele>1357.357</ele>
        <time>2013-10-19T08:53:55Z</time>
      </trkpt>
      <trkpt lat="46.43393" lon="6.11415">
        <ele>1356.543</ele>
        <time>2013-10-19T08:54:26Z</time>
      </trkpt>
      <trkpt lat="46.43395" lon="6.11419">
        <ele>1355.881</ele>
        <time>2013-10-19T08:54:59Z</time>
      </trkpt>
      <trkpt lat="46.43397" lon="6.11424">
        <ele>1354.613</ele>
        <time>2013-10-19T08:55:21Z</time>
      </trkpt>
      <trkpt lat="46.43413" lon="6.11453">
        <ele>1351.35</ele>
        <time>2013-10-19T08:55:46Z</time>
      </trkpt>
      <trkpt lat="46.43418" lon="6.11461">
        <ele>1350.474</ele>
        <time>2013-10-19T08:55:54Z</time>
      </trkpt>
      <trkpt lat="46.43427" lon="6.11481">
        <ele>1348.945</ele>
        <time>2013-10-19T08:56:19Z</time>
      </trkpt>
      <trkpt lat="46.43431" lon="6.11483">
        <ele>1347.863</ele>
        <time>2013-10-19T08:56:40Z</time>
      </trkpt>
      <trkpt lat="46.43441" lon="6.11507">
        <ele>1345.365</ele>
        <time>2013-10-19T08:57:01Z</time>
      </trkpt>
      <trkpt lat="46.4345" lon="6.11537">
        <ele>1341.688</ele>
        <time>2013-10-19T08:57:26Z</time>
      </trkpt>
      <trkpt lat="46.43456" lon="6.11555">
        <ele>1338.677</ele>
        <time>2013-10-19T08:57:47Z</time>
      </trkpt>
      <trkpt lat="46.43467" lon="6.11571">
        <ele>1335.674</ele>
        <time>2013-10-19T08:58:06Z</time>
      </trkpt>
      <trkpt lat="46.4347" lon="6.11584">
        <ele>1333.335</ele>
        <time>2013-10-19T08:58:26Z</time>
      </trkpt>
      <trkpt lat="46.43478" lon="6.11603">
        <ele>1330.175</ele>
        <time>2013-10-19T08:58:45Z</time>
      </trkpt>
      <trkpt lat="46.43478" lon="6.11604">
        <ele>1330.051</ele>
        <time>2013-10-19T08:58:46Z</time>
      </trkpt>
      <trkpt lat="46.43487" lon="6.11624">
        <ele>1327.538</ele>
        <time>2013-10-19T08:59:05Z</time>
      </trkpt>
      <trkpt lat="46.43503" lon="6.11656">
        <ele>1325.148</ele>
        <time>2013-10-19T08:59:31Z</time>
      </trkpt>
      <trkpt lat="46.43519" lon="6.11683">
        <ele>1322.385</ele>
        <time>2013-10-19T09:00:00Z</time>
      </trkpt>
      <trkpt lat="46.43523" lon="6.11695">
        <ele>1321.574</ele>
        <time>2013-10-19T09:00:44Z</time>
      </trkpt>
      <trkpt lat="46.4353" lon="6.11712">
        <ele>1320.583</ele>
        <time>2013-10-19T09:01:01Z</time>
      </trkpt>
      <trkpt lat="46.4355" lon="6.11759">
        <ele>1319.157</ele>
        <time>2013-10-19T09:01:36Z</time>
      </trkpt>
      <trkpt lat="46.43567" lon="6.118">
        <ele>1317.986</ele>
        <time>2013-10-19T09:02:07Z</time>
      </trkpt>
      <trkpt lat="46.4358" lon="6.11828">
        <ele>1318.212</ele>
        <time>2013-10-19T09:02:31Z</time>
      </trkpt>
      <trkpt lat="46.43592" lon="6.11856">
        <ele>1319.137</ele>
        <time>2013-10-19T09:02:55Z</time>
      </trkpt>
      <trkpt lat="46.43607" lon="6.11883">
        <ele>1320.585</ele>
        <time>2013-10-19T09:03:18Z</time>
      </trkpt>
      <trkpt lat="46.43615" lon="6.1191">
        <ele>1321.314</ele>
        <time>2013-10-19T09:03:39Z</time>
      </trkpt>
      <trkpt lat="46.43616" lon="6.11913">
        <ele>1321.867</ele>
        <time>2013-10-19T09:04:03Z</time>
      </trkpt>
      <trkpt lat="46.43616" lon="6.11914">
        <ele>1321.949</ele>
        <time>2013-10-19T09:04:33Z</time>
      </trkpt>
      <trkpt lat="46.43616" lon="6.11918">
        <ele>1321.089</ele>
        <time>2013-10-19T09:04:52Z</time>
      </trkpt>
      <trkpt lat="46.43613" lon="6.11948">
        <ele>1319.26</ele>
        <time>2013-10-19T09:05:14Z</time>
      </trkpt>
      <trkpt lat="46.43614" lon="6.11978">
        <ele>1316.179</ele>
        <time>2013-10-19T09:05:36Z</time>
      </trkpt>
      <trkpt lat="46.43615" lon="6.12004">
        <ele>1312.864</ele>
        <time>2013-10-19T09:05:52Z</time>
      </trkpt>
      <trkpt lat="46.43618" lon="6.12039">
        <ele>1309.756</ele>
        <time>2013-10-19T09:06:13Z</time>
      </trkpt>
      <trkpt lat="46.43623" lon="6.12066">
        <ele>1307.567</ele>
        <time>2013-10-19T09:06:32Z</time>
      </trkpt>
      <trkpt lat="46.43623" lon="6.121">
        <ele>1305.49</ele>
        <time>2013-10-19T09:06:54Z</time>
      </trkpt>
      <trkpt lat="46.43621" lon="6.12126">
        <ele>1303.792</ele>
        <time>2013-10-19T09:07:12Z</time>
      </trkpt>
      <trkpt lat="46.43619" lon="6.12129">
        <ele>1302.921</ele>
        <time>2013-10-19T09:07:27Z</time>
      </trkpt>
      <trkpt lat="46.43619" lon="6.12138">
        <ele>1302.843</ele>
        <time>2013-10-19T09:08:04Z</time>
      </trkpt>
      <trkpt lat="46.43615" lon="6.12169">
        <ele>1303.032</ele>
        <time>2013-10-19T09:08:28Z</time>
      </trkpt>
      <trkpt lat="46.43613" lon="6.12201">
        <ele>1301.432</ele>
        <time>2013-10-19T09:08:48Z</time>
      </trkpt>
      <trkpt lat="46.4361" lon="6.12235">
        <ele>1301.196</ele>
        <time>2013-10-19T09:09:08Z</time>
      </trkpt>
      <trkpt lat="46.43608" lon="6.12262">
        <ele>1300.43</ele>
        <time>2013-10-19T09:09:26Z</time>
      </trkpt>
      <trkpt lat="46.43616" lon="6.12291">
        <ele>1298.901</ele>
        <time>2013-10-19T09:09:47Z</time>
      </trkpt>
      <trkpt lat="46.43616" lon="6.12293">
        <ele>1298.799</ele>
        <time>2013-10-19T09:09:48Z</time>
      </trkpt>
      <trkpt lat="46.4363" lon="6.12326">
        <ele>1297.681</ele>
        <time>2013-10-19T09:10:15Z</time>
      </trkpt>
      <trkpt lat="46.43643" lon="6.12357">
        <ele>1296.193</ele>
        <time>2013-10-19T09:10:39Z</time>
      </trkpt>
      <trkpt lat="46.43659" lon="6.12401">
        <ele>1294.22</ele>
        <time>2013-10-19T09:11:10Z</time>
      </trkpt>
      <trkpt lat="46.43667" lon="6.12449">
        <ele>1293.217</ele>
        <time>2013-10-19T09:11:39Z</time>
      </trkpt>
      <trkpt lat="46.43669" lon="6.12458">
        <ele>1293.355</ele>
        <time>2013-10-19T09:11:45Z</time>
      </trkpt>
      <trkpt lat="46.43669" lon="6.12464">
        <ele>1293.421</ele>
        <time>2013-10-19T09:11:49Z</time>
      </trkpt>
      <trkpt lat="46.43671" lon="6.12495">
        <ele>1291.166</ele>
        <time>2013-10-19T09:12:10Z</time>
      </trkpt>
      <trkpt lat="46.43676" lon="6.12516">
        <ele>1289.294</ele>
        <time>2013-10-19T09:12:25Z</time>
      </trkpt>
      <trkpt lat="46.43685" lon="6.12547">
        <ele>1286.225</ele>
        <time>2013-10-19T09:12:48Z</time>
      </trkpt>
      <trkpt lat="46.43688" lon="6.12562">
        <ele>1285.339</ele>
        <time>2013-10-19T09:13:10Z</time>
      </trkpt>
      <trkpt lat="46.43692" lon="6.12584">
        <ele>1283.514</ele>
        <time>2013-10-19T09:13:52Z</time>
      </trkpt>
      <trkpt lat="46.43699" lon="6.12608">
        <ele>1282.925</ele>
        <time>2013-10-19T09:14:16Z</time>
      </trkpt>
      <trkpt lat="46.43702" lon="6.12628">
        <ele>1281.738</ele>
        <time>2013-10-19T09:14:58Z</time>
      </trkpt>
      <trkpt lat="46.43713" lon="6.12671">
        <ele>1278.922</ele>
        <time>2013-10-19T09:15:28Z</time>
      </trkpt>
      <trkpt lat="46.43717" lon="6.12674">
        <ele>1278.748</ele>
        <time>2013-10-19T09:15:50Z</time>
      </trkpt>
      <trkpt lat="46.43718" lon="6.12684">
        <ele>1278.419</ele>
        <time>2013-10-19T09:16:10Z</time>
      </trkpt>
      <trkpt lat="46.43714" lon="6.12701">
        <ele>1277.502</ele>
        <time>2013-10-19T09:16:27Z</time>
      </trkpt>
      <trkpt lat="46.43714" lon="6.127">
        <ele>1277.49</ele>
        <time>2013-10-19T09:17:00Z</time>
      </trkpt>
      <trkpt lat="46.43712" lon="6.12708">
        <ele>1276.318</ele>
        <time>2013-10-19T09:17:27Z</time>
      </trkpt>
      <trkpt lat="46.43707" lon="6.12732">
        <ele>1275.253</ele>
        <time>2013-10-19T09:17:43Z</time>
      </trkpt>
      <trkpt lat="46.43705" lon="6.12755">
        <ele>1273.599</ele>
        <time>2013-10-19T09:18:00Z</time>
      </trkpt>
      <trkpt lat="46.43709" lon="6.12779">
        <ele>1272.448</ele>
        <time>2013-10-19T09:18:15Z</time>
      </trkpt>
      <trkpt lat="46.43717" lon="6.12797">
        <ele>1271.557</ele>
        <time>2013-10-19T09:18:33Z</time>
      </trkpt>
      <trkpt lat="46.43731" lon="6.12849">
        <ele>1270.93</ele>
        <time>2013-10-19T09:19:06Z</time>
      </trkpt>
      <trkpt lat="46.43737" lon="6.12881">
        <ele>1270.737</ele>
        <time>2013-10-19T09:19:27Z</time>
      </trkpt>
      <trkpt lat="46.43738" lon="6.12909">
        <ele>1271.236</ele>
        <time>2013-10-19T09:19:46Z</time>
      </trkpt>
      <trkpt lat="46.43739" lon="6.12914">
        <ele>1271.246</ele>
        <time>2013-10-19T09:19:49Z</time>
      </trkpt>
      <trkpt lat="46.43738" lon="6.12922">
        <ele>1271.429</ele>
        <time>2013-10-19T09:19:54Z</time>
      </trkpt>
      <trkpt lat="46.43736" lon="6.1296">
        <ele>1272.475</ele>
        <time>2013-10-19T09:20:20Z</time>
      </trkpt>
      <trkpt lat="46.43735" lon="6.12988">
        <ele>1272.961</ele>
        <time>2013-10-19T09:20:38Z</time>
      </trkpt>
      <trkpt lat="46.43737" lon="6.13022">
        <ele>1273.379</ele>
        <time>2013-10-19T09:21:01Z</time>
      </trkpt>
      <trkpt lat="46.43739" lon="6.13052">
        <ele>1273.971</ele>
        <time>2013-10-19T09:21:21Z</time>
      </trkpt>
      <trkpt lat="46.43734" lon="6.13056">
        <ele>1273.537</ele>
        <time>2013-10-19T09:21:41Z</time>
      </trkpt>
      <trkpt lat="46.43733" lon="6.13055">
        <ele>1273.465</ele>
        <time>2013-10-19T09:22:00Z</time>
      </trkpt>
      <trkpt lat="46.43736" lon="6.1306">
        <ele>1273.504</ele>
        <time>2013-10-19T09:22:33Z</time>
      </trkpt>
      <trkpt lat="46.43738" lon="6.13064">
        <ele>1273.524</ele>
        <time>2013-10-19T09:23:03Z</time>
      </trkpt>
      <trkpt lat="46.43738" lon="6.13084">
        <ele>1273.084</ele>
        <time>2013-10-19T09:23:26Z</time>
      </trkpt>
      <trkpt lat="46.4374" lon="6.13095">
        <ele>1273.158</ele>
        <time>2013-10-19T09:23:32Z</time>
      </trkpt>
      <trkpt lat="46.43739" lon="6.13098">
        <ele>1273.265</ele>
        <time>2013-10-19T09:23:34Z</time>
      </trkpt>
      <trkpt lat="46.43743" lon="6.13112">
        <ele>1273.647</ele>
        <time>2013-10-19T09:23:42Z</time>
      </trkpt>
      <trkpt lat="46.43739" lon="6.13118">
        <ele>1273.324</ele>
        <time>2013-10-19T09:23:49Z</time>
      </trkpt>
      <trkpt lat="46.43751" lon="6.13141">
        <ele>1272.393</ele>
        <time>2013-10-19T09:24:06Z</time>
      </trkpt>
      <trkpt lat="46.43765" lon="6.13164">
        <ele>1269.156</ele>
        <time>2013-10-19T09:24:28Z</time>
      </trkpt>
      <trkpt lat="46.43781" lon="6.13187">
        <ele>1266.609</ele>
        <time>2013-10-19T09:24:49Z</time>
      </trkpt>
      <trkpt lat="46.43794" lon="6.1321">
        <ele>1264.813</ele>
        <time>2013-10-19T09:25:06Z</time>
      </trkpt>
      <trkpt lat="46.43807" lon="6.13226">
        <ele>1262.912</ele>
        <time>2013-10-19T09:25:26Z</time>
      </trkpt>
      <trkpt lat="46.4382" lon="6.13239">
        <ele>1259.811</ele>
        <time>2013-10-19T09:25:43Z</time>
      </trkpt>
      <trkpt lat="46.43828" lon="6.13246">
        <ele>1256.799</ele>
        <time>2013-10-19T09:26:00Z</time>
      </trkpt>
      <trkpt lat="46.43834" lon="6.13255">
        <ele>1253.72</ele>
        <time>2013-10-19T09:26:14Z</time>
      </trkpt>
      <trkpt lat="46.4384" lon="6.13258">
        <ele>1250.92</ele>
        <time>2013-10-19T09:26:32Z</time>
      </trkpt>
      <trkpt lat="46.43844" lon="6.13264">
        <ele>1248.656</ele>
        <time>2013-10-19T09:26:48Z</time>
      </trkpt>
      <trkpt lat="46.43851" lon="6.13265">
        <ele>1246.222</ele>
        <time>2013-10-19T09:27:10Z</time>
      </trkpt>
      <trkpt lat="46.43858" lon="6.13267">
        <ele>1244.468</ele>
        <time>2013-10-19T09:27:37Z</time>
      </trkpt>
      <trkpt lat="46.43866" lon="6.13267">
        <ele>1241.983</ele>
        <time>2013-10-19T09:27:58Z</time>
      </trkpt>
      <trkpt lat="46.43873" lon="6.13266">
        <ele>1240.259</ele>
        <time>2013-10-19T09:28:07Z</time>
      </trkpt>
      <trkpt lat="46.43892" lon="6.13275">
        <ele>1237.08</ele>
        <time>2013-10-19T09:28:30Z</time>
      </trkpt>
      <trkpt lat="46.43907" lon="6.13282">
        <ele>1234.015</ele>
        <time>2013-10-19T09:28:49Z</time>
      </trkpt>
      <trkpt lat="46.43921" lon="6.1329">
        <ele>1230.648</ele>
        <time>2013-10-19T09:29:07Z</time>
      </trkpt>
      <trkpt lat="46.43932" lon="6.13289">
        <ele>1227.465</ele>
        <time>2013-10-19T09:29:21Z</time>
      </trkpt>
      <trkpt lat="46.43946" lon="6.13292">
        <ele>1224.305</ele>
        <time>2013-10-19T09:29:36Z</time>
      </trkpt>
      <trkpt lat="46.43956" lon="6.13299">
        <ele>1221.155</ele>
        <time>2013-10-19T09:29:50Z</time>
      </trkpt>
      <trkpt lat="46.43967" lon="6.13302">
        <ele>1218.091</ele>
        <time>2013-10-19T09:30:03Z</time>
      </trkpt>
      <trkpt lat="46.43976" lon="6.13301">
        <ele>1214.898</ele>
        <time>2013-10-19T09:30:15Z</time>
      </trkpt>
      <trkpt lat="46.43978" lon="6.13299">
        <ele>1214.221</ele>
        <time>2013-10-19T09:30:18Z</time>
      </trkpt>
      <trkpt lat="46.43983" lon="6.13297">
        <ele>1213.158</ele>
        <time>2013-10-19T09:30:28Z</time>
      </trkpt>
      <trkpt lat="46.44002" lon="6.13303">
        <ele>1212.324</ele>
        <time>2013-10-19T09:30:47Z</time>
      </trkpt>
      <trkpt lat="46.44017" lon="6.13305">
        <ele>1211.222</ele>
        <time>2013-10-19T09:31:02Z</time>
      </trkpt>
      <trkpt lat="46.44014" lon="6.13305">
        <ele>1211.048</ele>
        <time>2013-10-19T09:31:17Z</time>
      </trkpt>
      <trkpt lat="46.44027" lon="6.1331">
        <ele>1207.754</ele>
        <time>2013-10-19T09:32:09Z</time>
      </trkpt>
      <trkpt lat="46.44041" lon="6.13315">
        <ele>1204.492</ele>
        <time>2013-10-19T09:32:25Z</time>
      </trkpt>
      <trkpt lat="46.44056" lon="6.13318">
        <ele>1201.404</ele>
        <time>2013-10-19T09:32:42Z</time>
      </trkpt>
      <trkpt lat="46.44071" lon="6.13322">
        <ele>1198.29</ele>
        <time>2013-10-19T09:32:57Z</time>
      </trkpt>
      <trkpt lat="46.44073" lon="6.13322">
        <ele>1197.952</ele>
        <time>2013-10-19T09:32:59Z</time>
      </trkpt>
      <trkpt lat="46.44076" lon="6.13322">
        <ele>1197.254</ele>
        <time>2013-10-19T09:33:03Z</time>
      </trkpt>
      <trkpt lat="46.44079" lon="6.13322">
        <ele>1196.815</ele>
        <time>2013-10-19T09:33:06Z</time>
      </trkpt>
      <trkpt lat="46.44098" lon="6.13326">
        <ele>1194.308</ele>
        <time>2013-10-19T09:33:25Z</time>
      </trkpt>
      <trkpt lat="46.44103" lon="6.13328">
        <ele>1193.601</ele>
        <time>2013-10-19T09:33:30Z</time>
      </trkpt>
      <trkpt lat="46.44115" lon="6.13329">
        <ele>1190.083</ele>
        <time>2013-10-19T09:33:45Z</time>
      </trkpt>
      <trkpt lat="46.44124" lon="6.13332">
        <ele>1187.286</ele>
        <time>2013-10-19T09:34:06Z</time>
      </trkpt>
      <trkpt lat="46.44128" lon="6.13333">
        <ele>1186.542</ele>
        <time>2013-10-19T09:34:10Z</time>
      </trkpt>
      <trkpt lat="46.44155" lon="6.13337">
        <ele>1184.861</ele>
        <time>2013-10-19T09:34:36Z</time>
      </trkpt>
      <trkpt lat="46.4416" lon="6.13336">
        <ele>1184.087</ele>
        <time>2013-10-19T09:34:41Z</time>
      </trkpt>
      <trkpt lat="46.4418" lon="6.13355">
        <ele>1182.175</ele>
        <time>2013-10-19T09:35:06Z</time>
      </trkpt>
      <trkpt lat="46.44178" lon="6.13356">
        <ele>1180.912</ele>
        <time>2013-10-19T09:35:26Z</time>
      </trkpt>
      <trkpt lat="46.44177" lon="6.13357">
        <ele>1175.316</ele>
        <time>2013-10-19T09:38:04Z</time>
      </trkpt>
      <trkpt lat="46.44177" lon="6.13357">
        <ele>1182.298</ele>
        <time>2013-10-19T09:38:05Z</time>
      </trkpt>
      <trkpt lat="46.44174" lon="6.13359">
        <ele>1179.29</ele>
        <time>2013-10-19T09:40:45Z</time>
      </trkpt>
      <trkpt lat="46.44174" lon="6.13349">
        <ele>1180.004</ele>
        <time>2013-10-19T09:42:50Z</time>
      </trkpt>
      <trkpt lat="46.44171" lon="6.13347">
        <ele>1179.734</ele>
        <time>2013-10-19T09:44:38Z</time>
      </trkpt>
      <trkpt lat="46.44177" lon="6.13363">
        <ele>1180.289</ele>
        <time>2013-10-19T09:50:31Z</time>
      </trkpt>
      <trkpt lat="46.4417" lon="6.13352">
        <ele>1179.981</ele>
        <time>2013-10-19T09:57:09Z</time>
      </trkpt>
      <trkpt lat="46.44172" lon="6.13345">
        <ele>1180.919</ele>
        <time>2013-10-19T09:58:28Z</time>
      </trkpt>
      <trkpt lat="46.44181" lon="6.13348">
        <ele>1179.915</ele>
        <time>2013-10-19T10:00:08Z</time>
      </trkpt>
      <trkpt lat="46.44193" lon="6.13354">
        <ele>1179.804</ele>
        <time>2013-10-19T10:01:57Z</time>
      </trkpt>
      <trkpt lat="46.44172" lon="6.13352">
        <ele>1180.592</ele>
        <time>2013-10-19T10:02:11Z</time>
      </trkpt>
      <trkpt lat="46.44182" lon="6.13353">
        <ele>1180.119</ele>
        <time>2013-10-19T10:02:40Z</time>
      </trkpt>
      <trkpt lat="46.44232" lon="6.13363">
        <ele>1180.816</ele>
        <time>2013-10-19T10:03:07Z</time>
      </trkpt>
      <trkpt lat="46.44201" lon="6.13352">
        <ele>1180.346</ele>
        <time>2013-10-19T10:03:31Z</time>
      </trkpt>
      <trkpt lat="46.44199" lon="6.13354">
        <ele>1179.568</ele>
        <time>2013-10-19T10:03:53Z</time>
      </trkpt>
      <trkpt lat="46.44197" lon="6.13358">
        <ele>1179.048</ele>
        <time>2013-10-19T10:05:48Z</time>
      </trkpt>
      <trkpt lat="46.442" lon="6.13358">
        <ele>1179.7</ele>
        <time>2013-10-19T10:07:05Z</time>
      </trkpt>
      <trkpt lat="46.44196" lon="6.13358">
        <ele>1177.988</ele>
        <time>2013-10-19T10:07:11Z</time>
      </trkpt>
      <trkpt lat="46.44193" lon="6.13358">
        <ele>1181.054</ele>
        <time>2013-10-19T10:07:14Z</time>
      </trkpt>
      <trkpt lat="46.44194" lon="6.13358">
        <ele>1176.316</ele>
        <time>2013-10-19T10:07:15Z</time>
      </trkpt>
      <trkpt lat="46.44195" lon="6.13358">
        <ele>1179.327</ele>
        <time>2013-10-19T10:07:16Z</time>
      </trkpt>
      <trkpt lat="46.44173" lon="6.13351">
        <ele>1180.544</ele>
        <time>2013-10-19T10:08:12Z</time>
      </trkpt>
      <trkpt lat="46.44174" lon="6.13351">
        <ele>1180.402</ele>
        <time>2013-10-19T10:09:06Z</time>
      </trkpt>
      <trkpt lat="46.442" lon="6.13353">
        <ele>1180.723</ele>
        <time>2013-10-19T10:10:00Z</time>
      </trkpt>
      <trkpt lat="46.44227" lon="6.13361">
        <ele>1180.71</ele>
        <time>2013-10-19T10:10:33Z</time>
      </trkpt>
      <trkpt lat="46.44214" lon="6.13361">
        <ele>1179.375</ele>
        <time>2013-10-19T10:11:17Z</time>
      </trkpt>
      <trkpt lat="46.44213" lon="6.13356">
        <ele>1180.43</ele>
        <time>2013-10-19T10:11:48Z</time>
      </trkpt>
      <trkpt lat="46.44152" lon="6.13352">
        <ele>1180.247</ele>
        <time>2013-10-19T10:12:20Z</time>
      </trkpt>
      <trkpt lat="46.44186" lon="6.13356">
        <ele>1180.337</ele>
        <time>2013-10-19T10:12:51Z</time>
      </trkpt>
      <trkpt lat="46.44246" lon="6.13367">
        <ele>1180.105</ele>
        <time>2013-10-19T10:13:08Z</time>
      </trkpt>
      <trkpt lat="46.44264" lon="6.13368">
        <ele>1180.551</ele>
        <time>2013-10-19T10:13:23Z</time>
      </trkpt>
      <trkpt lat="46.44269" lon="6.1337">
        <ele>1179.999</ele>
        <time>2013-10-19T10:13:34Z</time>
      </trkpt>
      <trkpt lat="46.44245" lon="6.13363">
        <ele>1179.973</ele>
        <time>2013-10-19T10:13:39Z</time>
      </trkpt>
    </trkseg>
  </trk>
  <trk>
    <name><![CDATA[ACTIVE LOG121412]]></name>
    <trkseg>
      <trkpt lat="46.4423" lon="6.13361">
        <ele>1180.644</ele>
        <time>2013-10-19T10:14:12Z</time>
      </trkpt>
    </trkseg>
  </trk>
  <trk>
    <name><![CDATA[ACTIVE LOG121515]]></name>
    <trkseg>
      <trkpt lat="46.44342" lon="6.13373">
        <ele>1181.243</ele>
        <time>2013-10-19T10:15:15Z</time>
      </trkpt>
      <trkpt lat="46.44347" lon="6.13374">
        <ele>1181.122</ele>
        <time>2013-10-19T10:15:16Z</time>
      </trkpt>
      <trkpt lat="46.44328" lon="6.13377">
        <ele>1179.843</ele>
        <time>2013-10-19T10:15:30Z</time>
      </trkpt>
      <trkpt lat="46.44237" lon="6.13366">
        <ele>1178.657</ele>
        <time>2013-10-19T10:15:45Z</time>
      </trkpt>
      <trkpt lat="46.4423" lon="6.13365">
        <ele>1179.706</ele>
        <time>2013-10-19T10:15:55Z</time>
      </trkpt>
      <trkpt lat="46.4423" lon="6.13362">
        <ele>1179.975</ele>
        <time>2013-10-19T10:16:07Z</time>
      </trkpt>
      <trkpt lat="46.44234" lon="6.13361">
        <ele>1179.621</ele>
        <time>2013-10-19T10:16:17Z</time>
      </trkpt>
      <trkpt lat="46.44189" lon="6.13356">
        <ele>1179.817</ele>
        <time>2013-10-19T10:16:27Z</time>
      </trkpt>
      <trkpt lat="46.44167" lon="6.13349">
        <ele>1181.381</ele>
        <time>2013-10-19T10:16:40Z</time>
      </trkpt>
      <trkpt lat="46.44175" lon="6.13348">
        <ele>1182.427</ele>
        <time>2013-10-19T10:16:51Z</time>
      </trkpt>
      <trkpt lat="46.44203" lon="6.13358">
        <ele>1180.948</ele>
        <time>2013-10-19T10:17:11Z</time>
      </trkpt>
      <trkpt lat="46.44181" lon="6.13349">
        <ele>1181.003</ele>
        <time>2013-10-19T10:17:33Z</time>
      </trkpt>
      <trkpt lat="46.44172" lon="6.13351">
        <ele>1181.004</ele>
        <time>2013-10-19T10:18:08Z</time>
      </trkpt>
      <trkpt lat="46.44183" lon="6.13348">
        <ele>1180.997</ele>
        <time>2013-10-19T10:18:29Z</time>
      </trkpt>
      <trkpt lat="46.44195" lon="6.1334">
        <ele>1181.009</ele>
        <time>2013-10-19T10:18:38Z</time>
      </trkpt>
      <trkpt lat="46.44214" lon="6.13333">
        <ele>1180.358</ele>
        <time>2013-10-19T10:18:53Z</time>
      </trkpt>
      <trkpt lat="46.44213" lon="6.13323">
        <ele>1177.335</ele>
        <time>2013-10-19T10:19:08Z</time>
      </trkpt>
      <trkpt lat="46.44215" lon="6.13326">
        <ele>1175.383</ele>
        <time>2013-10-19T10:19:37Z</time>
      </trkpt>
      <trkpt lat="46.44217" lon="6.13331">
        <ele>1172.872</ele>
        <time>2013-10-19T10:19:55Z</time>
      </trkpt>
      <trkpt lat="46.44235" lon="6.13347">
        <ele>1171.639</ele>
        <time>2013-10-19T10:20:15Z</time>
      </trkpt>
      <trkpt lat="46.44241" lon="6.13356">
        <ele>1170.177</ele>
        <time>2013-10-19T10:20:34Z</time>
      </trkpt>
      <trkpt lat="46.44258" lon="6.13365">
        <ele>1168.866</ele>
        <time>2013-10-19T10:20:50Z</time>
      </trkpt>
      <trkpt lat="46.4427" lon="6.13369">
        <ele>1167.446</ele>
        <time>2013-10-19T10:21:06Z</time>
      </trkpt>
      <trkpt lat="46.44279" lon="6.13367">
        <ele>1167.103</ele>
        <time>2013-10-19T10:21:17Z</time>
      </trkpt>
      <trkpt lat="46.44286" lon="6.13362">
        <ele>1166.6</ele>
        <time>2013-10-19T10:21:29Z</time>
      </trkpt>
      <trkpt lat="46.44301" lon="6.13358">
        <ele>1165.699</ele>
        <time>2013-10-19T10:21:43Z</time>
      </trkpt>
      <trkpt lat="46.44318" lon="6.13351">
        <ele>1164.864</ele>
        <time>2013-10-19T10:21:57Z</time>
      </trkpt>
      <trkpt lat="46.44334" lon="6.13347">
        <ele>1163.621</ele>
        <time>2013-10-19T10:22:11Z</time>
      </trkpt>
      <trkpt lat="46.44349" lon="6.13343">
        <ele>1162.618</ele>
        <time>2013-10-19T10:22:25Z</time>
      </trkpt>
      <trkpt lat="46.44364" lon="6.13342">
        <ele>1161.969</ele>
        <time>2013-10-19T10:22:38Z</time>
      </trkpt>
      <trkpt lat="46.44379" lon="6.13346">
        <ele>1162.259</ele>
        <time>2013-10-19T10:22:52Z</time>
      </trkpt>
      <trkpt lat="46.44397" lon="6.13357">
        <ele>1162.293</ele>
        <time>2013-10-19T10:23:09Z</time>
      </trkpt>
      <trkpt lat="46.4442" lon="6.13377">
        <ele>1160.695</ele>
        <time>2013-10-19T10:23:27Z</time>
      </trkpt>
      <trkpt lat="46.4443" lon="6.13382">
        <ele>1158.776</ele>
        <time>2013-10-19T10:23:39Z</time>
      </trkpt>
      <trkpt lat="46.44436" lon="6.13382">
        <ele>1159.772</ele>
        <time>2013-10-19T10:23:55Z</time>
      </trkpt>
      <trkpt lat="46.44443" lon="6.13388">
        <ele>1160.565</ele>
        <time>2013-10-19T10:24:16Z</time>
      </trkpt>
      <trkpt lat="46.44449" lon="6.13398">
        <ele>1160.309</ele>
        <time>2013-10-19T10:24:26Z</time>
      </trkpt>
      <trkpt lat="46.44463" lon="6.13406">
        <ele>1159.344</ele>
        <time>2013-10-19T10:24:35Z</time>
      </trkpt>
      <trkpt lat="46.44458" lon="6.13406">
        <ele>1158.805</ele>
        <time>2013-10-19T10:24:40Z</time>
      </trkpt>
      <trkpt lat="46.44464" lon="6.13411">
        <ele>1157.457</ele>
        <time>2013-10-19T10:24:49Z</time>
      </trkpt>
      <trkpt lat="46.44478" lon="6.13411">
        <ele>1156.733</ele>
        <time>2013-10-19T10:25:01Z</time>
      </trkpt>
      <trkpt lat="46.44488" lon="6.13409">
        <ele>1156.715</ele>
        <time>2013-10-19T10:25:14Z</time>
      </trkpt>
      <trkpt lat="46.44503" lon="6.13401">
        <ele>1155.566</ele>
        <time>2013-10-19T10:25:36Z</time>
      </trkpt>
      <trkpt lat="46.44513" lon="6.13394">
        <ele>1154.636</ele>
        <time>2013-10-19T10:25:46Z</time>
      </trkpt>
      <trkpt lat="46.44519" lon="6.13391">
        <ele>1154.99</ele>
        <time>2013-10-19T10:25:51Z</time>
      </trkpt>
      <trkpt lat="46.44535" lon="6.13388">
        <ele>1155.815</ele>
        <time>2013-10-19T10:26:05Z</time>
      </trkpt>
      <trkpt lat="46.44549" lon="6.13384">
        <ele>1154.553</ele>
        <time>2013-10-19T10:26:19Z</time>
      </trkpt>
      <trkpt lat="46.44559" lon="6.13376">
        <ele>1154.423</ele>
        <time>2013-10-19T10:26:30Z</time>
      </trkpt>
      <trkpt lat="46.44574" lon="6.13369">
        <ele>1154.695</ele>
        <time>2013-10-19T10:26:45Z</time>
      </trkpt>
      <trkpt lat="46.44577" lon="6.13363">
        <ele>1155.001</ele>
        <time>2013-10-19T10:26:51Z</time>
      </trkpt>
      <trkpt lat="46.44577" lon="6.13354">
        <ele>1154.675</ele>
        <time>2013-10-19T10:26:57Z</time>
      </trkpt>
      <trkpt lat="46.44575" lon="6.13339">
        <ele>1156.32</ele>
        <time>2013-10-19T10:27:10Z</time>
      </trkpt>
      <trkpt lat="46.44574" lon="6.13326">
        <ele>1157.76</ele>
        <time>2013-10-19T10:27:21Z</time>
      </trkpt>
      <trkpt lat="46.44584" lon="6.13305">
        <ele>1159.898</ele>
        <time>2013-10-19T10:27:44Z</time>
      </trkpt>
      <trkpt lat="46.44592" lon="6.13296">
        <ele>1161.379</ele>
        <time>2013-10-19T10:27:55Z</time>
      </trkpt>
      <trkpt lat="46.44598" lon="6.1329">
        <ele>1162.379</ele>
        <time>2013-10-19T10:28:04Z</time>
      </trkpt>
      <trkpt lat="46.44602" lon="6.13279">
        <ele>1163.365</ele>
        <time>2013-10-19T10:28:14Z</time>
      </trkpt>
      <trkpt lat="46.44606" lon="6.13273">
        <ele>1163.978</ele>
        <time>2013-10-19T10:28:20Z</time>
      </trkpt>
      <trkpt lat="46.44609" lon="6.13263">
        <ele>1163.86</ele>
        <time>2013-10-19T10:28:29Z</time>
      </trkpt>
      <trkpt lat="46.44615" lon="6.13248">
        <ele>1164.004</ele>
        <time>2013-10-19T10:28:42Z</time>
      </trkpt>
      <trkpt lat="46.4462" lon="6.13233">
        <ele>1164.785</ele>
        <time>2013-10-19T10:28:56Z</time>
      </trkpt>
      <trkpt lat="46.44622" lon="6.1323">
        <ele>1164.963</ele>
        <time>2013-10-19T10:28:59Z</time>
      </trkpt>
      <trkpt lat="46.44631" lon="6.13222">
        <ele>1165.475</ele>
        <time>2013-10-19T10:29:12Z</time>
      </trkpt>
      <trkpt lat="46.44642" lon="6.13214">
        <ele>1167.183</ele>
        <time>2013-10-19T10:29:25Z</time>
      </trkpt>
      <trkpt lat="46.44646" lon="6.13208">
        <ele>1167.933</ele>
        <time>2013-10-19T10:29:32Z</time>
      </trkpt>
      <trkpt lat="46.44646" lon="6.13193">
        <ele>1170.539</ele>
        <time>2013-10-19T10:29:46Z</time>
      </trkpt>
      <trkpt lat="46.44646" lon="6.13187">
        <ele>1171.666</ele>
        <time>2013-10-19T10:29:52Z</time>
      </trkpt>
      <trkpt lat="46.44647" lon="6.13177">
        <ele>1171.662</ele>
        <time>2013-10-19T10:30:06Z</time>
      </trkpt>
      <trkpt lat="46.44646" lon="6.13167">
        <ele>1174.895</ele>
        <time>2013-10-19T10:30:19Z</time>
      </trkpt>
      <trkpt lat="46.44644" lon="6.13152">
        <ele>1175.98</ele>
        <time>2013-10-19T10:30:34Z</time>
      </trkpt>
      <trkpt lat="46.44643" lon="6.13144">
        <ele>1176.754</ele>
        <time>2013-10-19T10:30:48Z</time>
      </trkpt>
      <trkpt lat="46.44643" lon="6.13138">
        <ele>1177.458</ele>
        <time>2013-10-19T10:31:20Z</time>
      </trkpt>
      <trkpt lat="46.44643" lon="6.13133">
        <ele>1176.113</ele>
        <time>2013-10-19T10:31:25Z</time>
      </trkpt>
      <trkpt lat="46.44641" lon="6.13125">
        <ele>1178.505</ele>
        <time>2013-10-19T10:31:37Z</time>
      </trkpt>
      <trkpt lat="46.44642" lon="6.13112">
        <ele>1178.156</ele>
        <time>2013-10-19T10:31:50Z</time>
      </trkpt>
      <trkpt lat="46.44646" lon="6.13098">
        <ele>1180.588</ele>
        <time>2013-10-19T10:32:05Z</time>
      </trkpt>
      <trkpt lat="46.44651" lon="6.13084">
        <ele>1182.119</ele>
        <time>2013-10-19T10:32:20Z</time>
      </trkpt>
      <trkpt lat="46.44654" lon="6.1308">
        <ele>1183.616</ele>
        <time>2013-10-19T10:32:27Z</time>
      </trkpt>
      <trkpt lat="46.44656" lon="6.1308">
        <ele>1183.83</ele>
        <time>2013-10-19T10:32:28Z</time>
      </trkpt>
      <trkpt lat="46.44657" lon="6.13074">
        <ele>1185.678</ele>
        <time>2013-10-19T10:32:36Z</time>
      </trkpt>
      <trkpt lat="46.44658" lon="6.1306">
        <ele>1187.756</ele>
        <time>2013-10-19T10:32:48Z</time>
      </trkpt>
      <trkpt lat="46.44659" lon="6.13055">
        <ele>1188.062</ele>
        <time>2013-10-19T10:33:04Z</time>
      </trkpt>
      <trkpt lat="46.44658" lon="6.13053">
        <ele>1187.952</ele>
        <time>2013-10-19T10:33:05Z</time>
      </trkpt>
      <trkpt lat="46.44663" lon="6.13045">
        <ele>1190.586</ele>
        <time>2013-10-19T10:33:16Z</time>
      </trkpt>
      <trkpt lat="46.44666" lon="6.13035">
        <ele>1190.799</ele>
        <time>2013-10-19T10:33:29Z</time>
      </trkpt>
      <trkpt lat="46.44669" lon="6.13025">
        <ele>1191.055</ele>
        <time>2013-10-19T10:33:39Z</time>
      </trkpt>
      <trkpt lat="46.44676" lon="6.13007">
        <ele>1192.516</ele>
        <time>2013-10-19T10:33:57Z</time>
      </trkpt>
      <trkpt lat="46.44679" lon="6.1299">
        <ele>1193.629</ele>
        <time>2013-10-19T10:34:10Z</time>
      </trkpt>
      <trkpt lat="46.44674" lon="6.12983">
        <ele>1195.271</ele>
        <time>2013-10-19T10:34:25Z</time>
      </trkpt>
      <trkpt lat="46.44677" lon="6.12976">
        <ele>1193.719</ele>
        <time>2013-10-19T10:34:37Z</time>
      </trkpt>
      <trkpt lat="46.44674" lon="6.12966">
        <ele>1194.549</ele>
        <time>2013-10-19T10:34:44Z</time>
      </trkpt>
      <trkpt lat="46.44673" lon="6.12947">
        <ele>1193.282</ele>
        <time>2013-10-19T10:34:59Z</time>
      </trkpt>
      <trkpt lat="46.44676" lon="6.12941">
        <ele>1192.214</ele>
        <time>2013-10-19T10:35:06Z</time>
      </trkpt>
      <trkpt lat="46.44679" lon="6.12922">
        <ele>1189.387</ele>
        <time>2013-10-19T10:35:23Z</time>
      </trkpt>
      <trkpt lat="46.44682" lon="6.12914">
        <ele>1187.441</ele>
        <time>2013-10-19T10:35:32Z</time>
      </trkpt>
      <trkpt lat="46.44693" lon="6.12901">
        <ele>1186.501</ele>
        <time>2013-10-19T10:35:49Z</time>
      </trkpt>
      <trkpt lat="46.44697" lon="6.12895">
        <ele>1185.928</ele>
        <time>2013-10-19T10:35:59Z</time>
      </trkpt>
      <trkpt lat="46.44703" lon="6.12893">
        <ele>1182.635</ele>
        <time>2013-10-19T10:36:14Z</time>
      </trkpt>
      <trkpt lat="46.44711" lon="6.12887">
        <ele>1179.96</ele>
        <time>2013-10-19T10:36:24Z</time>
      </trkpt>
      <trkpt lat="46.44715" lon="6.12887">
        <ele>1179.22</ele>
        <time>2013-10-19T10:36:28Z</time>
      </trkpt>
      <trkpt lat="46.44724" lon="6.12883">
        <ele>1177.328</ele>
        <time>2013-10-19T10:36:39Z</time>
      </trkpt>
      <trkpt lat="46.44728" lon="6.12875">
        <ele>1177.396</ele>
        <time>2013-10-19T10:36:45Z</time>
      </trkpt>
      <trkpt lat="46.4473" lon="6.12866">
        <ele>1177.625</ele>
        <time>2013-10-19T10:36:51Z</time>
      </trkpt>
      <trkpt lat="46.44734" lon="6.12853">
        <ele>1177.153</ele>
        <time>2013-10-19T10:37:02Z</time>
      </trkpt>
      <trkpt lat="46.44734" lon="6.12826">
        <ele>1177.772</ele>
        <time>2013-10-19T10:37:18Z</time>
      </trkpt>
      <trkpt lat="46.44736" lon="6.12821">
        <ele>1178.563</ele>
        <time>2013-10-19T10:37:24Z</time>
      </trkpt>
      <trkpt lat="46.44732" lon="6.12804">
        <ele>1178.785</ele>
        <time>2013-10-19T10:37:37Z</time>
      </trkpt>
      <trkpt lat="46.44741" lon="6.12775">
        <ele>1180.63</ele>
        <time>2013-10-19T10:37:59Z</time>
      </trkpt>
      <trkpt lat="46.44741" lon="6.12769">
        <ele>1180.688</ele>
        <time>2013-10-19T10:38:03Z</time>
      </trkpt>
      <trkpt lat="46.44741" lon="6.12759">
        <ele>1180.653</ele>
        <time>2013-10-19T10:38:09Z</time>
      </trkpt>
      <trkpt lat="46.44742" lon="6.12755">
        <ele>1180.652</ele>
        <time>2013-10-19T10:38:11Z</time>
      </trkpt>
      <trkpt lat="46.44742" lon="6.12752">
        <ele>1180.813</ele>
        <time>2013-10-19T10:38:13Z</time>
      </trkpt>
      <trkpt lat="46.44741" lon="6.1275">
        <ele>1180.659</ele>
        <time>2013-10-19T10:38:15Z</time>
      </trkpt>
      <trkpt lat="46.4474" lon="6.12745">
        <ele>1180.214</ele>
        <time>2013-10-19T10:38:18Z</time>
      </trkpt>
      <trkpt lat="46.44746" lon="6.12722">
        <ele>1177.593</ele>
        <time>2013-10-19T10:38:37Z</time>
      </trkpt>
      <trkpt lat="46.44746" lon="6.12721">
        <ele>1177.43</ele>
        <time>2013-10-19T10:38:38Z</time>
      </trkpt>
      <trkpt lat="46.44746" lon="6.12712">
        <ele>1176.26</ele>
        <time>2013-10-19T10:38:43Z</time>
      </trkpt>
      <trkpt lat="46.44745" lon="6.12694">
        <ele>1175.692</ele>
        <time>2013-10-19T10:38:54Z</time>
      </trkpt>
      <trkpt lat="46.44746" lon="6.12689">
        <ele>1175.992</ele>
        <time>2013-10-19T10:38:57Z</time>
      </trkpt>
      <trkpt lat="46.44747" lon="6.12685">
        <ele>1176.334</ele>
        <time>2013-10-19T10:39:00Z</time>
      </trkpt>
      <trkpt lat="46.44748" lon="6.12667">
        <ele>1177.026</ele>
        <time>2013-10-19T10:39:12Z</time>
      </trkpt>
      <trkpt lat="46.44751" lon="6.12655">
        <ele>1176.475</ele>
        <time>2013-10-19T10:39:20Z</time>
      </trkpt>
      <trkpt lat="46.44753" lon="6.12633">
        <ele>1175.786</ele>
        <time>2013-10-19T10:39:33Z</time>
      </trkpt>
      <trkpt lat="46.44753" lon="6.12629">
        <ele>1176.182</ele>
        <time>2013-10-19T10:39:37Z</time>
      </trkpt>
      <trkpt lat="46.44754" lon="6.12621">
        <ele>1176.547</ele>
        <time>2013-10-19T10:39:43Z</time>
      </trkpt>
      <trkpt lat="46.44754" lon="6.12616">
        <ele>1176.643</ele>
        <time>2013-10-19T10:39:47Z</time>
      </trkpt>
      <trkpt lat="46.44753" lon="6.12612">
        <ele>1176.696</ele>
        <time>2013-10-19T10:39:53Z</time>
      </trkpt>
      <trkpt lat="46.44755" lon="6.126">
        <ele>1176.598</ele>
        <time>2013-10-19T10:40:02Z</time>
      </trkpt>
      <trkpt lat="46.44758" lon="6.12597">
        <ele>1176.733</ele>
        <time>2013-10-19T10:40:05Z</time>
      </trkpt>
      <trkpt lat="46.44765" lon="6.12578">
        <ele>1178.005</ele>
        <time>2013-10-19T10:40:20Z</time>
      </trkpt>
      <trkpt lat="46.44765" lon="6.12573">
        <ele>1177.688</ele>
        <time>2013-10-19T10:40:24Z</time>
      </trkpt>
      <trkpt lat="46.44771" lon="6.12562">
        <ele>1176.241</ele>
        <time>2013-10-19T10:40:36Z</time>
      </trkpt>
      <trkpt lat="46.44764" lon="6.1255">
        <ele>1176.601</ele>
        <time>2013-10-19T10:40:44Z</time>
      </trkpt>
      <trkpt lat="46.44759" lon="6.12545">
        <ele>1177.044</ele>
        <time>2013-10-19T10:40:48Z</time>
      </trkpt>
      <trkpt lat="46.44735" lon="6.12523">
        <ele>1178.675</ele>
        <time>2013-10-19T10:41:04Z</time>
      </trkpt>
      <trkpt lat="46.44734" lon="6.12518">
        <ele>1179.033</ele>
        <time>2013-10-19T10:41:12Z</time>
      </trkpt>
      <trkpt lat="46.44735" lon="6.12505">
        <ele>1178.93</ele>
        <time>2013-10-19T10:41:23Z</time>
      </trkpt>
      <trkpt lat="46.44734" lon="6.12487">
        <ele>1179.815</ele>
        <time>2013-10-19T10:41:37Z</time>
      </trkpt>
      <trkpt lat="46.44735" lon="6.12479">
        <ele>1180.171</ele>
        <time>2013-10-19T10:41:43Z</time>
      </trkpt>
      <trkpt lat="46.44739" lon="6.12467">
        <ele>1180.91</ele>
        <time>2013-10-19T10:41:53Z</time>
      </trkpt>
      <trkpt lat="46.44746" lon="6.12457">
        <ele>1178.741</ele>
        <time>2013-10-19T10:42:05Z</time>
      </trkpt>
      <trkpt lat="46.44749" lon="6.12452">
        <ele>1178.561</ele>
        <time>2013-10-19T10:42:10Z</time>
      </trkpt>
      <trkpt lat="46.44752" lon="6.12442">
        <ele>1179.8</ele>
        <time>2013-10-19T10:42:17Z</time>
      </trkpt>
      <trkpt lat="46.4476" lon="6.12427">
        <ele>1180.039</ele>
        <time>2013-10-19T10:42:30Z</time>
      </trkpt>
      <trkpt lat="46.44765" lon="6.12416">
        <ele>1179.616</ele>
        <time>2013-10-19T10:42:41Z</time>
      </trkpt>
      <trkpt lat="46.44768" lon="6.12411">
        <ele>1179.611</ele>
        <time>2013-10-19T10:42:46Z</time>
      </trkpt>
      <trkpt lat="46.44774" lon="6.12398">
        <ele>1182.93</ele>
        <time>2013-10-19T10:42:57Z</time>
      </trkpt>
      <trkpt lat="46.44777" lon="6.12384">
        <ele>1183.412</ele>
        <time>2013-10-19T10:43:07Z</time>
      </trkpt>
      <trkpt lat="46.44777" lon="6.12381">
        <ele>1182.795</ele>
        <time>2013-10-19T10:43:09Z</time>
      </trkpt>
      <trkpt lat="46.44778" lon="6.12378">
        <ele>1181.9</ele>
        <time>2013-10-19T10:43:11Z</time>
      </trkpt>
      <trkpt lat="46.44779" lon="6.12377">
        <ele>1181.881</ele>
        <time>2013-10-19T10:43:12Z</time>
      </trkpt>
      <trkpt lat="46.44783" lon="6.12362">
        <ele>1183.362</ele>
        <time>2013-10-19T10:43:24Z</time>
      </trkpt>
      <trkpt lat="46.44785" lon="6.12335">
        <ele>1183.047</ele>
        <time>2013-10-19T10:43:48Z</time>
      </trkpt>
      <trkpt lat="46.44785" lon="6.12333">
        <ele>1182.855</ele>
        <time>2013-10-19T10:43:49Z</time>
      </trkpt>
      <trkpt lat="46.44784" lon="6.12327">
        <ele>1182.772</ele>
        <time>2013-10-19T10:43:53Z</time>
      </trkpt>
      <trkpt lat="46.44784" lon="6.12315">
        <ele>1182.823</ele>
        <time>2013-10-19T10:44:01Z</time>
      </trkpt>
      <trkpt lat="46.44783" lon="6.1231">
        <ele>1183.913</ele>
        <time>2013-10-19T10:44:05Z</time>
      </trkpt>
      <trkpt lat="46.4478" lon="6.12302">
        <ele>1184.607</ele>
        <time>2013-10-19T10:44:09Z</time>
      </trkpt>
      <trkpt lat="46.44782" lon="6.12284">
        <ele>1185.268</ele>
        <time>2013-10-19T10:44:23Z</time>
      </trkpt>
      <trkpt lat="46.44791" lon="6.12296">
        <ele>1184.965</ele>
        <time>2013-10-19T10:44:39Z</time>
      </trkpt>
      <trkpt lat="46.44789" lon="6.12296">
        <ele>1185.844</ele>
        <time>2013-10-19T10:45:18Z</time>
      </trkpt>
      <trkpt lat="46.44786" lon="6.12292">
        <ele>1186.34</ele>
        <time>2013-10-19T10:45:22Z</time>
      </trkpt>
      <trkpt lat="46.44786" lon="6.12288">
        <ele>1187.644</ele>
        <time>2013-10-19T10:45:25Z</time>
      </trkpt>
      <trkpt lat="46.44788" lon="6.12267">
        <ele>1186.428</ele>
        <time>2013-10-19T10:45:40Z</time>
      </trkpt>
      <trkpt lat="46.4479" lon="6.12258">
        <ele>1187.593</ele>
        <time>2013-10-19T10:45:47Z</time>
      </trkpt>
      <trkpt lat="46.4479" lon="6.12246">
        <ele>1188.62</ele>
        <time>2013-10-19T10:45:54Z</time>
      </trkpt>
      <trkpt lat="46.44791" lon="6.12242">
        <ele>1189.888</ele>
        <time>2013-10-19T10:45:57Z</time>
      </trkpt>
      <trkpt lat="46.44792" lon="6.12231">
        <ele>1190.12</ele>
        <time>2013-10-19T10:46:04Z</time>
      </trkpt>
      <trkpt lat="46.44792" lon="6.12228">
        <ele>1190.013</ele>
        <time>2013-10-19T10:46:06Z</time>
      </trkpt>
      <trkpt lat="46.44792" lon="6.12223">
        <ele>1190.359</ele>
        <time>2013-10-19T10:46:09Z</time>
      </trkpt>
      <trkpt lat="46.44793" lon="6.12214">
        <ele>1190.984</ele>
        <time>2013-10-19T10:46:16Z</time>
      </trkpt>
      <trkpt lat="46.44796" lon="6.12206">
        <ele>1192.061</ele>
        <time>2013-10-19T10:46:25Z</time>
      </trkpt>
      <trkpt lat="46.44798" lon="6.12194">
        <ele>1193.591</ele>
        <time>2013-10-19T10:46:39Z</time>
      </trkpt>
      <trkpt lat="46.44803" lon="6.12181">
        <ele>1195.834</ele>
        <time>2013-10-19T10:46:52Z</time>
      </trkpt>
      <trkpt lat="46.44807" lon="6.12166">
        <ele>1197.229</ele>
        <time>2013-10-19T10:47:10Z</time>
      </trkpt>
      <trkpt lat="46.44807" lon="6.12166">
        <ele>1200.508</ele>
        <time>2013-10-19T10:47:13Z</time>
      </trkpt>
      <trkpt lat="46.44808" lon="6.12169">
        <ele>1197.244</ele>
        <time>2013-10-19T10:47:28Z</time>
      </trkpt>
      <trkpt lat="46.44809" lon="6.12172">
        <ele>1196.25</ele>
        <time>2013-10-19T10:47:50Z</time>
      </trkpt>
      <trkpt lat="46.4481" lon="6.12163">
        <ele>1195.605</ele>
        <time>2013-10-19T10:47:58Z</time>
      </trkpt>
      <trkpt lat="46.44803" lon="6.12139">
        <ele>1197.074</ele>
        <time>2013-10-19T10:48:22Z</time>
      </trkpt>
      <trkpt lat="46.44804" lon="6.12139">
        <ele>1197.822</ele>
        <time>2013-10-19T10:48:34Z</time>
      </trkpt>
      <trkpt lat="46.44806" lon="6.12138">
        <ele>1198.971</ele>
        <time>2013-10-19T10:48:51Z</time>
      </trkpt>
      <trkpt lat="46.44806" lon="6.12132">
        <ele>1198.985</ele>
        <time>2013-10-19T10:48:56Z</time>
      </trkpt>
      <trkpt lat="46.44796" lon="6.12103">
        <ele>1197.057</ele>
        <time>2013-10-19T10:49:19Z</time>
      </trkpt>
      <trkpt lat="46.44792" lon="6.12091">
        <ele>1197.171</ele>
        <time>2013-10-19T10:49:29Z</time>
      </trkpt>
      <trkpt lat="46.44785" lon="6.12071">
        <ele>1196.475</ele>
        <time>2013-10-19T10:49:50Z</time>
      </trkpt>
      <trkpt lat="46.44775" lon="6.12065">
        <ele>1194.762</ele>
        <time>2013-10-19T10:50:09Z</time>
      </trkpt>
      <trkpt lat="46.44751" lon="6.12052">
        <ele>1191.547</ele>
        <time>2013-10-19T10:50:34Z</time>
      </trkpt>
      <trkpt lat="46.4473" lon="6.12037">
        <ele>1190.166</ele>
        <time>2013-10-19T10:50:56Z</time>
      </trkpt>
      <trkpt lat="46.4472" lon="6.12023">
        <ele>1188.68</ele>
        <time>2013-10-19T10:51:15Z</time>
      </trkpt>
      <trkpt lat="46.44719" lon="6.12019">
        <ele>1189.085</ele>
        <time>2013-10-19T10:51:34Z</time>
      </trkpt>
      <trkpt lat="46.4469" lon="6.11988">
        <ele>1189.017</ele>
        <time>2013-10-19T10:52:12Z</time>
      </trkpt>
      <trkpt lat="46.44675" lon="6.11957">
        <ele>1186.194</ele>
        <time>2013-10-19T10:52:43Z</time>
      </trkpt>
      <trkpt lat="46.4467" lon="6.1193">
        <ele>1184.651</ele>
        <time>2013-10-19T10:53:06Z</time>
      </trkpt>
      <trkpt lat="46.4467" lon="6.1192">
        <ele>1184.118</ele>
        <time>2013-10-19T10:53:31Z</time>
      </trkpt>
      <trkpt lat="46.44663" lon="6.11896">
        <ele>1181.085</ele>
        <time>2013-10-19T10:53:52Z</time>
      </trkpt>
      <trkpt lat="46.44658" lon="6.1187">
        <ele>1178.916</ele>
        <time>2013-10-19T10:54:19Z</time>
      </trkpt>
      <trkpt lat="46.44658" lon="6.11859">
        <ele>1178.009</ele>
        <time>2013-10-19T10:54:26Z</time>
      </trkpt>
      <trkpt lat="46.44658" lon="6.11825">
        <ele>1175.656</ele>
        <time>2013-10-19T10:54:50Z</time>
      </trkpt>
      <trkpt lat="46.4466" lon="6.11788">
        <ele>1174.801</ele>
        <time>2013-10-19T10:55:20Z</time>
      </trkpt>
      <trkpt lat="46.44672" lon="6.11768">
        <ele>1174.591</ele>
        <time>2013-10-19T10:55:42Z</time>
      </trkpt>
      <trkpt lat="46.44678" lon="6.11766">
        <ele>1174.025</ele>
        <time>2013-10-19T10:55:49Z</time>
      </trkpt>
      <trkpt lat="46.44695" lon="6.11757">
        <ele>1174.675</ele>
        <time>2013-10-19T10:56:11Z</time>
      </trkpt>
      <trkpt lat="46.44711" lon="6.11744">
        <ele>1175.411</ele>
        <time>2013-10-19T10:56:37Z</time>
      </trkpt>
      <trkpt lat="46.44732" lon="6.11731">
        <ele>1176.959</ele>
        <time>2013-10-19T10:57:01Z</time>
      </trkpt>
      <trkpt lat="46.44744" lon="6.11721">
        <ele>1177.063</ele>
        <time>2013-10-19T10:57:15Z</time>
      </trkpt>
      <trkpt lat="46.44748" lon="6.11718">
        <ele>1177.083</ele>
        <time>2013-10-19T10:57:19Z</time>
      </trkpt>
      <trkpt lat="46.4476" lon="6.11711">
        <ele>1177.3</ele>
        <time>2013-10-19T10:57:34Z</time>
      </trkpt>
      <trkpt lat="46.44771" lon="6.11711">
        <ele>1178.74</ele>
        <time>2013-10-19T10:57:48Z</time>
      </trkpt>
      <trkpt lat="46.4478" lon="6.11697">
        <ele>1178.298</ele>
        <time>2013-10-19T10:58:04Z</time>
      </trkpt>
      <trkpt lat="46.44795" lon="6.11685">
        <ele>1180.247</ele>
        <time>2013-10-19T10:58:22Z</time>
      </trkpt>
      <trkpt lat="46.44806" lon="6.11675">
        <ele>1181.945</ele>
        <time>2013-10-19T10:58:37Z</time>
      </trkpt>
      <trkpt lat="46.44812" lon="6.11669">
        <ele>1182.817</ele>
        <time>2013-10-19T10:58:47Z</time>
      </trkpt>
      <trkpt lat="46.44814" lon="6.11668">
        <ele>1182.812</ele>
        <time>2013-10-19T10:58:49Z</time>
      </trkpt>
      <trkpt lat="46.4482" lon="6.11657">
        <ele>1185.123</ele>
        <time>2013-10-19T10:59:01Z</time>
      </trkpt>
      <trkpt lat="46.44821" lon="6.11656">
        <ele>1186.148</ele>
        <time>2013-10-19T10:59:22Z</time>
      </trkpt>
      <trkpt lat="46.44825" lon="6.11646">
        <ele>1185.868</ele>
        <time>2013-10-19T10:59:34Z</time>
      </trkpt>
      <trkpt lat="46.44828" lon="6.11637">
        <ele>1187.585</ele>
        <time>2013-10-19T10:59:50Z</time>
      </trkpt>
      <trkpt lat="46.44836" lon="6.11615">
        <ele>1189.481</ele>
        <time>2013-10-19T11:00:15Z</time>
      </trkpt>
      <trkpt lat="46.44844" lon="6.11588">
        <ele>1186.438</ele>
        <time>2013-10-19T11:00:35Z</time>
      </trkpt>
      <trkpt lat="46.4485" lon="6.11559">
        <ele>1186.197</ele>
        <time>2013-10-19T11:00:57Z</time>
      </trkpt>
      <trkpt lat="46.44856" lon="6.1154">
        <ele>1186.297</ele>
        <time>2013-10-19T11:01:12Z</time>
      </trkpt>
      <trkpt lat="46.44869" lon="6.11526">
        <ele>1187.357</ele>
        <time>2013-10-19T11:01:29Z</time>
      </trkpt>
      <trkpt lat="46.44885" lon="6.1151">
        <ele>1185.157</ele>
        <time>2013-10-19T11:01:52Z</time>
      </trkpt>
      <trkpt lat="46.44895" lon="6.11496">
        <ele>1181.809</ele>
        <time>2013-10-19T11:02:09Z</time>
      </trkpt>
      <trkpt lat="46.44905" lon="6.11479">
        <ele>1178.627</ele>
        <time>2013-10-19T11:02:26Z</time>
      </trkpt>
      <trkpt lat="46.44923" lon="6.11451">
        <ele>1176.997</ele>
        <time>2013-10-19T11:02:54Z</time>
      </trkpt>
      <trkpt lat="46.4493" lon="6.11442">
        <ele>1176.406</ele>
        <time>2013-10-19T11:03:02Z</time>
      </trkpt>
      <trkpt lat="46.44939" lon="6.11428">
        <ele>1176.673</ele>
        <time>2013-10-19T11:03:16Z</time>
      </trkpt>
      <trkpt lat="46.44944" lon="6.11423">
        <ele>1176.077</ele>
        <time>2013-10-19T11:03:20Z</time>
      </trkpt>
      <trkpt lat="46.4495" lon="6.11416">
        <ele>1175.688</ele>
        <time>2013-10-19T11:03:29Z</time>
      </trkpt>
      <trkpt lat="46.44955" lon="6.11402">
        <ele>1177.473</ele>
        <time>2013-10-19T11:03:39Z</time>
      </trkpt>
      <trkpt lat="46.44959" lon="6.11391">
        <ele>1177.958</ele>
        <time>2013-10-19T11:03:49Z</time>
      </trkpt>
      <trkpt lat="46.44963" lon="6.11376">
        <ele>1178.484</ele>
        <time>2013-10-19T11:04:03Z</time>
      </trkpt>
      <trkpt lat="46.44967" lon="6.11367">
        <ele>1179.528</ele>
        <time>2013-10-19T11:04:11Z</time>
      </trkpt>
      <trkpt lat="46.44969" lon="6.11363">
        <ele>1179.505</ele>
        <time>2013-10-19T11:04:14Z</time>
      </trkpt>
      <trkpt lat="46.44971" lon="6.11358">
        <ele>1179.699</ele>
        <time>2013-10-19T11:04:19Z</time>
      </trkpt>
      <trkpt lat="46.44972" lon="6.11357">
        <ele>1180.121</ele>
        <time>2013-10-19T11:04:21Z</time>
      </trkpt>
      <trkpt lat="46.44974" lon="6.11353">
        <ele>1179.984</ele>
        <time>2013-10-19T11:04:24Z</time>
      </trkpt>
      <trkpt lat="46.44976" lon="6.11351">
        <ele>1180.566</ele>
        <time>2013-10-19T11:04:27Z</time>
      </trkpt>
      <trkpt lat="46.44979" lon="6.11346">
        <ele>1181.115</ele>
        <time>2013-10-19T11:04:34Z</time>
      </trkpt>
      <trkpt lat="46.44979" lon="6.11342">
        <ele>1181.271</ele>
        <time>2013-10-19T11:04:36Z</time>
      </trkpt>
      <trkpt lat="46.44982" lon="6.11335">
        <ele>1182.996</ele>
        <time>2013-10-19T11:04:44Z</time>
      </trkpt>
      <trkpt lat="46.44986" lon="6.11328">
        <ele>1183.454</ele>
        <time>2013-10-19T11:04:53Z</time>
      </trkpt>
      <trkpt lat="46.4499" lon="6.11327">
        <ele>1184.047</ele>
        <time>2013-10-19T11:04:59Z</time>
      </trkpt>
      <trkpt lat="46.44993" lon="6.11319">
        <ele>1185.379</ele>
        <time>2013-10-19T11:05:09Z</time>
      </trkpt>
      <trkpt lat="46.44993" lon="6.11316">
        <ele>1185.49</ele>
        <time>2013-10-19T11:05:11Z</time>
      </trkpt>
      <trkpt lat="46.44994" lon="6.11317">
        <ele>1185.948</ele>
        <time>2013-10-19T11:05:13Z</time>
      </trkpt>
      <trkpt lat="46.44995" lon="6.11314">
        <ele>1186.2</ele>
        <time>2013-10-19T11:05:16Z</time>
      </trkpt>
      <trkpt lat="46.45" lon="6.11307">
        <ele>1188.625</ele>
        <time>2013-10-19T11:05:25Z</time>
      </trkpt>
      <trkpt lat="46.45006" lon="6.11299">
        <ele>1191.012</ele>
        <time>2013-10-19T11:05:40Z</time>
      </trkpt>
      <trkpt lat="46.45007" lon="6.11295">
        <ele>1191.521</ele>
        <time>2013-10-19T11:05:44Z</time>
      </trkpt>
      <trkpt lat="46.45008" lon="6.1129">
        <ele>1192.341</ele>
        <time>2013-10-19T11:05:49Z</time>
      </trkpt>
      <trkpt lat="46.45016" lon="6.11278">
        <ele>1193.238</ele>
        <time>2013-10-19T11:06:02Z</time>
      </trkpt>
      <trkpt lat="46.45019" lon="6.11278">
        <ele>1194.292</ele>
        <time>2013-10-19T11:06:06Z</time>
      </trkpt>
      <trkpt lat="46.45023" lon="6.11274">
        <ele>1194.229</ele>
        <time>2013-10-19T11:06:11Z</time>
      </trkpt>
      <trkpt lat="46.45027" lon="6.11267">
        <ele>1194.461</ele>
        <time>2013-10-19T11:06:18Z</time>
      </trkpt>
      <trkpt lat="46.45032" lon="6.11264">
        <ele>1195.674</ele>
        <time>2013-10-19T11:06:25Z</time>
      </trkpt>
      <trkpt lat="46.45033" lon="6.11261">
        <ele>1195.568</ele>
        <time>2013-10-19T11:06:27Z</time>
      </trkpt>
      <trkpt lat="46.45038" lon="6.11258">
        <ele>1196.728</ele>
        <time>2013-10-19T11:06:36Z</time>
      </trkpt>
      <trkpt lat="46.45043" lon="6.11256">
        <ele>1195.579</ele>
        <time>2013-10-19T11:07:30Z</time>
      </trkpt>
      <trkpt lat="46.45046" lon="6.11254">
        <ele>1195.779</ele>
        <time>2013-10-19T11:07:34Z</time>
      </trkpt>
      <trkpt lat="46.45053" lon="6.11249">
        <ele>1196.134</ele>
        <time>2013-10-19T11:07:42Z</time>
      </trkpt>
      <trkpt lat="46.45055" lon="6.11247">
        <ele>1196.371</ele>
        <time>2013-10-19T11:07:45Z</time>
      </trkpt>
      <trkpt lat="46.4506" lon="6.11245">
        <ele>1196.003</ele>
        <time>2013-10-19T11:07:50Z</time>
      </trkpt>
      <trkpt lat="46.45062" lon="6.11238">
        <ele>1195.297</ele>
        <time>2013-10-19T11:08:01Z</time>
      </trkpt>
      <trkpt lat="46.4507" lon="6.11224">
        <ele>1195.358</ele>
        <time>2013-10-19T11:08:16Z</time>
      </trkpt>
      <trkpt lat="46.45071" lon="6.11222">
        <ele>1195.681</ele>
        <time>2013-10-19T11:08:18Z</time>
      </trkpt>
      <trkpt lat="46.45074" lon="6.1122">
        <ele>1195.936</ele>
        <time>2013-10-19T11:08:21Z</time>
      </trkpt>
      <trkpt lat="46.45082" lon="6.11211">
        <ele>1197.295</ele>
        <time>2013-10-19T11:08:32Z</time>
      </trkpt>
      <trkpt lat="46.45086" lon="6.11205">
        <ele>1197.112</ele>
        <time>2013-10-19T11:08:38Z</time>
      </trkpt>
      <trkpt lat="46.45089" lon="6.11203">
        <ele>1197.25</ele>
        <time>2013-10-19T11:08:41Z</time>
      </trkpt>
      <trkpt lat="46.45101" lon="6.11193">
        <ele>1198.573</ele>
        <time>2013-10-19T11:08:57Z</time>
      </trkpt>
      <trkpt lat="46.45103" lon="6.11188">
        <ele>1199.678</ele>
        <time>2013-10-19T11:09:15Z</time>
      </trkpt>
      <trkpt lat="46.45104" lon="6.11189">
        <ele>1199.504</ele>
        <time>2013-10-19T11:09:42Z</time>
      </trkpt>
      <trkpt lat="46.45114" lon="6.11181">
        <ele>1199.102</ele>
        <time>2013-10-19T11:10:03Z</time>
      </trkpt>
      <trkpt lat="46.45128" lon="6.11167">
        <ele>1197.769</ele>
        <time>2013-10-19T11:10:24Z</time>
      </trkpt>
      <trkpt lat="46.45141" lon="6.11134">
        <ele>1197.268</ele>
        <time>2013-10-19T11:10:54Z</time>
      </trkpt>
      <trkpt lat="46.45149" lon="6.11098">
        <ele>1196.378</ele>
        <time>2013-10-19T11:11:21Z</time>
      </trkpt>
      <trkpt lat="46.45159" lon="6.11056">
        <ele>1195.518</ele>
        <time>2013-10-19T11:11:52Z</time>
      </trkpt>
      <trkpt lat="46.45167" lon="6.11022">
        <ele>1194.722</ele>
        <time>2013-10-19T11:12:16Z</time>
      </trkpt>
      <trkpt lat="46.45175" lon="6.10991">
        <ele>1196.045</ele>
        <time>2013-10-19T11:12:39Z</time>
      </trkpt>
      <trkpt lat="46.45184" lon="6.10966">
        <ele>1196.775</ele>
        <time>2013-10-19T11:12:59Z</time>
      </trkpt>
      <trkpt lat="46.45191" lon="6.10942">
        <ele>1194.909</ele>
        <time>2013-10-19T11:13:17Z</time>
      </trkpt>
      <trkpt lat="46.45202" lon="6.10905">
        <ele>1195.145</ele>
        <time>2013-10-19T11:13:42Z</time>
      </trkpt>
      <trkpt lat="46.45207" lon="6.10887">
        <ele>1196.84</ele>
        <time>2013-10-19T11:13:56Z</time>
      </trkpt>
      <trkpt lat="46.45209" lon="6.10881">
        <ele>1197.37</ele>
        <time>2013-10-19T11:14:01Z</time>
      </trkpt>
      <trkpt lat="46.45211" lon="6.10872">
        <ele>1197.548</ele>
        <time>2013-10-19T11:14:07Z</time>
      </trkpt>
      <trkpt lat="46.45219" lon="6.10837">
        <ele>1200.369</ele>
        <time>2013-10-19T11:14:32Z</time>
      </trkpt>
      <trkpt lat="46.45222" lon="6.10825">
        <ele>1200.167</ele>
        <time>2013-10-19T11:14:41Z</time>
      </trkpt>
      <trkpt lat="46.45224" lon="6.10806">
        <ele>1198.885</ele>
        <time>2013-10-19T11:15:00Z</time>
      </trkpt>
      <trkpt lat="46.45227" lon="6.1078">
        <ele>1199.608</ele>
        <time>2013-10-19T11:15:22Z</time>
      </trkpt>
      <trkpt lat="46.4523" lon="6.10754">
        <ele>1198.933</ele>
        <time>2013-10-19T11:15:42Z</time>
      </trkpt>
      <trkpt lat="46.45236" lon="6.10718">
        <ele>1199.371</ele>
        <time>2013-10-19T11:16:07Z</time>
      </trkpt>
      <trkpt lat="46.4524" lon="6.10698">
        <ele>1198.028</ele>
        <time>2013-10-19T11:16:23Z</time>
      </trkpt>
      <trkpt lat="46.45239" lon="6.10678">
        <ele>1199.99</ele>
        <time>2013-10-19T11:16:38Z</time>
      </trkpt>
      <trkpt lat="46.45249" lon="6.10659">
        <ele>1197.872</ele>
        <time>2013-10-19T11:16:56Z</time>
      </trkpt>
      <trkpt lat="46.45253" lon="6.10648">
        <ele>1199.582</ele>
        <time>2013-10-19T11:17:18Z</time>
      </trkpt>
      <trkpt lat="46.45253" lon="6.10645">
        <ele>1198.715</ele>
        <time>2013-10-19T11:17:32Z</time>
      </trkpt>
      <trkpt lat="46.45253" lon="6.10643">
        <ele>1199.557</ele>
        <time>2013-10-19T11:17:34Z</time>
      </trkpt>
      <trkpt lat="46.45247" lon="6.10609">
        <ele>1196.295</ele>
        <time>2013-10-19T11:17:56Z</time>
      </trkpt>
      <trkpt lat="46.45246" lon="6.10604">
        <ele>1197.921</ele>
        <time>2013-10-19T11:17:59Z</time>
      </trkpt>
      <trkpt lat="46.45239" lon="6.10578">
        <ele>1199.364</ele>
        <time>2013-10-19T11:18:16Z</time>
      </trkpt>
      <trkpt lat="46.45236" lon="6.10569">
        <ele>1197.813</ele>
        <time>2013-10-19T11:18:22Z</time>
      </trkpt>
      <trkpt lat="46.45229" lon="6.10534">
        <ele>1199.121</ele>
        <time>2013-10-19T11:18:46Z</time>
      </trkpt>
      <trkpt lat="46.45225" lon="6.10513">
        <ele>1198.364</ele>
        <time>2013-10-19T11:19:06Z</time>
      </trkpt>
      <trkpt lat="46.45225" lon="6.10513">
        <ele>1199.092</ele>
        <time>2013-10-19T11:19:12Z</time>
      </trkpt>
      <trkpt lat="46.45225" lon="6.10511">
        <ele>1198.085</ele>
        <time>2013-10-19T11:19:14Z</time>
      </trkpt>
      <trkpt lat="46.45223" lon="6.10505">
        <ele>1196.63</ele>
        <time>2013-10-19T11:19:18Z</time>
      </trkpt>
      <trkpt lat="46.45221" lon="6.10499">
        <ele>1197.219</ele>
        <time>2013-10-19T11:19:22Z</time>
      </trkpt>
      <trkpt lat="46.45214" lon="6.10482">
        <ele>1196.62</ele>
        <time>2013-10-19T11:19:35Z</time>
      </trkpt>
      <trkpt lat="46.45205" lon="6.10454">
        <ele>1195.157</ele>
        <time>2013-10-19T11:19:57Z</time>
      </trkpt>
      <trkpt lat="46.45195" lon="6.10442">
        <ele>1192.712</ele>
        <time>2013-10-19T11:20:13Z</time>
      </trkpt>
      <trkpt lat="46.45193" lon="6.1044">
        <ele>1192.317</ele>
        <time>2013-10-19T11:20:16Z</time>
      </trkpt>
      <trkpt lat="46.4519" lon="6.10439">
        <ele>1191.777</ele>
        <time>2013-10-19T11:20:19Z</time>
      </trkpt>
      <trkpt lat="46.45177" lon="6.10405">
        <ele>1190.082</ele>
        <time>2013-10-19T11:20:45Z</time>
      </trkpt>
      <trkpt lat="46.45174" lon="6.10391">
        <ele>1190.307</ele>
        <time>2013-10-19T11:20:56Z</time>
      </trkpt>
      <trkpt lat="46.45169" lon="6.10375">
        <ele>1191.616</ele>
        <time>2013-10-19T11:21:11Z</time>
      </trkpt>
      <trkpt lat="46.45163" lon="6.10358">
        <ele>1194.79</ele>
        <time>2013-10-19T11:21:24Z</time>
      </trkpt>
      <trkpt lat="46.45162" lon="6.10354">
        <ele>1192.04</ele>
        <time>2013-10-19T11:21:27Z</time>
      </trkpt>
      <trkpt lat="46.45157" lon="6.10333">
        <ele>1191.024</ele>
        <time>2013-10-19T11:21:43Z</time>
      </trkpt>
      <trkpt lat="46.45156" lon="6.10327">
        <ele>1189.049</ele>
        <time>2013-10-19T11:21:47Z</time>
      </trkpt>
      <trkpt lat="46.45155" lon="6.10324">
        <ele>1190.598</ele>
        <time>2013-10-19T11:21:49Z</time>
      </trkpt>
      <trkpt lat="46.45155" lon="6.10323">
        <ele>1190.255</ele>
        <time>2013-10-19T11:21:50Z</time>
      </trkpt>
      <trkpt lat="46.45156" lon="6.10317">
        <ele>1191.969</ele>
        <time>2013-10-19T11:21:54Z</time>
      </trkpt>
      <trkpt lat="46.45154" lon="6.10308">
        <ele>1191.856</ele>
        <time>2013-10-19T11:22:01Z</time>
      </trkpt>
      <trkpt lat="46.45154" lon="6.10304">
        <ele>1193.339</ele>
        <time>2013-10-19T11:22:03Z</time>
      </trkpt>
      <trkpt lat="46.45149" lon="6.10289">
        <ele>1193.29</ele>
        <time>2013-10-19T11:22:19Z</time>
      </trkpt>
      <trkpt lat="46.45144" lon="6.10269">
        <ele>1196.42</ele>
        <time>2013-10-19T11:22:35Z</time>
      </trkpt>
      <trkpt lat="46.4514" lon="6.1025">
        <ele>1196.382</ele>
        <time>2013-10-19T11:22:54Z</time>
      </trkpt>
      <trkpt lat="46.4514" lon="6.10245">
        <ele>1196.836</ele>
        <time>2013-10-19T11:23:22Z</time>
      </trkpt>
      <trkpt lat="46.45141" lon="6.10245">
        <ele>1198.017</ele>
        <time>2013-10-19T11:23:42Z</time>
      </trkpt>
      <trkpt lat="46.45137" lon="6.1023">
        <ele>1195.483</ele>
        <time>2013-10-19T11:23:55Z</time>
      </trkpt>
      <trkpt lat="46.45135" lon="6.10216">
        <ele>1199.483</ele>
        <time>2013-10-19T11:24:05Z</time>
      </trkpt>
      <trkpt lat="46.45135" lon="6.10214">
        <ele>1199.514</ele>
        <time>2013-10-19T11:24:06Z</time>
      </trkpt>
      <trkpt lat="46.45127" lon="6.10195">
        <ele>1199.621</ele>
        <time>2013-10-19T11:24:21Z</time>
      </trkpt>
      <trkpt lat="46.45112" lon="6.10163">
        <ele>1199.654</ele>
        <time>2013-10-19T11:24:45Z</time>
      </trkpt>
      <trkpt lat="46.451" lon="6.10135">
        <ele>1200.633</ele>
        <time>2013-10-19T11:25:06Z</time>
      </trkpt>
      <trkpt lat="46.45088" lon="6.10112">
        <ele>1201.195</ele>
        <time>2013-10-19T11:25:26Z</time>
      </trkpt>
      <trkpt lat="46.45076" lon="6.10084">
        <ele>1202.014</ele>
        <time>2013-10-19T11:25:47Z</time>
      </trkpt>
      <trkpt lat="46.45064" lon="6.10058">
        <ele>1202.696</ele>
        <time>2013-10-19T11:26:07Z</time>
      </trkpt>
      <trkpt lat="46.45055" lon="6.10041">
        <ele>1204.524</ele>
        <time>2013-10-19T11:26:21Z</time>
      </trkpt>
      <trkpt lat="46.45047" lon="6.10021">
        <ele>1205.53</ele>
        <time>2013-10-19T11:26:36Z</time>
      </trkpt>
      <trkpt lat="46.45044" lon="6.10016">
        <ele>1205.145</ele>
        <time>2013-10-19T11:26:41Z</time>
      </trkpt>
      <trkpt lat="46.45035" lon="6.09996">
        <ele>1206.287</ele>
        <time>2013-10-19T11:26:54Z</time>
      </trkpt>
      <trkpt lat="46.45028" lon="6.09979">
        <ele>1207.757</ele>
        <time>2013-10-19T11:27:07Z</time>
      </trkpt>
      <trkpt lat="46.45022" lon="6.09967">
        <ele>1209.547</ele>
        <time>2013-10-19T11:27:18Z</time>
      </trkpt>
      <trkpt lat="46.45016" lon="6.09954">
        <ele>1210.8</ele>
        <time>2013-10-19T11:27:30Z</time>
      </trkpt>
      <trkpt lat="46.45017" lon="6.09953">
        <ele>1211.85</ele>
        <time>2013-10-19T11:27:38Z</time>
      </trkpt>
      <trkpt lat="46.45016" lon="6.09952">
        <ele>1210.49</ele>
        <time>2013-10-19T11:27:48Z</time>
      </trkpt>
      <trkpt lat="46.45017" lon="6.09952">
        <ele>1212.694</ele>
        <time>2013-10-19T11:27:50Z</time>
      </trkpt>
      <trkpt lat="46.45011" lon="6.0994">
        <ele>1212.396</ele>
        <time>2013-10-19T11:28:06Z</time>
      </trkpt>
      <trkpt lat="46.45005" lon="6.09925">
        <ele>1214.325</ele>
        <time>2013-10-19T11:28:18Z</time>
      </trkpt>
      <trkpt lat="46.44998" lon="6.09907">
        <ele>1215.238</ele>
        <time>2013-10-19T11:28:32Z</time>
      </trkpt>
      <trkpt lat="46.44993" lon="6.09895">
        <ele>1216.362</ele>
        <time>2013-10-19T11:28:43Z</time>
      </trkpt>
      <trkpt lat="46.44985" lon="6.09883">
        <ele>1214.996</ele>
        <time>2013-10-19T11:28:53Z</time>
      </trkpt>
      <trkpt lat="46.44983" lon="6.09881">
        <ele>1216.882</ele>
        <time>2013-10-19T11:28:56Z</time>
      </trkpt>
      <trkpt lat="46.4497" lon="6.09864">
        <ele>1218.192</ele>
        <time>2013-10-19T11:29:13Z</time>
      </trkpt>
      <trkpt lat="46.4496" lon="6.09852">
        <ele>1218.862</ele>
        <time>2013-10-19T11:29:26Z</time>
      </trkpt>
      <trkpt lat="46.44946" lon="6.09838">
        <ele>1219.104</ele>
        <time>2013-10-19T11:29:41Z</time>
      </trkpt>
      <trkpt lat="46.44925" lon="6.09805">
        <ele>1219.11</ele>
        <time>2013-10-19T11:30:09Z</time>
      </trkpt>
      <trkpt lat="46.44909" lon="6.09775">
        <ele>1215.28</ele>
        <time>2013-10-19T11:30:33Z</time>
      </trkpt>
      <trkpt lat="46.44895" lon="6.09757">
        <ele>1215.74</ele>
        <time>2013-10-19T11:30:51Z</time>
      </trkpt>
      <trkpt lat="46.4487" lon="6.09725">
        <ele>1215.941</ele>
        <time>2013-10-19T11:31:23Z</time>
      </trkpt>
      <trkpt lat="46.44853" lon="6.09703">
        <ele>1214.433</ele>
        <time>2013-10-19T11:31:43Z</time>
      </trkpt>
      <trkpt lat="46.44849" lon="6.09698">
        <ele>1215.439</ele>
        <time>2013-10-19T11:31:52Z</time>
      </trkpt>
      <trkpt lat="46.44845" lon="6.09697">
        <ele>1213.307</ele>
        <time>2013-10-19T11:31:56Z</time>
      </trkpt>
      <trkpt lat="46.44832" lon="6.09684">
        <ele>1215.484</ele>
        <time>2013-10-19T11:32:13Z</time>
      </trkpt>
      <trkpt lat="46.44823" lon="6.09669">
        <ele>1216.018</ele>
        <time>2013-10-19T11:32:28Z</time>
      </trkpt>
      <trkpt lat="46.44807" lon="6.09641">
        <ele>1215.265</ele>
        <time>2013-10-19T11:32:50Z</time>
      </trkpt>
      <trkpt lat="46.44797" lon="6.09622">
        <ele>1215.632</ele>
        <time>2013-10-19T11:33:03Z</time>
      </trkpt>
      <trkpt lat="46.44791" lon="6.09596">
        <ele>1216.405</ele>
        <time>2013-10-19T11:33:19Z</time>
      </trkpt>
      <trkpt lat="46.44786" lon="6.09567">
        <ele>1218.512</ele>
        <time>2013-10-19T11:33:38Z</time>
      </trkpt>
      <trkpt lat="46.4478" lon="6.09548">
        <ele>1219.538</ele>
        <time>2013-10-19T11:33:54Z</time>
      </trkpt>
      <trkpt lat="46.44771" lon="6.09525">
        <ele>1221.193</ele>
        <time>2013-10-19T11:34:11Z</time>
      </trkpt>
      <trkpt lat="46.44771" lon="6.09497">
        <ele>1221.19</ele>
        <time>2013-10-19T11:34:30Z</time>
      </trkpt>
      <trkpt lat="46.44772" lon="6.09476">
        <ele>1222.774</ele>
        <time>2013-10-19T11:34:46Z</time>
      </trkpt>
      <trkpt lat="46.44769" lon="6.09435">
        <ele>1223.208</ele>
        <time>2013-10-19T11:35:13Z</time>
      </trkpt>
      <trkpt lat="46.44766" lon="6.09407">
        <ele>1225.229</ele>
        <time>2013-10-19T11:35:32Z</time>
      </trkpt>
      <trkpt lat="46.44757" lon="6.09369">
        <ele>1226.997</ele>
        <time>2013-10-19T11:35:57Z</time>
      </trkpt>
      <trkpt lat="46.44752" lon="6.09352">
        <ele>1227.687</ele>
        <time>2013-10-19T11:36:09Z</time>
      </trkpt>
      <trkpt lat="46.44745" lon="6.09333">
        <ele>1228.745</ele>
        <time>2013-10-19T11:36:24Z</time>
      </trkpt>
      <trkpt lat="46.44737" lon="6.09313">
        <ele>1229.02</ele>
        <time>2013-10-19T11:36:39Z</time>
      </trkpt>
      <trkpt lat="46.44731" lon="6.09297">
        <ele>1230.001</ele>
        <time>2013-10-19T11:36:50Z</time>
      </trkpt>
      <trkpt lat="46.44724" lon="6.09274">
        <ele>1230.893</ele>
        <time>2013-10-19T11:37:06Z</time>
      </trkpt>
      <trkpt lat="46.44723" lon="6.0927">
        <ele>1232.209</ele>
        <time>2013-10-19T11:37:09Z</time>
      </trkpt>
      <trkpt lat="46.44715" lon="6.09251">
        <ele>1231.921</ele>
        <time>2013-10-19T11:37:25Z</time>
      </trkpt>
      <trkpt lat="46.44704" lon="6.09216">
        <ele>1232.795</ele>
        <time>2013-10-19T11:37:49Z</time>
      </trkpt>
      <trkpt lat="46.44696" lon="6.09189">
        <ele>1234.288</ele>
        <time>2013-10-19T11:38:07Z</time>
      </trkpt>
      <trkpt lat="46.44686" lon="6.09164">
        <ele>1233.391</ele>
        <time>2013-10-19T11:38:25Z</time>
      </trkpt>
      <trkpt lat="46.44683" lon="6.09159">
        <ele>1235.438</ele>
        <time>2013-10-19T11:38:29Z</time>
      </trkpt>
      <trkpt lat="46.44682" lon="6.09157">
        <ele>1236.428</ele>
        <time>2013-10-19T11:38:31Z</time>
      </trkpt>
      <trkpt lat="46.44672" lon="6.09133">
        <ele>1236.776</ele>
        <time>2013-10-19T11:38:48Z</time>
      </trkpt>
      <trkpt lat="46.44661" lon="6.09111">
        <ele>1237.078</ele>
        <time>2013-10-19T11:39:07Z</time>
      </trkpt>
      <trkpt lat="46.44651" lon="6.09095">
        <ele>1237.32</ele>
        <time>2013-10-19T11:39:20Z</time>
      </trkpt>
      <trkpt lat="46.44646" lon="6.09089">
        <ele>1237.757</ele>
        <time>2013-10-19T11:39:26Z</time>
      </trkpt>
      <trkpt lat="46.44627" lon="6.09075">
        <ele>1237.12</ele>
        <time>2013-10-19T11:39:45Z</time>
      </trkpt>
      <trkpt lat="46.44605" lon="6.09054">
        <ele>1234.036</ele>
        <time>2013-10-19T11:40:07Z</time>
      </trkpt>
      <trkpt lat="46.44601" lon="6.09049">
        <ele>1235.739</ele>
        <time>2013-10-19T11:40:12Z</time>
      </trkpt>
      <trkpt lat="46.44598" lon="6.09045">
        <ele>1236.53</ele>
        <time>2013-10-19T11:40:15Z</time>
      </trkpt>
      <trkpt lat="46.44593" lon="6.09037">
        <ele>1234.235</ele>
        <time>2013-10-19T11:40:22Z</time>
      </trkpt>
      <trkpt lat="46.44585" lon="6.09024">
        <ele>1235.237</ele>
        <time>2013-10-19T11:40:35Z</time>
      </trkpt>
      <trkpt lat="46.44576" lon="6.09006">
        <ele>1234.081</ele>
        <time>2013-10-19T11:40:49Z</time>
      </trkpt>
      <trkpt lat="46.44568" lon="6.08993">
        <ele>1234.585</ele>
        <time>2013-10-19T11:40:58Z</time>
      </trkpt>
      <trkpt lat="46.4456" lon="6.08978">
        <ele>1234.078</ele>
        <time>2013-10-19T11:41:10Z</time>
      </trkpt>
      <trkpt lat="46.44558" lon="6.08973">
        <ele>1233.164</ele>
        <time>2013-10-19T11:41:15Z</time>
      </trkpt>
      <trkpt lat="46.44557" lon="6.08969">
        <ele>1232.536</ele>
        <time>2013-10-19T11:41:17Z</time>
      </trkpt>
      <trkpt lat="46.44552" lon="6.08952">
        <ele>1231.533</ele>
        <time>2013-10-19T11:41:28Z</time>
      </trkpt>
      <trkpt lat="46.44552" lon="6.08949">
        <ele>1231.578</ele>
        <time>2013-10-19T11:41:30Z</time>
      </trkpt>
      <trkpt lat="46.44547" lon="6.08935">
        <ele>1232.395</ele>
        <time>2013-10-19T11:41:36Z</time>
      </trkpt>
      <trkpt lat="46.44548" lon="6.08927">
        <ele>1232.613</ele>
        <time>2013-10-19T11:41:42Z</time>
      </trkpt>
      <trkpt lat="46.44542" lon="6.0891">
        <ele>1232.279</ele>
        <time>2013-10-19T11:41:53Z</time>
      </trkpt>
      <trkpt lat="46.44543" lon="6.08908">
        <ele>1233.771</ele>
        <time>2013-10-19T11:41:56Z</time>
      </trkpt>
      <trkpt lat="46.44535" lon="6.08892">
        <ele>1233.366</ele>
        <time>2013-10-19T11:42:06Z</time>
      </trkpt>
      <trkpt lat="46.44534" lon="6.08888">
        <ele>1234.04</ele>
        <time>2013-10-19T11:42:09Z</time>
      </trkpt>
      <trkpt lat="46.44527" lon="6.08869">
        <ele>1231.62</ele>
        <time>2013-10-19T11:42:21Z</time>
      </trkpt>
      <trkpt lat="46.44521" lon="6.08854">
        <ele>1233.458</ele>
        <time>2013-10-19T11:42:32Z</time>
      </trkpt>
      <trkpt lat="46.44518" lon="6.08838">
        <ele>1232.961</ele>
        <time>2013-10-19T11:42:44Z</time>
      </trkpt>
      <trkpt lat="46.44516" lon="6.08835">
        <ele>1233.121</ele>
        <time>2013-10-19T11:42:46Z</time>
      </trkpt>
      <trkpt lat="46.44504" lon="6.08826">
        <ele>1232.779</ele>
        <time>2013-10-19T11:42:59Z</time>
      </trkpt>
      <trkpt lat="46.44498" lon="6.08826">
        <ele>1233.99</ele>
        <time>2013-10-19T11:43:02Z</time>
      </trkpt>
      <trkpt lat="46.44488" lon="6.08827">
        <ele>1233.695</ele>
        <time>2013-10-19T11:43:12Z</time>
      </trkpt>
      <trkpt lat="46.44475" lon="6.08829">
        <ele>1232.625</ele>
        <time>2013-10-19T11:43:25Z</time>
      </trkpt>
      <trkpt lat="46.44463" lon="6.08825">
        <ele>1232.409</ele>
        <time>2013-10-19T11:43:34Z</time>
      </trkpt>
      <trkpt lat="46.44449" lon="6.08813">
        <ele>1233.606</ele>
        <time>2013-10-19T11:43:48Z</time>
      </trkpt>
      <trkpt lat="46.44434" lon="6.08803">
        <ele>1232.615</ele>
        <time>2013-10-19T11:44:01Z</time>
      </trkpt>
      <trkpt lat="46.44429" lon="6.08797">
        <ele>1232.265</ele>
        <time>2013-10-19T11:44:04Z</time>
      </trkpt>
      <trkpt lat="46.44423" lon="6.08796">
        <ele>1230.82</ele>
        <time>2013-10-19T11:44:10Z</time>
      </trkpt>
      <trkpt lat="46.44416" lon="6.0879">
        <ele>1233.665</ele>
        <time>2013-10-19T11:44:15Z</time>
      </trkpt>
      <trkpt lat="46.44415" lon="6.08789">
        <ele>1232.468</ele>
        <time>2013-10-19T11:44:16Z</time>
      </trkpt>
      <trkpt lat="46.44403" lon="6.0878">
        <ele>1232.585</ele>
        <time>2013-10-19T11:44:26Z</time>
      </trkpt>
      <trkpt lat="46.44391" lon="6.08772">
        <ele>1231.328</ele>
        <time>2013-10-19T11:44:37Z</time>
      </trkpt>
      <trkpt lat="46.44387" lon="6.08772">
        <ele>1230.922</ele>
        <time>2013-10-19T11:44:39Z</time>
      </trkpt>
      <trkpt lat="46.44374" lon="6.08759">
        <ele>1232.213</ele>
        <time>2013-10-19T11:44:49Z</time>
      </trkpt>
      <trkpt lat="46.44371" lon="6.08755">
        <ele>1231.9</ele>
        <time>2013-10-19T11:44:53Z</time>
      </trkpt>
      <trkpt lat="46.44367" lon="6.08746">
        <ele>1231.72</ele>
        <time>2013-10-19T11:45:02Z</time>
      </trkpt>
      <trkpt lat="46.44366" lon="6.08745">
        <ele>1232.085</ele>
        <time>2013-10-19T11:45:04Z</time>
      </trkpt>
      <trkpt lat="46.44359" lon="6.08727">
        <ele>1233.418</ele>
        <time>2013-10-19T11:45:13Z</time>
      </trkpt>
      <trkpt lat="46.44359" lon="6.0872">
        <ele>1232.614</ele>
        <time>2013-10-19T11:45:19Z</time>
      </trkpt>
      <trkpt lat="46.44355" lon="6.08711">
        <ele>1232.487</ele>
        <time>2013-10-19T11:45:27Z</time>
      </trkpt>
      <trkpt lat="46.44355" lon="6.0871">
        <ele>1232.954</ele>
        <time>2013-10-19T11:45:29Z</time>
      </trkpt>
      <trkpt lat="46.44344" lon="6.08697">
        <ele>1234.406</ele>
        <time>2013-10-19T11:45:38Z</time>
      </trkpt>
      <trkpt lat="46.44336" lon="6.08687">
        <ele>1233.617</ele>
        <time>2013-10-19T11:45:47Z</time>
      </trkpt>
      <trkpt lat="46.4433" lon="6.08679">
        <ele>1233.208</ele>
        <time>2013-10-19T11:45:55Z</time>
      </trkpt>
      <trkpt lat="46.44327" lon="6.08666">
        <ele>1232.939</ele>
        <time>2013-10-19T11:46:01Z</time>
      </trkpt>
      <trkpt lat="46.44321" lon="6.08659">
        <ele>1233.584</ele>
        <time>2013-10-19T11:46:15Z</time>
      </trkpt>
      <trkpt lat="46.44319" lon="6.08657">
        <ele>1233.387</ele>
        <time>2013-10-19T11:46:19Z</time>
      </trkpt>
      <trkpt lat="46.44313" lon="6.08653">
        <ele>1233.218</ele>
        <time>2013-10-19T11:46:26Z</time>
      </trkpt>
      <trkpt lat="46.44312" lon="6.08644">
        <ele>1232.743</ele>
        <time>2013-10-19T11:46:33Z</time>
      </trkpt>
      <trkpt lat="46.44311" lon="6.08635">
        <ele>1231.868</ele>
        <time>2013-10-19T11:46:38Z</time>
      </trkpt>
      <trkpt lat="46.4431" lon="6.08634">
        <ele>1231.839</ele>
        <time>2013-10-19T11:46:39Z</time>
      </trkpt>
      <trkpt lat="46.44306" lon="6.08629">
        <ele>1232.516</ele>
        <time>2013-10-19T11:46:44Z</time>
      </trkpt>
      <trkpt lat="46.44305" lon="6.08627">
        <ele>1232.803</ele>
        <time>2013-10-19T11:46:45Z</time>
      </trkpt>
      <trkpt lat="46.44301" lon="6.08611">
        <ele>1232.864</ele>
        <time>2013-10-19T11:46:54Z</time>
      </trkpt>
      <trkpt lat="46.44301" lon="6.08608">
        <ele>1232.612</ele>
        <time>2013-10-19T11:46:56Z</time>
      </trkpt>
      <trkpt lat="46.44298" lon="6.08602">
        <ele>1232.166</ele>
        <time>2013-10-19T11:46:59Z</time>
      </trkpt>
      <trkpt lat="46.44295" lon="6.08585">
        <ele>1232.404</ele>
        <time>2013-10-19T11:47:11Z</time>
      </trkpt>
      <trkpt lat="46.44293" lon="6.08579">
        <ele>1231.958</ele>
        <time>2013-10-19T11:47:15Z</time>
      </trkpt>
      <trkpt lat="46.44293" lon="6.0857">
        <ele>1232.473</ele>
        <time>2013-10-19T11:47:20Z</time>
      </trkpt>
      <trkpt lat="46.44291" lon="6.08564">
        <ele>1235.634</ele>
        <time>2013-10-19T11:47:31Z</time>
      </trkpt>
      <trkpt lat="46.44291" lon="6.0856">
        <ele>1236.263</ele>
        <time>2013-10-19T11:47:44Z</time>
      </trkpt>
      <trkpt lat="46.44291" lon="6.08563">
        <ele>1234.974</ele>
        <time>2013-10-19T11:47:54Z</time>
      </trkpt>
    </trkseg>
  </trk>
</gpx>